<?xml version='1.0' encoding='UTF-8'?><gpx version="1.1" creator="JPX - https://github.com/jenetics/jpx" xmlns="http://www.topografix.com/GPX/1/1"><trk><trkseg><trkpt lat="45.908990970074" lon="11.908144151298732"><ele>294.0</ele><time>2026-04-11T10:31:05Z</time></trkpt><trkpt lat="45.909034735265585" lon="11.908279991567401"><ele>294.0</ele><time>2026-04-11T10:31:07.999Z</time></trkpt><trkpt lat="45.9090720683723" lon="11.908401308299421"><ele>294.0</ele><time>2026-04-11T10:31:09.999Z</time></trkpt><trkpt lat="45.90908798985339" lon="11.908510371103327"><ele>294.0</ele><time>2026-04-11T10:31:11.999Z</time></trkpt><trkpt lat="45.909049033839935" lon="11.908630152058393"><ele>294.0</ele><time>2026-04-11T10:31:13.999Z</time></trkpt><trkpt lat="45.908938484520675" lon="11.90869503604257"><ele>293.5</ele><time>2026-04-11T10:31:15.999Z</time></trkpt><trkpt lat="45.90885999292111" lon="11.90872591987422"><ele>293.0</ele><time>2026-04-11T10:31:16.999Z</time></trkpt><trkpt lat="45.90877019892919" lon="11.9087643267121"><ele>292.5</ele><time>2026-04-11T10:31:17.999Z</time></trkpt><trkpt lat="45.908681126950334" lon="11.908797776010791"><ele>292.0</ele><time>2026-04-11T10:31:18.999Z</time></trkpt><trkpt lat="45.908604398985126" lon="11.908832178687547"><ele>291.5</ele><time>2026-04-11T10:31:19.999Z</time></trkpt><trkpt lat="45.90851684652613" lon="11.908871031965306"><ele>291.0</ele><time>2026-04-11T10:31:20.999Z</time></trkpt><trkpt lat="45.90842107037843" lon="11.908910343636794"><ele>291.2</ele><time>2026-04-11T10:31:21.999Z</time></trkpt><trkpt lat="45.90833124707065" lon="11.908948638032175"><ele>291.40000000000003</ele><time>2026-04-11T10:31:22.999Z</time></trkpt><trkpt lat="45.908252254752774" lon="11.908984536644338"><ele>291.6</ele><time>2026-04-11T10:31:23.999Z</time></trkpt><trkpt lat="45.90818834326584" lon="11.909009581359507"><ele>291.8</ele><time>2026-04-11T10:31:24.999Z</time></trkpt><trkpt lat="45.90809170120329" lon="11.909033865036282"><ele>292.0</ele><time>2026-04-11T10:31:26.999Z</time></trkpt><trkpt lat="45.9080104555099" lon="11.909249409510059"><ele>292.0</ele><time>2026-04-11T10:31:33.999Z</time></trkpt><trkpt lat="45.90803077897768" lon="11.909354275561128"><ele>292.0</ele><time>2026-04-11T10:31:34.999Z</time></trkpt><trkpt lat="45.90806552473802" lon="11.909485409863603"><ele>292.0</ele><time>2026-04-11T10:31:35.999Z</time></trkpt><trkpt lat="45.90810259053506" lon="11.909629432412462"><ele>292.0</ele><time>2026-04-11T10:31:36.999Z</time></trkpt><trkpt lat="45.908147334116784" lon="11.909787472487642"><ele>292.0</ele><time>2026-04-11T10:31:37.999Z</time></trkpt><trkpt lat="45.908190208057384" lon="11.909936878475099"><ele>291.25</ele><time>2026-04-11T10:31:38.999Z</time></trkpt><trkpt lat="45.90823129403133" lon="11.910096056770557"><ele>290.5</ele><time>2026-04-11T10:31:39.999Z</time></trkpt><trkpt lat="45.908280922661575" lon="11.910257735719119"><ele>289.75</ele><time>2026-04-11T10:31:40.999Z</time></trkpt><trkpt lat="45.90832526486948" lon="11.910437857974312"><ele>289.0</ele><time>2026-04-11T10:31:41.999Z</time></trkpt><trkpt lat="45.908375125960916" lon="11.910621247856351"><ele>287.75</ele><time>2026-04-11T10:31:42.999Z</time></trkpt><trkpt lat="45.908423287436776" lon="11.91080246829956"><ele>286.5</ele><time>2026-04-11T10:31:43.998Z</time></trkpt><trkpt lat="45.90846884418341" lon="11.91096234586009"><ele>285.25</ele><time>2026-04-11T10:31:44.998Z</time></trkpt><trkpt lat="45.908504209720526" lon="11.911136270389058"><ele>284.0</ele><time>2026-04-11T10:31:45.998Z</time></trkpt><trkpt lat="45.90854632793479" lon="11.911311794267679"><ele>283.0</ele><time>2026-04-11T10:31:46.998Z</time></trkpt><trkpt lat="45.90858651450657" lon="11.911493452332738"><ele>282.0</ele><time>2026-04-11T10:31:47.998Z</time></trkpt><trkpt lat="45.90862889362865" lon="11.911675161462774"><ele>281.0</ele><time>2026-04-11T10:31:48.998Z</time></trkpt><trkpt lat="45.90866596158447" lon="11.911852661320093"><ele>280.0</ele><time>2026-04-11T10:31:49.998Z</time></trkpt><trkpt lat="45.90869377334788" lon="11.912041787721629"><ele>279.25</ele><time>2026-04-11T10:31:50.998Z</time></trkpt><trkpt lat="45.90871614108147" lon="11.912242159743407"><ele>278.5</ele><time>2026-04-11T10:31:51.998Z</time></trkpt><trkpt lat="45.908743529228595" lon="11.912443800915298"><ele>277.75</ele><time>2026-04-11T10:31:52.998Z</time></trkpt><trkpt lat="45.90876765155287" lon="11.912634221452606"><ele>277.0</ele><time>2026-04-11T10:31:53.998Z</time></trkpt><trkpt lat="45.908809857053036" lon="11.912822365650369"><ele>276.5</ele><time>2026-04-11T10:31:54.998Z</time></trkpt><trkpt lat="45.908853447749536" lon="11.913028339873085"><ele>276.0</ele><time>2026-04-11T10:31:55.998Z</time></trkpt><trkpt lat="45.90889867088624" lon="11.91320748712972"><ele>275.5</ele><time>2026-04-11T10:31:56.998Z</time></trkpt><trkpt lat="45.90892001273695" lon="11.913393870100778"><ele>275.0</ele><time>2026-04-11T10:31:57.998Z</time></trkpt><trkpt lat="45.90895654193111" lon="11.91357003993829"><ele>274.4</ele><time>2026-04-11T10:31:58.998Z</time></trkpt><trkpt lat="45.90899063042446" lon="11.913729221096435"><ele>273.8</ele><time>2026-04-11T10:31:59.998Z</time></trkpt><trkpt lat="45.90902600293463" lon="11.913894097277842"><ele>273.2</ele><time>2026-04-11T10:32:00.998Z</time></trkpt><trkpt lat="45.90906982483904" lon="11.914032659944017"><ele>272.6</ele><time>2026-04-11T10:32:01.998Z</time></trkpt><trkpt lat="45.909106075114984" lon="11.914158414980754"><ele>272.0</ele><time>2026-04-11T10:32:02.998Z</time></trkpt><trkpt lat="45.90919788030719" lon="11.914216560166642"><ele>270.25</ele><time>2026-04-11T10:32:03.998Z</time></trkpt><trkpt lat="45.90930808368173" lon="11.914285908176357"><ele>268.5</ele><time>2026-04-11T10:32:04.998Z</time></trkpt><trkpt lat="45.909420999172916" lon="11.914369670220642"><ele>266.75</ele><time>2026-04-11T10:32:05.998Z</time></trkpt><trkpt lat="45.90955252728307" lon="11.91441599553354"><ele>265.0</ele><time>2026-04-11T10:32:06.998Z</time></trkpt><trkpt lat="45.90968935168391" lon="11.914479861691252"><ele>265.0</ele><time>2026-04-11T10:32:07.998Z</time></trkpt><trkpt lat="45.909828126178" lon="11.91451643352921"><ele>265.0</ele><time>2026-04-11T10:32:08.998Z</time></trkpt><trkpt lat="45.909963995024825" lon="11.914538288680708"><ele>265.0</ele><time>2026-04-11T10:32:09.998Z</time></trkpt><trkpt lat="45.91010188358391" lon="11.914544489462171"><ele>265.0</ele><time>2026-04-11T10:32:10.998Z</time></trkpt><trkpt lat="45.91024261989079" lon="11.914550225877045"><ele>263.0</ele><time>2026-04-11T10:32:11.998Z</time></trkpt><trkpt lat="45.91039242091735" lon="11.914540194007431"><ele>261.0</ele><time>2026-04-11T10:32:12.998Z</time></trkpt><trkpt lat="45.9105379756162" lon="11.914530358285086"><ele>259.0</ele><time>2026-04-11T10:32:13.998Z</time></trkpt><trkpt lat="45.91066875988235" lon="11.914542767832252"><ele>257.0</ele><time>2026-04-11T10:32:14.998Z</time></trkpt><trkpt lat="45.9108140239247" lon="11.914553986752528"><ele>258.0</ele><time>2026-04-11T10:32:15.998Z</time></trkpt><trkpt lat="45.91095843355292" lon="11.914614506324755"><ele>259.0</ele><time>2026-04-11T10:32:16.998Z</time></trkpt><trkpt lat="45.91106692229737" lon="11.914710405968385"><ele>260.0</ele><time>2026-04-11T10:32:17.998Z</time></trkpt><trkpt lat="45.91118640900217" lon="11.914816172897785"><ele>261.0</ele><time>2026-04-11T10:32:18.998Z</time></trkpt><trkpt lat="45.91128763268687" lon="11.914919452517859"><ele>261.0</ele><time>2026-04-11T10:32:19.998Z</time></trkpt><trkpt lat="45.91135824790431" lon="11.915056799197282"><ele>261.0</ele><time>2026-04-11T10:32:20.998Z</time></trkpt><trkpt lat="45.91139025667381" lon="11.915228224650443"><ele>261.0</ele><time>2026-04-11T10:32:21.999Z</time></trkpt><trkpt lat="45.91145806472311" lon="11.915398822657355"><ele>261.0</ele><time>2026-04-11T10:32:22.999Z</time></trkpt><trkpt lat="45.911396886801" lon="11.915624422787564"><ele>262.0</ele><time>2026-04-11T10:32:23.999Z</time></trkpt><trkpt lat="45.91133380656465" lon="11.915838483784258"><ele>263.0</ele><time>2026-04-11T10:32:24.999Z</time></trkpt><trkpt lat="45.91125806910001" lon="11.916061418437312"><ele>264.0</ele><time>2026-04-11T10:32:25.999Z</time></trkpt><trkpt lat="45.91117450914472" lon="11.916259002292303"><ele>264.0</ele><time>2026-04-11T10:32:26.999Z</time></trkpt><trkpt lat="45.91108619524699" lon="11.91646072597222"><ele>264.0</ele><time>2026-04-11T10:32:27.999Z</time></trkpt><trkpt lat="45.910958123022425" lon="11.91662523039525"><ele>264.0</ele><time>2026-04-11T10:32:28.999Z</time></trkpt><trkpt lat="45.91087775554911" lon="11.9168258631221"><ele>260.3333333333333</ele><time>2026-04-11T10:32:29.999Z</time></trkpt><trkpt lat="45.910778595007855" lon="11.91702114365941"><ele>256.66666666666663</ele><time>2026-04-11T10:32:30.999Z</time></trkpt><trkpt lat="45.91068545788112" lon="11.917226573959054"><ele>253.0</ele><time>2026-04-11T10:32:31.999Z</time></trkpt><trkpt lat="45.91060690949098" lon="11.91744778966766"><ele>253.33333333333331</ele><time>2026-04-11T10:32:32.999Z</time></trkpt><trkpt lat="45.91053973166997" lon="11.9176772865746"><ele>253.66666666666669</ele><time>2026-04-11T10:32:33.999Z</time></trkpt><trkpt lat="45.91047522676494" lon="11.917915432098617"><ele>254.0</ele><time>2026-04-11T10:32:35Z</time></trkpt><trkpt lat="45.91041239910932" lon="11.918157558282118"><ele>253.66666666666669</ele><time>2026-04-11T10:32:36Z</time></trkpt><trkpt lat="45.910352937932714" lon="11.918401707314805"><ele>253.33333333333331</ele><time>2026-04-11T10:32:37Z</time></trkpt><trkpt lat="45.910290444623506" lon="11.918647010714158"><ele>253.0</ele><time>2026-04-11T10:32:38Z</time></trkpt><trkpt lat="45.91022342332319" lon="11.918896531714294"><ele>253.0</ele><time>2026-04-11T10:32:39Z</time></trkpt><trkpt lat="45.91013941872672" lon="11.919146970485151"><ele>253.0</ele><time>2026-04-11T10:32:40Z</time></trkpt><trkpt lat="45.91005056984351" lon="11.919382477740704"><ele>253.0</ele><time>2026-04-11T10:32:41Z</time></trkpt><trkpt lat="45.909949730520864" lon="11.919615529979875"><ele>249.0</ele><time>2026-04-11T10:32:42Z</time></trkpt><trkpt lat="45.90984764363972" lon="11.919851358885895"><ele>245.0</ele><time>2026-04-11T10:32:43Z</time></trkpt><trkpt lat="45.909747104868735" lon="11.92009628079607"><ele>241.0</ele><time>2026-04-11T10:32:44Z</time></trkpt><trkpt lat="45.909640855975674" lon="11.920338036721356"><ele>241.0</ele><time>2026-04-11T10:32:45Z</time></trkpt><trkpt lat="45.90953397172151" lon="11.920578984214211"><ele>241.0</ele><time>2026-04-11T10:32:46Z</time></trkpt><trkpt lat="45.90942536158614" lon="11.920817173281545"><ele>241.0</ele><time>2026-04-11T10:32:47Z</time></trkpt><trkpt lat="45.90932754808692" lon="11.921050762230232"><ele>239.0</ele><time>2026-04-11T10:32:48Z</time></trkpt><trkpt lat="45.90923115489186" lon="11.921277962114628"><ele>237.0</ele><time>2026-04-11T10:32:49Z</time></trkpt><trkpt lat="45.909135454961024" lon="11.921502017465585"><ele>235.0</ele><time>2026-04-11T10:32:50Z</time></trkpt><trkpt lat="45.90904492551736" lon="11.921741310964585"><ele>235.0</ele><time>2026-04-11T10:32:51Z</time></trkpt><trkpt lat="45.908947772990416" lon="11.921977790953061"><ele>235.0</ele><time>2026-04-11T10:32:52Z</time></trkpt><trkpt lat="45.9088690602711" lon="11.922226345564903"><ele>235.0</ele><time>2026-04-11T10:32:53Z</time></trkpt><trkpt lat="45.90880182068025" lon="11.92249329364767"><ele>235.33333333333331</ele><time>2026-04-11T10:32:54Z</time></trkpt><trkpt lat="45.908735339780584" lon="11.922746722841703"><ele>235.66666666666669</ele><time>2026-04-11T10:32:55Z</time></trkpt><trkpt lat="45.90867419609274" lon="11.923007246360536"><ele>236.0</ele><time>2026-04-11T10:32:56Z</time></trkpt><trkpt lat="45.9086013872816" lon="11.923267475016846"><ele>234.0</ele><time>2026-04-11T10:32:57Z</time></trkpt><trkpt lat="45.90853998762085" lon="11.923532368139012"><ele>232.0</ele><time>2026-04-11T10:32:58Z</time></trkpt><trkpt lat="45.90847898161072" lon="11.923791348120472"><ele>230.0</ele><time>2026-04-11T10:32:59Z</time></trkpt><trkpt lat="45.908458857575226" lon="11.924060117206992"><ele>229.33333333333334</ele><time>2026-04-11T10:33:00Z</time></trkpt><trkpt lat="45.908454031973186" lon="11.92433888021644"><ele>228.66666666666669</ele><time>2026-04-11T10:33:00.999Z</time></trkpt><trkpt lat="45.90845330798001" lon="11.924621021405645"><ele>228.0</ele><time>2026-04-11T10:33:01.999Z</time></trkpt><trkpt lat="45.90844051864956" lon="11.92489444591536"><ele>228.33333333333331</ele><time>2026-04-11T10:33:02.999Z</time></trkpt><trkpt lat="45.908449896548106" lon="11.925171673392615"><ele>228.66666666666666</ele><time>2026-04-11T10:33:03.999Z</time></trkpt><trkpt lat="45.90846026707842" lon="11.925454013962268"><ele>229.0</ele><time>2026-04-11T10:33:04.999Z</time></trkpt><trkpt lat="45.90846361440348" lon="11.92572482156906"><ele>228.33333333333331</ele><time>2026-04-11T10:33:05.999Z</time></trkpt><trkpt lat="45.9084694949976" lon="11.926004409759381"><ele>227.66666666666669</ele><time>2026-04-11T10:33:06.999Z</time></trkpt><trkpt lat="45.90847248414673" lon="11.926282289802666"><ele>227.0</ele><time>2026-04-11T10:33:07.999Z</time></trkpt><trkpt lat="45.90847915957152" lon="11.926576912624206"><ele>224.66666666666669</ele><time>2026-04-11T10:33:08.999Z</time></trkpt><trkpt lat="45.90848853455397" lon="11.926863005397985"><ele>222.33333333333331</ele><time>2026-04-11T10:33:09.999Z</time></trkpt><trkpt lat="45.90848873286548" lon="11.927162403383566"><ele>220.0</ele><time>2026-04-11T10:33:10.999Z</time></trkpt><trkpt lat="45.908479342321556" lon="11.927453049820109"><ele>216.0</ele><time>2026-04-11T10:33:11.999Z</time></trkpt><trkpt lat="45.90846611019327" lon="11.92774173502062"><ele>212.0</ele><time>2026-04-11T10:33:12.999Z</time></trkpt><trkpt lat="45.908451049172974" lon="11.928026546622696"><ele>208.0</ele><time>2026-04-11T10:33:13.999Z</time></trkpt><trkpt lat="45.908421103655755" lon="11.928306422077805"><ele>207.0</ele><time>2026-04-11T10:33:14.999Z</time></trkpt><trkpt lat="45.90840123729043" lon="11.928581005999035"><ele>206.0</ele><time>2026-04-11T10:33:15.999Z</time></trkpt><trkpt lat="45.9083977598546" lon="11.928840854818993"><ele>205.0</ele><time>2026-04-11T10:33:16.999Z</time></trkpt><trkpt lat="45.9084121202964" lon="11.929118729539718"><ele>204.33333333333331</ele><time>2026-04-11T10:33:17.999Z</time></trkpt><trkpt lat="45.90844403100716" lon="11.929387261055238"><ele>203.66666666666669</ele><time>2026-04-11T10:33:18.999Z</time></trkpt><trkpt lat="45.90850286245194" lon="11.929657829023094"><ele>203.0</ele><time>2026-04-11T10:33:19.999Z</time></trkpt><trkpt lat="45.90856585978692" lon="11.929914907474949"><ele>201.0</ele><time>2026-04-11T10:33:20.999Z</time></trkpt><trkpt lat="45.90862885127247" lon="11.930170350832704"><ele>199.0</ele><time>2026-04-11T10:33:21.999Z</time></trkpt><trkpt lat="45.90868357401233" lon="11.930437244904516"><ele>197.0</ele><time>2026-04-11T10:33:22.999Z</time></trkpt><trkpt lat="45.908763448367445" lon="11.930713913043299"><ele>196.0</ele><time>2026-04-11T10:33:23.999Z</time></trkpt><trkpt lat="45.908831858473135" lon="11.930960013984592"><ele>195.0</ele><time>2026-04-11T10:33:24.999Z</time></trkpt><trkpt lat="45.90889887178154" lon="11.931206382963744"><ele>194.0</ele><time>2026-04-11T10:33:25.999Z</time></trkpt><trkpt lat="45.908956555719406" lon="11.93142103913166"><ele>194.0</ele><time>2026-04-11T10:33:26.999Z</time></trkpt><trkpt lat="45.90902063307423" lon="11.931614379494544"><ele>194.0</ele><time>2026-04-11T10:33:27.999Z</time></trkpt><trkpt lat="45.909074422894896" lon="11.931815374109483"><ele>194.0</ele><time>2026-04-11T10:33:28.999Z</time></trkpt><trkpt lat="45.90911069815852" lon="11.931989379803165"><ele>194.0</ele><time>2026-04-11T10:33:29.999Z</time></trkpt><trkpt lat="45.909103861060125" lon="11.93214838086734"><ele>193.75</ele><time>2026-04-11T10:33:30.999Z</time></trkpt><trkpt lat="45.909055541924026" lon="11.932296751795665"><ele>193.5</ele><time>2026-04-11T10:33:31.999Z</time></trkpt><trkpt lat="45.908954093652646" lon="11.932423055839699"><ele>193.25</ele><time>2026-04-11T10:33:32.999Z</time></trkpt><trkpt lat="45.908864369266254" lon="11.932600998177636"><ele>193.0</ele><time>2026-04-11T10:33:33.999Z</time></trkpt><trkpt lat="45.908767802663604" lon="11.932775520695742"><ele>193.0</ele><time>2026-04-11T10:33:34.999Z</time></trkpt><trkpt lat="45.90867000036336" lon="11.932974194109145"><ele>193.0</ele><time>2026-04-11T10:33:35.999Z</time></trkpt><trkpt lat="45.90857571375007" lon="11.933181484201482"><ele>193.0</ele><time>2026-04-11T10:33:36.999Z</time></trkpt><trkpt lat="45.908485352980286" lon="11.93336761767598"><ele>193.25</ele><time>2026-04-11T10:33:37.999Z</time></trkpt><trkpt lat="45.90838524939932" lon="11.933540991553382"><ele>193.5</ele><time>2026-04-11T10:33:38.999Z</time></trkpt><trkpt lat="45.90828390322809" lon="11.933685316903027"><ele>193.75</ele><time>2026-04-11T10:33:39.999Z</time></trkpt><trkpt lat="45.90819465049203" lon="11.933814255545641"><ele>194.0</ele><time>2026-04-11T10:33:40.999Z</time></trkpt><trkpt lat="45.90812196888395" lon="11.933931794816598"><ele>194.0</ele><time>2026-04-11T10:33:41.999Z</time></trkpt><trkpt lat="45.908070603801605" lon="11.934014592252177"><ele>194.0</ele><time>2026-04-11T10:33:42.999Z</time></trkpt><trkpt lat="45.90801413323826" lon="11.934101501676333"><ele>194.0</ele><time>2026-04-11T10:33:44.999Z</time></trkpt><trkpt lat="45.907873534983565" lon="11.934187739312955"><ele>194.0</ele><time>2026-04-11T10:33:46.999Z</time></trkpt><trkpt lat="45.90778962496073" lon="11.93428764535433"><ele>194.0</ele><time>2026-04-11T10:33:47.999Z</time></trkpt><trkpt lat="45.90771184520159" lon="11.934420604005066"><ele>194.75</ele><time>2026-04-11T10:33:48.999Z</time></trkpt><trkpt lat="45.90762964334258" lon="11.934594571521393"><ele>195.5</ele><time>2026-04-11T10:33:49.999Z</time></trkpt><trkpt lat="45.9075548472291" lon="11.934756418610064"><ele>196.25</ele><time>2026-04-11T10:33:50.999Z</time></trkpt><trkpt lat="45.90748031881485" lon="11.934902693229908"><ele>197.0</ele><time>2026-04-11T10:33:51.999Z</time></trkpt><trkpt lat="45.90740262664218" lon="11.935065874680252"><ele>194.66666666666669</ele><time>2026-04-11T10:33:52.999Z</time></trkpt><trkpt lat="45.907317719770745" lon="11.935245241706014"><ele>192.33333333333334</ele><time>2026-04-11T10:33:53.999Z</time></trkpt><trkpt lat="45.90723870249103" lon="11.935423706133006"><ele>190.0</ele><time>2026-04-11T10:33:54.999Z</time></trkpt><trkpt lat="45.90714225218888" lon="11.935602325071558"><ele>190.0</ele><time>2026-04-11T10:33:55.999Z</time></trkpt><trkpt lat="45.90704856289323" lon="11.935785319386474"><ele>190.0</ele><time>2026-04-11T10:33:56.999Z</time></trkpt><trkpt lat="45.90694889328606" lon="11.936004190558876"><ele>190.0</ele><time>2026-04-11T10:33:57.999Z</time></trkpt><trkpt lat="45.90683972763891" lon="11.936215611537458"><ele>191.0</ele><time>2026-04-11T10:33:58.999Z</time></trkpt><trkpt lat="45.90672360647115" lon="11.936444230846174"><ele>192.0</ele><time>2026-04-11T10:33:59.999Z</time></trkpt><trkpt lat="45.906598422559576" lon="11.936654273229978"><ele>193.0</ele><time>2026-04-11T10:34:00.999Z</time></trkpt><trkpt lat="45.906467694896406" lon="11.936834457151125"><ele>191.0</ele><time>2026-04-11T10:34:01.999Z</time></trkpt><trkpt lat="45.90633170412978" lon="11.937001203749322"><ele>189.0</ele><time>2026-04-11T10:34:02.999Z</time></trkpt><trkpt lat="45.90621627293071" lon="11.937198690867747"><ele>187.0</ele><time>2026-04-11T10:34:03.999Z</time></trkpt><trkpt lat="45.90611564946345" lon="11.937421156808984"><ele>186.0</ele><time>2026-04-11T10:34:04.999Z</time></trkpt><trkpt lat="45.906032579774084" lon="11.937670099614666"><ele>185.0</ele><time>2026-04-11T10:34:05.999Z</time></trkpt><trkpt lat="45.90595295248361" lon="11.937916940276766"><ele>184.0</ele><time>2026-04-11T10:34:06.999Z</time></trkpt><trkpt lat="45.90586856546654" lon="11.938146905702721"><ele>185.0</ele><time>2026-04-11T10:34:07.999Z</time></trkpt><trkpt lat="45.90578621774332" lon="11.938364878744675"><ele>186.0</ele><time>2026-04-11T10:34:08.999Z</time></trkpt><trkpt lat="45.90570096808953" lon="11.938585647688843"><ele>187.0</ele><time>2026-04-11T10:34:09.999Z</time></trkpt><trkpt lat="45.905620982914286" lon="11.938807389085099"><ele>187.0</ele><time>2026-04-11T10:34:10.999Z</time></trkpt><trkpt lat="45.90555500949407" lon="11.939023846219818"><ele>187.0</ele><time>2026-04-11T10:34:11.999Z</time></trkpt><trkpt lat="45.90553237412453" lon="11.939264771311485"><ele>187.0</ele><time>2026-04-11T10:34:12.999Z</time></trkpt><trkpt lat="45.90553420320988" lon="11.939509692213129"><ele>186.0</ele><time>2026-04-11T10:34:13.999Z</time></trkpt><trkpt lat="45.905528850742634" lon="11.939766451688605"><ele>185.0</ele><time>2026-04-11T10:34:14.999Z</time></trkpt><trkpt lat="45.905518280387355" lon="11.940008669432805"><ele>184.0</ele><time>2026-04-11T10:34:15.999Z</time></trkpt><trkpt lat="45.90549406065554" lon="11.94023472052761"><ele>184.0</ele><time>2026-04-11T10:34:16.999Z</time></trkpt><trkpt lat="45.90543195455528" lon="11.940424212625981"><ele>184.0</ele><time>2026-04-11T10:34:17.999Z</time></trkpt><trkpt lat="45.90539536001466" lon="11.940586139351852"><ele>184.0</ele><time>2026-04-11T10:34:18.999Z</time></trkpt><trkpt lat="45.905347940942704" lon="11.940707215533976"><ele>184.0</ele><time>2026-04-11T10:34:19.999Z</time></trkpt><trkpt lat="45.905285894935695" lon="11.940801276221862"><ele>184.0</ele><time>2026-04-11T10:34:20.999Z</time></trkpt><trkpt lat="45.90522072521146" lon="11.940866515996593"><ele>184.0</ele><time>2026-04-11T10:34:21.999Z</time></trkpt><trkpt lat="45.905152080469136" lon="11.940927345587877"><ele>184.0</ele><time>2026-04-11T10:34:22.998Z</time></trkpt><trkpt lat="45.905104648452394" lon="11.941001941292386"><ele>184.0</ele><time>2026-04-11T10:34:23.998Z</time></trkpt><trkpt lat="45.90508450553273" lon="11.941105417579129"><ele>184.0</ele><time>2026-04-11T10:34:24.998Z</time></trkpt><trkpt lat="45.90509126285768" lon="11.941231324264594"><ele>184.0</ele><time>2026-04-11T10:34:25.998Z</time></trkpt><trkpt lat="45.90514963341005" lon="11.94133082326471"><ele>183.75</ele><time>2026-04-11T10:34:26.998Z</time></trkpt><trkpt lat="45.905244640344456" lon="11.941391324199067"><ele>183.5</ele><time>2026-04-11T10:34:28Z</time></trkpt><trkpt lat="45.90536005096733" lon="11.941413964614457"><ele>183.25</ele><time>2026-04-11T10:34:29Z</time></trkpt><trkpt lat="45.905479369602965" lon="11.941437440100948"><ele>183.0</ele><time>2026-04-11T10:34:30Z</time></trkpt><trkpt lat="45.905619185478656" lon="11.941416249865666"><ele>183.0</ele><time>2026-04-11T10:34:31Z</time></trkpt><trkpt lat="45.905800307995115" lon="11.941504417430018"><ele>183.0</ele><time>2026-04-11T10:34:32Z</time></trkpt><trkpt lat="45.9059573311814" lon="11.941560740149784"><ele>183.0</ele><time>2026-04-11T10:34:33Z</time></trkpt><trkpt lat="45.906123190751835" lon="11.94163036297589"><ele>181.33333333333334</ele><time>2026-04-11T10:34:34Z</time></trkpt><trkpt lat="45.90630837074326" lon="11.941725863450383"><ele>179.66666666666669</ele><time>2026-04-11T10:34:35Z</time></trkpt><trkpt lat="45.90650432021923" lon="11.941815099079847"><ele>178.0</ele><time>2026-04-11T10:34:36Z</time></trkpt><trkpt lat="45.906717903802196" lon="11.941919932938738"><ele>178.0</ele><time>2026-04-11T10:34:37Z</time></trkpt><trkpt lat="45.90692129229268" lon="11.9420101842519"><ele>178.0</ele><time>2026-04-11T10:34:38Z</time></trkpt><trkpt lat="45.90712595358503" lon="11.9420974319008"><ele>178.0</ele><time>2026-04-11T10:34:39Z</time></trkpt><trkpt lat="45.9073326908684" lon="11.942193045683926"><ele>178.0</ele><time>2026-04-11T10:34:40Z</time></trkpt><trkpt lat="45.90753666642103" lon="11.94228818754666"><ele>178.0</ele><time>2026-04-11T10:34:41Z</time></trkpt><trkpt lat="45.90773766863686" lon="11.942385671719842"><ele>178.0</ele><time>2026-04-11T10:34:42Z</time></trkpt><trkpt lat="45.90793905591749" lon="11.942462171241495"><ele>179.0</ele><time>2026-04-11T10:34:43Z</time></trkpt><trkpt lat="45.908138649901716" lon="11.942498706431506"><ele>180.0</ele><time>2026-04-11T10:34:44Z</time></trkpt><trkpt lat="45.90834919835139" lon="11.94247945220741"><ele>181.0</ele><time>2026-04-11T10:34:45Z</time></trkpt><trkpt lat="45.90855241105609" lon="11.94242691922087"><ele>182.33333333333334</ele><time>2026-04-11T10:34:46Z</time></trkpt><trkpt lat="45.90875395923357" lon="11.942344723920426"><ele>183.66666666666666</ele><time>2026-04-11T10:34:47Z</time></trkpt><trkpt lat="45.908946953616564" lon="11.942257135034609"><ele>185.0</ele><time>2026-04-11T10:34:48Z</time></trkpt><trkpt lat="45.90912948008872" lon="11.942184521257268"><ele>183.66666666666666</ele><time>2026-04-11T10:34:49Z</time></trkpt><trkpt lat="45.90930818033439" lon="11.942128218662818"><ele>182.33333333333334</ele><time>2026-04-11T10:34:50Z</time></trkpt><trkpt lat="45.909483259760364" lon="11.942070749421562"><ele>181.0</ele><time>2026-04-11T10:34:51Z</time></trkpt><trkpt lat="45.90963895394027" lon="11.942021884122996"><ele>181.0</ele><time>2026-04-11T10:34:52Z</time></trkpt><trkpt lat="45.90978068113388" lon="11.941971426838213"><ele>181.0</ele><time>2026-04-11T10:34:53Z</time></trkpt><trkpt lat="45.9098985257783" lon="11.941919895266771"><ele>181.0</ele><time>2026-04-11T10:34:54Z</time></trkpt><trkpt lat="45.910043415871236" lon="11.941879071141017"><ele>181.0</ele><time>2026-04-11T10:34:55Z</time></trkpt><trkpt lat="45.910183540006585" lon="11.941812366901903"><ele>180.0</ele><time>2026-04-11T10:34:56Z</time></trkpt><trkpt lat="45.91033143796072" lon="11.941763499476215"><ele>179.0</ele><time>2026-04-11T10:34:57Z</time></trkpt><trkpt lat="45.910475127356314" lon="11.941716714082121"><ele>178.0</ele><time>2026-04-11T10:34:58Z</time></trkpt><trkpt lat="45.910641415421104" lon="11.941700131236104"><ele>182.66666666666669</ele><time>2026-04-11T10:34:59Z</time></trkpt><trkpt lat="45.91079374188853" lon="11.941664635510122"><ele>187.33333333333334</ele><time>2026-04-11T10:35:00Z</time></trkpt><trkpt lat="45.91094550106922" lon="11.941630739066563"><ele>192.0</ele><time>2026-04-11T10:35:01Z</time></trkpt><trkpt lat="45.91109026916634" lon="11.941598249570442"><ele>192.0</ele><time>2026-04-11T10:35:02Z</time></trkpt><trkpt lat="45.91123371916576" lon="11.941567654073314"><ele>192.0</ele><time>2026-04-11T10:35:03Z</time></trkpt><trkpt lat="45.911395438037374" lon="11.941539195232895"><ele>192.0</ele><time>2026-04-11T10:35:04Z</time></trkpt><trkpt lat="45.911532685146206" lon="11.94149353516914"><ele>192.0</ele><time>2026-04-11T10:35:05Z</time></trkpt><trkpt lat="45.91169153098274" lon="11.94146433728208"><ele>191.33333333333334</ele><time>2026-04-11T10:35:06Z</time></trkpt><trkpt lat="45.91185391610591" lon="11.94144365942328"><ele>190.66666666666669</ele><time>2026-04-11T10:35:07Z</time></trkpt><trkpt lat="45.91201096268523" lon="11.941398757970445"><ele>190.0</ele><time>2026-04-11T10:35:08Z</time></trkpt><trkpt lat="45.91218613862135" lon="11.941370325845707"><ele>190.0</ele><time>2026-04-11T10:35:09Z</time></trkpt><trkpt lat="45.91235808103304" lon="11.941326345878938"><ele>190.0</ele><time>2026-04-11T10:35:10Z</time></trkpt><trkpt lat="45.9125316311371" lon="11.941299000102758"><ele>190.0</ele><time>2026-04-11T10:35:11Z</time></trkpt><trkpt lat="45.91273837020969" lon="11.941299925845152"><ele>191.66666666666669</ele><time>2026-04-11T10:35:12Z</time></trkpt><trkpt lat="45.91290633938525" lon="11.941296768635143"><ele>193.33333333333334</ele><time>2026-04-11T10:35:13Z</time></trkpt><trkpt lat="45.91306791606417" lon="11.941307583081604"><ele>195.0</ele><time>2026-04-11T10:35:14Z</time></trkpt><trkpt lat="45.91324211891403" lon="11.941332708400044"><ele>196.0</ele><time>2026-04-11T10:35:15Z</time></trkpt><trkpt lat="45.91341376865837" lon="11.941356543458664"><ele>197.0</ele><time>2026-04-11T10:35:16Z</time></trkpt><trkpt lat="45.91358999519811" lon="11.941400455067807"><ele>198.0</ele><time>2026-04-11T10:35:17Z</time></trkpt><trkpt lat="45.913768496460854" lon="11.941429935558551"><ele>198.0</ele><time>2026-04-11T10:35:18Z</time></trkpt><trkpt lat="45.913952771820504" lon="11.941455390002078"><ele>198.0</ele><time>2026-04-11T10:35:19Z</time></trkpt><trkpt lat="45.9141339475496" lon="11.941483808101266"><ele>198.0</ele><time>2026-04-11T10:35:19.999Z</time></trkpt><trkpt lat="45.914318387825475" lon="11.941515321113297"><ele>201.33333333333331</ele><time>2026-04-11T10:35:20.999Z</time></trkpt><trkpt lat="45.914492516348446" lon="11.941545626049763"><ele>204.66666666666666</ele><time>2026-04-11T10:35:21.999Z</time></trkpt><trkpt lat="45.914665454818895" lon="11.941564595446046"><ele>208.0</ele><time>2026-04-11T10:35:22.999Z</time></trkpt><trkpt lat="45.91483218770479" lon="11.94159470423941"><ele>208.0</ele><time>2026-04-11T10:35:23.999Z</time></trkpt><trkpt lat="45.915001313223485" lon="11.941621629849323"><ele>208.0</ele><time>2026-04-11T10:35:24.999Z</time></trkpt><trkpt lat="45.91516906068822" lon="11.941650383929524"><ele>208.0</ele><time>2026-04-11T10:35:25.999Z</time></trkpt><trkpt lat="45.91532543793979" lon="11.941673159603171"><ele>207.25</ele><time>2026-04-11T10:35:26.999Z</time></trkpt><trkpt lat="45.915474688207595" lon="11.941699271638688"><ele>206.5</ele><time>2026-04-11T10:35:27.999Z</time></trkpt><trkpt lat="45.915605469228595" lon="11.941714119547834"><ele>205.75</ele><time>2026-04-11T10:35:28.999Z</time></trkpt><trkpt lat="45.91573397119315" lon="11.941737114218615"><ele>205.0</ele><time>2026-04-11T10:35:29.999Z</time></trkpt><trkpt lat="45.9158199154492" lon="11.941769433745689"><ele>205.0</ele><time>2026-04-11T10:35:30.999Z</time></trkpt><trkpt lat="45.915889015269784" lon="11.941817066890899"><ele>205.0</ele><time>2026-04-11T10:35:31.999Z</time></trkpt><trkpt lat="45.91597637685667" lon="11.941850764704846"><ele>205.0</ele><time>2026-04-11T10:35:34.999Z</time></trkpt><trkpt lat="45.91602721474461" lon="11.941915636259578"><ele>205.0</ele><time>2026-04-11T10:35:36.999Z</time></trkpt><trkpt lat="45.916095597452745" lon="11.942052365073136"><ele>205.0</ele><time>2026-04-11T10:36:38Z</time></trkpt><trkpt lat="45.915991844239244" lon="11.941882788800104"><ele>206.25</ele><time>2026-04-11T10:38:33.999Z</time></trkpt><trkpt lat="45.91621033541219" lon="11.941878725422846"><ele>207.5</ele><time>2026-04-11T10:41:46.999Z</time></trkpt><trkpt lat="45.916299342197696" lon="11.941837986419946"><ele>208.75</ele><time>2026-04-11T10:41:48.999Z</time></trkpt><trkpt lat="45.91638076841739" lon="11.941833865109395"><ele>210.0</ele><time>2026-04-11T10:41:49.999Z</time></trkpt><trkpt lat="45.91648669405804" lon="11.941844436985784"><ele>210.0</ele><time>2026-04-11T10:41:50.999Z</time></trkpt><trkpt lat="45.91659731277977" lon="11.941873223632578"><ele>210.0</ele><time>2026-04-11T10:41:51.999Z</time></trkpt><trkpt lat="45.916713064292225" lon="11.941901469329919"><ele>210.0</ele><time>2026-04-11T10:41:52.999Z</time></trkpt><trkpt lat="45.91684533118588" lon="11.941918294596933"><ele>210.0</ele><time>2026-04-11T10:41:53.999Z</time></trkpt><trkpt lat="45.91699814448709" lon="11.941950316160451"><ele>212.25</ele><time>2026-04-11T10:41:54.999Z</time></trkpt><trkpt lat="45.91713014714262" lon="11.94198934620954"><ele>214.5</ele><time>2026-04-11T10:41:55.999Z</time></trkpt><trkpt lat="45.91727642413984" lon="11.942013316210284"><ele>216.75</ele><time>2026-04-11T10:41:56.999Z</time></trkpt><trkpt lat="45.91744355725351" lon="11.94202541130472"><ele>219.0</ele><time>2026-04-11T10:41:57.999Z</time></trkpt><trkpt lat="45.91760188980234" lon="11.942053120585463"><ele>220.0</ele><time>2026-04-11T10:41:58.999Z</time></trkpt><trkpt lat="45.91776129123526" lon="11.9420855416036"><ele>221.0</ele><time>2026-04-11T10:41:59.999Z</time></trkpt><trkpt lat="45.9179116632131" lon="11.942151724691282"><ele>222.0</ele><time>2026-04-11T10:42:00.999Z</time></trkpt><trkpt lat="45.91805271854096" lon="11.942221711902999"><ele>222.0</ele><time>2026-04-11T10:42:01.999Z</time></trkpt><trkpt lat="45.91819796995774" lon="11.942304880503244"><ele>222.0</ele><time>2026-04-11T10:42:02.999Z</time></trkpt><trkpt lat="45.91833563101196" lon="11.942393351969303"><ele>222.0</ele><time>2026-04-11T10:42:03.999Z</time></trkpt><trkpt lat="45.91845289700486" lon="11.942501644511381"><ele>222.0</ele><time>2026-04-11T10:42:04.999Z</time></trkpt><trkpt lat="45.91855305413945" lon="11.942633244025327"><ele>221.5</ele><time>2026-04-11T10:42:05.999Z</time></trkpt><trkpt lat="45.91866332856974" lon="11.942740310650661"><ele>221.0</ele><time>2026-04-11T10:42:06.999Z</time></trkpt><trkpt lat="45.91876409924929" lon="11.942838989313293"><ele>220.5</ele><time>2026-04-11T10:42:07.999Z</time></trkpt><trkpt lat="45.91885743949204" lon="11.942933239024777"><ele>220.0</ele><time>2026-04-11T10:42:08.999Z</time></trkpt><trkpt lat="45.918947916400526" lon="11.943018992571506"><ele>220.0</ele><time>2026-04-11T10:42:09.999Z</time></trkpt><trkpt lat="45.91902726777791" lon="11.943098349207437"><ele>220.0</ele><time>2026-04-11T10:42:10.999Z</time></trkpt><trkpt lat="45.91910183562926" lon="11.943178194427963"><ele>220.0</ele><time>2026-04-11T10:42:11.999Z</time></trkpt><trkpt lat="45.91916545745233" lon="11.943241969186875"><ele>220.0</ele><time>2026-04-11T10:42:12.999Z</time></trkpt><trkpt lat="45.919302413133" lon="11.943088728274402"><ele>220.0</ele><time>2026-04-11T10:42:13.999Z</time></trkpt><trkpt lat="45.91937086994754" lon="11.942988054181903"><ele>222.0</ele><time>2026-04-11T10:42:14.999Z</time></trkpt><trkpt lat="45.91942640733838" lon="11.942850696237217"><ele>224.0</ele><time>2026-04-11T10:42:15.999Z</time></trkpt><trkpt lat="45.919469286319185" lon="11.942693906426355"><ele>226.0</ele><time>2026-04-11T10:42:16.999Z</time></trkpt><trkpt lat="45.91952238149795" lon="11.942547149629217"><ele>228.0</ele><time>2026-04-11T10:42:17.999Z</time></trkpt><trkpt lat="45.91956835782278" lon="11.942410453076763"><ele>230.0</ele><time>2026-04-11T10:42:18.999Z</time></trkpt><trkpt lat="45.9196049729709" lon="11.942293348385174"><ele>230.75</ele><time>2026-04-11T10:42:19.999Z</time></trkpt><trkpt lat="45.919647422881006" lon="11.94214561386377"><ele>231.5</ele><time>2026-04-11T10:42:20.999Z</time></trkpt><trkpt lat="45.91969444228988" lon="11.94197215384089"><ele>232.25</ele><time>2026-04-11T10:42:21.999Z</time></trkpt><trkpt lat="45.919738621250346" lon="11.94176677066432"><ele>233.0</ele><time>2026-04-11T10:42:22.999Z</time></trkpt><trkpt lat="45.9198026236282" lon="11.941526386876092"><ele>235.0</ele><time>2026-04-11T10:42:23.999Z</time></trkpt><trkpt lat="45.919870574094034" lon="11.941269287824179"><ele>237.0</ele><time>2026-04-11T10:42:24.999Z</time></trkpt><trkpt lat="45.919921523509906" lon="11.941029163970027"><ele>239.0</ele><time>2026-04-11T10:42:25.999Z</time></trkpt><trkpt lat="45.91996573272832" lon="11.940782037714394"><ele>240.33333333333334</ele><time>2026-04-11T10:42:26.999Z</time></trkpt><trkpt lat="45.92000312761549" lon="11.940533215316542"><ele>241.66666666666669</ele><time>2026-04-11T10:42:27.999Z</time></trkpt><trkpt lat="45.92006075717554" lon="11.940312936428766"><ele>243.0</ele><time>2026-04-11T10:42:28.999Z</time></trkpt><trkpt lat="45.920101363064276" lon="11.940105974051395"><ele>245.75</ele><time>2026-04-11T10:42:29.999Z</time></trkpt><trkpt lat="45.92012369164906" lon="11.939915652581178"><ele>248.5</ele><time>2026-04-11T10:42:30.999Z</time></trkpt><trkpt lat="45.92015648735543" lon="11.939747536063171"><ele>251.25</ele><time>2026-04-11T10:42:31.999Z</time></trkpt><trkpt lat="45.920193703283715" lon="11.939598660935774"><ele>254.0</ele><time>2026-04-11T10:42:32.999Z</time></trkpt><trkpt lat="45.92021283230394" lon="11.939446640591123"><ele>254.0</ele><time>2026-04-11T10:42:33.999Z</time></trkpt><trkpt lat="45.92023872326544" lon="11.939286933144324"><ele>253.99999999999997</ele><time>2026-04-11T10:42:34.999Z</time></trkpt><trkpt lat="45.92025416810931" lon="11.939125363061983"><ele>253.99999999999997</ele><time>2026-04-11T10:42:35.999Z</time></trkpt><trkpt lat="45.92026642936793" lon="11.938974583170438"><ele>254.0</ele><time>2026-04-11T10:42:36.999Z</time></trkpt><trkpt lat="45.92029947152006" lon="11.938824403668196"><ele>254.0</ele><time>2026-04-11T10:42:37.999Z</time></trkpt><trkpt lat="45.920319531793396" lon="11.938653381591081"><ele>254.79999999999998</ele><time>2026-04-11T10:42:38.999Z</time></trkpt><trkpt lat="45.920339601971165" lon="11.93848308426262"><ele>255.59999999999997</ele><time>2026-04-11T10:42:39.999Z</time></trkpt><trkpt lat="45.92035748315461" lon="11.938330252259249"><ele>256.4</ele><time>2026-04-11T10:42:40.999Z</time></trkpt><trkpt lat="45.92035915858714" lon="11.93818492855043"><ele>257.2</ele><time>2026-04-11T10:42:41.999Z</time></trkpt><trkpt lat="45.92037717970042" lon="11.938035035251465"><ele>258.0</ele><time>2026-04-11T10:42:42.999Z</time></trkpt><trkpt lat="45.920395043785405" lon="11.937873758184836"><ele>258.75</ele><time>2026-04-11T10:42:43.999Z</time></trkpt><trkpt lat="45.92041500133319" lon="11.937709966608265"><ele>259.5</ele><time>2026-04-11T10:42:44.999Z</time></trkpt><trkpt lat="45.92045399431543" lon="11.937555985288132"><ele>260.25</ele><time>2026-04-11T10:42:45.999Z</time></trkpt><trkpt lat="45.9204699659114" lon="11.937383554329223"><ele>261.0</ele><time>2026-04-11T10:42:46.999Z</time></trkpt><trkpt lat="45.92052992718379" lon="11.937213305003509"><ele>261.5</ele><time>2026-04-11T10:42:47.999Z</time></trkpt><trkpt lat="45.920572745352885" lon="11.937040163494318"><ele>262.0</ele><time>2026-04-11T10:42:48.999Z</time></trkpt><trkpt lat="45.920616141578655" lon="11.936868191293899"><ele>262.5</ele><time>2026-04-11T10:42:49.999Z</time></trkpt><trkpt lat="45.92065760512939" lon="11.936705924090399"><ele>263.0</ele><time>2026-04-11T10:42:50.999Z</time></trkpt><trkpt lat="45.92068039310582" lon="11.93655222901444"><ele>264.1666666666667</ele><time>2026-04-11T10:42:52Z</time></trkpt><trkpt lat="45.92071573054037" lon="11.93642421171562"><ele>265.33333333333337</ele><time>2026-04-11T10:42:53Z</time></trkpt><trkpt lat="45.920747818708335" lon="11.936304271803492"><ele>266.5</ele><time>2026-04-11T10:42:54Z</time></trkpt><trkpt lat="45.92078026548315" lon="11.936191714021366"><ele>267.6666666666667</ele><time>2026-04-11T10:42:55Z</time></trkpt><trkpt lat="45.92080558966575" lon="11.936076793060527"><ele>268.8333333333333</ele><time>2026-04-11T10:42:56Z</time></trkpt><trkpt lat="45.92082898583863" lon="11.9359712915698"><ele>270.0</ele><time>2026-04-11T10:42:57Z</time></trkpt><trkpt lat="45.920866656492194" lon="11.93588065905727"><ele>272.0</ele><time>2026-04-11T10:42:58Z</time></trkpt><trkpt lat="45.92091174846016" lon="11.935701861575662"><ele>274.0</ele><time>2026-04-11T10:43:00Z</time></trkpt><trkpt lat="45.92094204372833" lon="11.935583100768476"><ele>276.0</ele><time>2026-04-11T10:43:01Z</time></trkpt><trkpt lat="45.92096031637618" lon="11.93544969028309"><ele>278.0</ele><time>2026-04-11T10:43:02Z</time></trkpt><trkpt lat="45.92099126051372" lon="11.935321943099565"><ele>280.0</ele><time>2026-04-11T10:43:03Z</time></trkpt><trkpt lat="45.921030780863894" lon="11.935187714974955"><ele>279.25</ele><time>2026-04-11T10:43:04Z</time></trkpt><trkpt lat="45.92106477800456" lon="11.935035394598534"><ele>278.5</ele><time>2026-04-11T10:43:05Z</time></trkpt><trkpt lat="45.92110285467093" lon="11.934869615613316"><ele>277.75</ele><time>2026-04-11T10:43:06Z</time></trkpt><trkpt lat="45.92113756650059" lon="11.934696742747658"><ele>277.0</ele><time>2026-04-11T10:43:07Z</time></trkpt><trkpt lat="45.92115910950219" lon="11.93453613954979"><ele>277.0</ele><time>2026-04-11T10:43:08Z</time></trkpt><trkpt lat="45.92117441998726" lon="11.934357503494176"><ele>277.0</ele><time>2026-04-11T10:43:09Z</time></trkpt><trkpt lat="45.921184619606585" lon="11.934192354196234"><ele>277.0</ele><time>2026-04-11T10:43:10Z</time></trkpt><trkpt lat="45.92118534793599" lon="11.934037844516418"><ele>277.0</ele><time>2026-04-11T10:43:11Z</time></trkpt><trkpt lat="45.921183165530486" lon="11.933873432834202"><ele>277.0</ele><time>2026-04-11T10:43:12Z</time></trkpt><trkpt lat="45.92118867462086" lon="11.93371945958722"><ele>277.0</ele><time>2026-04-11T10:43:13Z</time></trkpt><trkpt lat="45.9211894813586" lon="11.93356082442467"><ele>277.0</ele><time>2026-04-11T10:43:14Z</time></trkpt><trkpt lat="45.92119341450988" lon="11.933412170824809"><ele>277.0</ele><time>2026-04-11T10:43:15Z</time></trkpt><trkpt lat="45.921190014159684" lon="11.93327434706785"><ele>277.0</ele><time>2026-04-11T10:43:16Z</time></trkpt><trkpt lat="45.9211932766692" lon="11.933139201536061"><ele>277.0</ele><time>2026-04-11T10:43:17Z</time></trkpt><trkpt lat="45.92119542557996" lon="11.933029961514446"><ele>277.0</ele><time>2026-04-11T10:43:18Z</time></trkpt><trkpt lat="45.921196031920594" lon="11.93293342300475"><ele>277.0</ele><time>2026-04-11T10:43:19Z</time></trkpt><trkpt lat="45.92120249289481" lon="11.932757119711992"><ele>277.0</ele><time>2026-04-11T10:43:21Z</time></trkpt><trkpt lat="45.921206154783434" lon="11.932631267955726"><ele>277.0</ele><time>2026-04-11T10:43:23Z</time></trkpt><trkpt lat="45.92129341377326" lon="11.932412749912345"><ele>277.0</ele><time>2026-04-11T10:43:34Z</time></trkpt><trkpt lat="45.92135497263386" lon="11.9323922338723"><ele>277.0</ele><time>2026-04-11T10:43:35Z</time></trkpt><trkpt lat="45.92142769591053" lon="11.932352752858074"><ele>277.0</ele><time>2026-04-11T10:43:36Z</time></trkpt><trkpt lat="45.921533509979696" lon="11.932295307041793"><ele>277.0</ele><time>2026-04-11T10:43:37Z</time></trkpt><trkpt lat="45.921612940306154" lon="11.932252463373578"><ele>277.0</ele><time>2026-04-11T10:43:38Z</time></trkpt><trkpt lat="45.921699139221914" lon="11.932183034497701"><ele>277.0</ele><time>2026-04-11T10:43:39Z</time></trkpt><trkpt lat="45.921786894140524" lon="11.932147557896101"><ele>278.16666666666663</ele><time>2026-04-11T10:43:40Z</time></trkpt><trkpt lat="45.92185428413632" lon="11.932107226967219"><ele>279.3333333333333</ele><time>2026-04-11T10:43:41Z</time></trkpt><trkpt lat="45.921920783168986" lon="11.932094788328802"><ele>280.5</ele><time>2026-04-11T10:43:42Z</time></trkpt><trkpt lat="45.921985019034196" lon="11.932062531266359"><ele>281.6666666666667</ele><time>2026-04-11T10:43:43Z</time></trkpt><trkpt lat="45.92208071062841" lon="11.93201405058254"><ele>282.83333333333337</ele><time>2026-04-11T10:43:44Z</time></trkpt><trkpt lat="45.922185443756106" lon="11.93196098910116"><ele>284.0</ele><time>2026-04-11T10:43:45Z</time></trkpt><trkpt lat="45.92227992146487" lon="11.931886632173288"><ele>284.0</ele><time>2026-04-11T10:43:45.999Z</time></trkpt><trkpt lat="45.922386873107605" lon="11.93183251135594"><ele>284.0</ele><time>2026-04-11T10:43:46.999Z</time></trkpt><trkpt lat="45.92251577898716" lon="11.93178374009344"><ele>284.0</ele><time>2026-04-11T10:43:47.999Z</time></trkpt><trkpt lat="45.92263771471066" lon="11.931719857890485"><ele>284.0</ele><time>2026-04-11T10:43:48.999Z</time></trkpt><trkpt lat="45.922735456239955" lon="11.931651311711276"><ele>285.5</ele><time>2026-04-11T10:43:49.999Z</time></trkpt><trkpt lat="45.92283447242484" lon="11.931608143872882"><ele>287.0</ele><time>2026-04-11T10:43:50.999Z</time></trkpt><trkpt lat="45.922905639374584" lon="11.93157395698009"><ele>288.5</ele><time>2026-04-11T10:43:51.999Z</time></trkpt><trkpt lat="45.92297307245126" lon="11.93155385047787"><ele>290.0</ele><time>2026-04-11T10:43:53.999Z</time></trkpt><trkpt lat="45.9230370023285" lon="11.931528001537623"><ele>291.5</ele><time>2026-04-11T10:43:59.999Z</time></trkpt><trkpt lat="45.923097677409594" lon="11.93149188960241"><ele>293.0</ele><time>2026-04-11T10:44:03.999Z</time></trkpt><trkpt lat="45.923167280692915" lon="11.931454551116483"><ele>293.0</ele><time>2026-04-11T10:44:06.999Z</time></trkpt><trkpt lat="45.9232280629872" lon="11.93142138013776"><ele>293.0</ele><time>2026-04-11T10:44:09.999Z</time></trkpt><trkpt lat="45.92331794448777" lon="11.93136632328208"><ele>293.0</ele><time>2026-04-11T10:44:12.999Z</time></trkpt><trkpt lat="45.92336646476597" lon="11.931306941564097"><ele>293.0</ele><time>2026-04-11T10:44:14.999Z</time></trkpt><trkpt lat="45.923269283512326" lon="11.931112997852752"><ele>293.0</ele><time>2026-04-11T10:44:17.999Z</time></trkpt><trkpt lat="45.92320358267898" lon="11.931048488308129"><ele>293.0</ele><time>2026-04-11T10:44:18.999Z</time></trkpt><trkpt lat="45.92312127839582" lon="11.930982506129185"><ele>293.0</ele><time>2026-04-11T10:44:19.999Z</time></trkpt><trkpt lat="45.92306601439837" lon="11.930886803893783"><ele>293.0</ele><time>2026-04-11T10:44:20.999Z</time></trkpt><trkpt lat="45.923066438436784" lon="11.93063925464033"><ele>293.0</ele><time>2026-04-11T10:44:22.999Z</time></trkpt><trkpt lat="45.92305677305097" lon="11.93049725543294"><ele>292.8</ele><time>2026-04-11T10:44:23.999Z</time></trkpt><trkpt lat="45.9230401983281" lon="11.930321100023784"><ele>292.6</ele><time>2026-04-11T10:44:24.999Z</time></trkpt><trkpt lat="45.923036318253104" lon="11.930170143828505"><ele>292.4</ele><time>2026-04-11T10:44:25.999Z</time></trkpt><trkpt lat="45.92302632978862" lon="11.930019812721238"><ele>292.2</ele><time>2026-04-11T10:44:26.999Z</time></trkpt><trkpt lat="45.92301024811227" lon="11.929879387817675"><ele>292.0</ele><time>2026-04-11T10:44:27.999Z</time></trkpt><trkpt lat="45.923002705858266" lon="11.929743563007879"><ele>292.6</ele><time>2026-04-11T10:44:28.999Z</time></trkpt><trkpt lat="45.92298728267793" lon="11.929617099612202"><ele>293.2</ele><time>2026-04-11T10:44:29.999Z</time></trkpt><trkpt lat="45.92296792420671" lon="11.929486935365565"><ele>293.8</ele><time>2026-04-11T10:44:30.999Z</time></trkpt><trkpt lat="45.922943652251696" lon="11.929361108631115"><ele>294.4</ele><time>2026-04-11T10:44:31.999Z</time></trkpt><trkpt lat="45.922923680638284" lon="11.92922381476533"><ele>295.0</ele><time>2026-04-11T10:44:32.999Z</time></trkpt><trkpt lat="45.922912423631274" lon="11.929100524319601"><ele>295.3333333333333</ele><time>2026-04-11T10:44:33.999Z</time></trkpt><trkpt lat="45.92289740964612" lon="11.92896633982338"><ele>295.66666666666663</ele><time>2026-04-11T10:44:34.999Z</time></trkpt><trkpt lat="45.92288175665316" lon="11.928843785931758"><ele>296.0</ele><time>2026-04-11T10:44:35.999Z</time></trkpt><trkpt lat="45.922851864135225" lon="11.92872862390787"><ele>296.3333333333333</ele><time>2026-04-11T10:44:36.999Z</time></trkpt><trkpt lat="45.92279340706112" lon="11.928620287765241"><ele>296.6666666666667</ele><time>2026-04-11T10:44:37.999Z</time></trkpt><trkpt lat="45.92273952093131" lon="11.92852546208692"><ele>297.0</ele><time>2026-04-11T10:44:38.999Z</time></trkpt><trkpt lat="45.92268990327956" lon="11.928419073224903"><ele>297.4</ele><time>2026-04-11T10:44:39.999Z</time></trkpt><trkpt lat="45.922667790016945" lon="11.92830790635798"><ele>297.79999999999995</ele><time>2026-04-11T10:44:40.999Z</time></trkpt><trkpt lat="45.92266059178999" lon="11.928149071810983"><ele>298.2</ele><time>2026-04-11T10:44:41.999Z</time></trkpt><trkpt lat="45.922629862210634" lon="11.928032912597834"><ele>298.59999999999997</ele><time>2026-04-11T10:44:42.999Z</time></trkpt><trkpt lat="45.922616560414376" lon="11.927914906565213"><ele>299.0</ele><time>2026-04-11T10:44:43.999Z</time></trkpt><trkpt lat="45.922605731959266" lon="11.92778190629872"><ele>299.0</ele><time>2026-04-11T10:44:44.999Z</time></trkpt><trkpt lat="45.92259399725206" lon="11.927681690794016"><ele>299.0</ele><time>2026-04-11T10:44:45.999Z</time></trkpt><trkpt lat="45.922575569476614" lon="11.927583785655838"><ele>299.0</ele><time>2026-04-11T10:44:46.999Z</time></trkpt><trkpt lat="45.9225553816401" lon="11.927465227779468"><ele>299.0</ele><time>2026-04-11T10:44:47.999Z</time></trkpt><trkpt lat="45.922533355606205" lon="11.927300124709015"><ele>299.0</ele><time>2026-04-11T10:44:49.999Z</time></trkpt><trkpt lat="45.92263240798155" lon="11.927171205462018"><ele>298.4</ele><time>2026-04-11T10:44:51.999Z</time></trkpt><trkpt lat="45.92267243873861" lon="11.927081732510599"><ele>297.79999999999995</ele><time>2026-04-11T10:44:52.999Z</time></trkpt><trkpt lat="45.92269542759574" lon="11.926959233606455"><ele>297.20000000000005</ele><time>2026-04-11T10:44:53.999Z</time></trkpt><trkpt lat="45.92271142629713" lon="11.926821116296454"><ele>296.6</ele><time>2026-04-11T10:44:54.999Z</time></trkpt><trkpt lat="45.92275016856377" lon="11.92668193596271"><ele>296.0</ele><time>2026-04-11T10:44:55.999Z</time></trkpt><trkpt lat="45.922766926334994" lon="11.926544289089884"><ele>295.2</ele><time>2026-04-11T10:44:56.999Z</time></trkpt><trkpt lat="45.92276788964524" lon="11.926399458228714"><ele>294.40000000000003</ele><time>2026-04-11T10:44:58Z</time></trkpt><trkpt lat="45.92278309497421" lon="11.926264826368735"><ele>293.6</ele><time>2026-04-11T10:44:59Z</time></trkpt><trkpt lat="45.92278160375692" lon="11.926137723666292"><ele>292.8</ele><time>2026-04-11T10:45:00Z</time></trkpt><trkpt lat="45.92276168693418" lon="11.926012381116509"><ele>292.0</ele><time>2026-04-11T10:45:01Z</time></trkpt><trkpt lat="45.92271415257692" lon="11.925888863537553"><ele>291.6</ele><time>2026-04-11T10:45:02Z</time></trkpt><trkpt lat="45.92265400044738" lon="11.92575440053809"><ele>291.2</ele><time>2026-04-11T10:45:03Z</time></trkpt><trkpt lat="45.922598559833716" lon="11.925622765051834"><ele>290.8</ele><time>2026-04-11T10:45:04Z</time></trkpt><trkpt lat="45.922545029000354" lon="11.925477028575783"><ele>290.4</ele><time>2026-04-11T10:45:05Z</time></trkpt><trkpt lat="45.92249252300344" lon="11.925351708086454"><ele>290.0</ele><time>2026-04-11T10:45:06Z</time></trkpt><trkpt lat="45.922442184372144" lon="11.92522490755395"><ele>285.8</ele><time>2026-04-11T10:45:07Z</time></trkpt><trkpt lat="45.92240630387237" lon="11.925113514679058"><ele>281.6</ele><time>2026-04-11T10:45:08Z</time></trkpt><trkpt lat="45.922383655878946" lon="11.924978556115423"><ele>277.4</ele><time>2026-04-11T10:45:09Z</time></trkpt><trkpt lat="45.92238020622884" lon="11.92484788073588"><ele>273.2</ele><time>2026-04-11T10:45:10Z</time></trkpt><trkpt lat="45.92238159075763" lon="11.924692802133693"><ele>269.0</ele><time>2026-04-11T10:45:11Z</time></trkpt><trkpt lat="45.9223872286089" lon="11.924531313971432"><ele>269.0</ele><time>2026-04-11T10:45:12Z</time></trkpt><trkpt lat="45.922381798727805" lon="11.924397238165696"><ele>269.0</ele><time>2026-04-11T10:45:13Z</time></trkpt><trkpt lat="45.92242249900341" lon="11.924256295597473"><ele>269.0</ele><time>2026-04-11T10:45:14Z</time></trkpt><trkpt lat="45.92245753692059" lon="11.924144843207277"><ele>269.0</ele><time>2026-04-11T10:45:15Z</time></trkpt><trkpt lat="45.92250794082275" lon="11.92402659605445"><ele>269.0</ele><time>2026-04-11T10:45:16Z</time></trkpt><trkpt lat="45.92259129448305" lon="11.923920730899772"><ele>274.0</ele><time>2026-04-11T10:45:17Z</time></trkpt><trkpt lat="45.92270512935518" lon="11.923806227734564"><ele>279.0</ele><time>2026-04-11T10:45:18Z</time></trkpt><trkpt lat="45.92278511698048" lon="11.923657731129829"><ele>284.0</ele><time>2026-04-11T10:45:19Z</time></trkpt><trkpt lat="45.92288071715743" lon="11.923510252992115"><ele>289.0</ele><time>2026-04-11T10:45:20Z</time></trkpt><trkpt lat="45.92295917857008" lon="11.923318043262373"><ele>289.0</ele><time>2026-04-11T10:45:21Z</time></trkpt><trkpt lat="45.92303981537089" lon="11.92312216721354"><ele>289.0</ele><time>2026-04-11T10:45:22Z</time></trkpt><trkpt lat="45.92311475064947" lon="11.922924942175573"><ele>289.0</ele><time>2026-04-11T10:45:23Z</time></trkpt><trkpt lat="45.92314051826365" lon="11.922702602350451"><ele>286.66666666666663</ele><time>2026-04-11T10:45:24Z</time></trkpt><trkpt lat="45.92312680190128" lon="11.922436934556728"><ele>284.3333333333333</ele><time>2026-04-11T10:45:25Z</time></trkpt><trkpt lat="45.92309075514492" lon="11.922196613552366"><ele>282.0</ele><time>2026-04-11T10:45:26Z</time></trkpt><trkpt lat="45.92306849028671" lon="11.921937242480476"><ele>280.0</ele><time>2026-04-11T10:45:27Z</time></trkpt><trkpt lat="45.9230860213668" lon="11.921653172816006"><ele>278.0</ele><time>2026-04-11T10:45:28Z</time></trkpt><trkpt lat="45.92311911914248" lon="11.921356364600909"><ele>276.0</ele><time>2026-04-11T10:45:29Z</time></trkpt><trkpt lat="45.923126297238134" lon="11.921073628641377"><ele>275.6666666666667</ele><time>2026-04-11T10:45:30Z</time></trkpt><trkpt lat="45.92315418277654" lon="11.920813916358698"><ele>275.33333333333337</ele><time>2026-04-11T10:45:31Z</time></trkpt><trkpt lat="45.92319640502041" lon="11.920553841992866"><ele>275.0</ele><time>2026-04-11T10:45:32Z</time></trkpt><trkpt lat="45.9232529561827" lon="11.920328519185583"><ele>275.0</ele><time>2026-04-11T10:45:33Z</time></trkpt><trkpt lat="45.92335538662311" lon="11.920166858485764"><ele>275.0</ele><time>2026-04-11T10:45:34Z</time></trkpt><trkpt lat="45.92345546108888" lon="11.920031750829358"><ele>275.0</ele><time>2026-04-11T10:45:35Z</time></trkpt><trkpt lat="45.92358284991372" lon="11.919920971304018"><ele>275.0</ele><time>2026-04-11T10:45:36Z</time></trkpt><trkpt lat="45.92373334761185" lon="11.919800555025194"><ele>285.0</ele><time>2026-04-11T10:45:37Z</time></trkpt><trkpt lat="45.92387585408216" lon="11.91966662461691"><ele>295.0</ele><time>2026-04-11T10:45:38Z</time></trkpt><trkpt lat="45.923999324994" lon="11.91948763466977"><ele>305.0</ele><time>2026-04-11T10:45:39Z</time></trkpt><trkpt lat="45.924094356013136" lon="11.919285991277949"><ele>312.33333333333337</ele><time>2026-04-11T10:45:40Z</time></trkpt><trkpt lat="45.92415922356139" lon="11.919051136377258"><ele>319.6666666666667</ele><time>2026-04-11T10:45:41Z</time></trkpt><trkpt lat="45.92421509790648" lon="11.918771226855998"><ele>327.0</ele><time>2026-04-11T10:45:42Z</time></trkpt><trkpt lat="45.92431795633437" lon="11.918584265368274"><ele>327.0</ele><time>2026-04-11T10:45:43Z</time></trkpt><trkpt lat="45.924425681378345" lon="11.918426111162367"><ele>327.0</ele><time>2026-04-11T10:45:44Z</time></trkpt><trkpt lat="45.92454371947212" lon="11.918298841433241"><ele>327.0</ele><time>2026-04-11T10:45:45Z</time></trkpt><trkpt lat="45.92468338440204" lon="11.918165112628662"><ele>330.0</ele><time>2026-04-11T10:45:46Z</time></trkpt><trkpt lat="45.92482111908045" lon="11.918033772704586"><ele>333.0</ele><time>2026-04-11T10:45:47Z</time></trkpt><trkpt lat="45.92495327406213" lon="11.917902257914536"><ele>336.0</ele><time>2026-04-11T10:45:48Z</time></trkpt><trkpt lat="45.92506788589478" lon="11.917748954472792"><ele>325.3333333333333</ele><time>2026-04-11T10:45:48.999Z</time></trkpt><trkpt lat="45.925186261091696" lon="11.9175641736314"><ele>314.66666666666663</ele><time>2026-04-11T10:45:49.999Z</time></trkpt><trkpt lat="45.925292335609306" lon="11.917380306560986"><ele>304.0</ele><time>2026-04-11T10:45:50.999Z</time></trkpt><trkpt lat="45.925424819179504" lon="11.917248107112952"><ele>304.0</ele><time>2026-04-11T10:45:51.999Z</time></trkpt><trkpt lat="45.925543924353406" lon="11.917114376508446"><ele>304.0</ele><time>2026-04-11T10:45:52.999Z</time></trkpt><trkpt lat="45.92566595363213" lon="11.91699555872837"><ele>304.0</ele><time>2026-04-11T10:45:53.999Z</time></trkpt><trkpt lat="45.925805701201156" lon="11.91689047209984"><ele>301.66666666666663</ele><time>2026-04-11T10:45:54.999Z</time></trkpt><trkpt lat="45.925958810025975" lon="11.916791709084254"><ele>299.3333333333333</ele><time>2026-04-11T10:45:55.999Z</time></trkpt><trkpt lat="45.9261161784137" lon="11.916680517297989"><ele>297.0</ele><time>2026-04-11T10:45:56.999Z</time></trkpt><trkpt lat="45.92625270714724" lon="11.916539891718156"><ele>297.0</ele><time>2026-04-11T10:45:57.999Z</time></trkpt><trkpt lat="45.92638555029797" lon="11.916380316900222"><ele>297.0</ele><time>2026-04-11T10:45:58.999Z</time></trkpt><trkpt lat="45.92651647013754" lon="11.916230732997128"><ele>297.0</ele><time>2026-04-11T10:45:59.999Z</time></trkpt><trkpt lat="45.92665868419368" lon="11.916106495762355"><ele>295.3333333333333</ele><time>2026-04-11T10:46:00.999Z</time></trkpt><trkpt lat="45.92680324252063" lon="11.915995163110624"><ele>293.66666666666663</ele><time>2026-04-11T10:46:01.999Z</time></trkpt><trkpt lat="45.92694767137828" lon="11.915875495513466"><ele>292.0</ele><time>2026-04-11T10:46:02.999Z</time></trkpt><trkpt lat="45.92708942732784" lon="11.915746070495212"><ele>292.0</ele><time>2026-04-11T10:46:03.999Z</time></trkpt><trkpt lat="45.927202504172264" lon="11.915603053546592"><ele>292.0</ele><time>2026-04-11T10:46:04.999Z</time></trkpt><trkpt lat="45.927277031851055" lon="11.915406494164051"><ele>292.0</ele><time>2026-04-11T10:46:05.999Z</time></trkpt><trkpt lat="45.927374518010595" lon="11.91518753845952"><ele>293.66666666666663</ele><time>2026-04-11T10:46:06.999Z</time></trkpt><trkpt lat="45.9274846516038" lon="11.914992282712317"><ele>295.3333333333333</ele><time>2026-04-11T10:46:07.999Z</time></trkpt><trkpt lat="45.927598644321755" lon="11.914793512173643"><ele>297.0</ele><time>2026-04-11T10:46:08.999Z</time></trkpt><trkpt lat="45.92770671100012" lon="11.914608373038512"><ele>297.0</ele><time>2026-04-11T10:46:09.999Z</time></trkpt><trkpt lat="45.9278227375398" lon="11.914428951449578"><ele>297.0</ele><time>2026-04-11T10:46:10.999Z</time></trkpt><trkpt lat="45.92796057898377" lon="11.914297291756647"><ele>297.0</ele><time>2026-04-11T10:46:11.999Z</time></trkpt><trkpt lat="45.92813615898801" lon="11.914179233010515"><ele>296.6666666666667</ele><time>2026-04-11T10:46:12.999Z</time></trkpt><trkpt lat="45.928294625870144" lon="11.91402273572056"><ele>296.33333333333337</ele><time>2026-04-11T10:46:13.999Z</time></trkpt><trkpt lat="45.92844586036639" lon="11.9138637123082"><ele>296.0</ele><time>2026-04-11T10:46:14.999Z</time></trkpt><trkpt lat="45.9285989290808" lon="11.913700898457266"><ele>296.0</ele><time>2026-04-11T10:46:15.999Z</time></trkpt><trkpt lat="45.92875696460395" lon="11.913546665673767"><ele>296.0</ele><time>2026-04-11T10:46:16.999Z</time></trkpt><trkpt lat="45.92890746976373" lon="11.913405019439216"><ele>296.0</ele><time>2026-04-11T10:46:17.999Z</time></trkpt><trkpt lat="45.92906617012051" lon="11.91321961614327"><ele>302.33333333333337</ele><time>2026-04-11T10:46:18.999Z</time></trkpt><trkpt lat="45.92921028642297" lon="11.913020973698632"><ele>308.6666666666667</ele><time>2026-04-11T10:46:19.999Z</time></trkpt><trkpt lat="45.929340695535565" lon="11.91280495004004"><ele>315.0</ele><time>2026-04-11T10:46:20.999Z</time></trkpt><trkpt lat="45.929448414633455" lon="11.912605930664988"><ele>309.0</ele><time>2026-04-11T10:46:21.999Z</time></trkpt><trkpt lat="45.92955666912281" lon="11.912412152275943"><ele>303.0</ele><time>2026-04-11T10:46:22.999Z</time></trkpt><trkpt lat="45.929650251359135" lon="11.912203600376554"><ele>297.0</ele><time>2026-04-11T10:46:23.999Z</time></trkpt><trkpt lat="45.929717499950314" lon="11.911963269784748"><ele>290.6666666666667</ele><time>2026-04-11T10:46:24.999Z</time></trkpt><trkpt lat="45.92976088039567" lon="11.911723767525544"><ele>284.33333333333337</ele><time>2026-04-11T10:46:25.999Z</time></trkpt><trkpt lat="45.92978719520551" lon="11.911501801635074"><ele>278.0</ele><time>2026-04-11T10:46:26.999Z</time></trkpt><trkpt lat="45.92979870372804" lon="11.91127434990677"><ele>278.0</ele><time>2026-04-11T10:46:27.999Z</time></trkpt><trkpt lat="45.92982873776362" lon="11.911087532549418"><ele>278.0</ele><time>2026-04-11T10:46:28.999Z</time></trkpt><trkpt lat="45.92986808101146" lon="11.910970955785753"><ele>278.0</ele><time>2026-04-11T10:46:29.999Z</time></trkpt><trkpt lat="45.92993744451588" lon="11.910858647488233"><ele>278.0</ele><time>2026-04-11T10:46:30.999Z</time></trkpt><trkpt lat="45.930013097871324" lon="11.910883385966228"><ele>278.0</ele><time>2026-04-11T10:46:31.999Z</time></trkpt><trkpt lat="45.93008806999004" lon="11.910876158512972"><ele>276.75</ele><time>2026-04-11T10:46:32.999Z</time></trkpt><trkpt lat="45.93022164034002" lon="11.910870133533287"><ele>275.5</ele><time>2026-04-11T10:46:33.999Z</time></trkpt><trkpt lat="45.930356525068" lon="11.910861860116775"><ele>274.25</ele><time>2026-04-11T10:46:34.999Z</time></trkpt><trkpt lat="45.93050592042437" lon="11.910838869312656"><ele>273.0</ele><time>2026-04-11T10:46:35.999Z</time></trkpt><trkpt lat="45.930657412178704" lon="11.91077087848478"><ele>273.0</ele><time>2026-04-11T10:46:36.999Z</time></trkpt><trkpt lat="45.93078625416376" lon="11.910677424146602"><ele>273.0</ele><time>2026-04-11T10:46:37.999Z</time></trkpt><trkpt lat="45.93092221178602" lon="11.910602899132238"><ele>273.0</ele><time>2026-04-11T10:46:38.999Z</time></trkpt><trkpt lat="45.93106028116585" lon="11.910563230271062"><ele>273.0</ele><time>2026-04-11T10:46:39.999Z</time></trkpt><trkpt lat="45.931194870721654" lon="11.910541544513105"><ele>272.0</ele><time>2026-04-11T10:46:40.999Z</time></trkpt><trkpt lat="45.9313320966019" lon="11.910558322863558"><ele>271.0</ele><time>2026-04-11T10:46:41.999Z</time></trkpt><trkpt lat="45.931437914679044" lon="11.910632365227793"><ele>270.0</ele><time>2026-04-11T10:46:42.999Z</time></trkpt><trkpt lat="45.93156698321258" lon="11.910740085183914"><ele>269.0</ele><time>2026-04-11T10:46:43.999Z</time></trkpt><trkpt lat="45.93171056837302" lon="11.91081540795649"><ele>268.6666666666667</ele><time>2026-04-11T10:46:44.999Z</time></trkpt><trkpt lat="45.93186302631388" lon="11.910830201225151"><ele>268.3333333333333</ele><time>2026-04-11T10:46:45.999Z</time></trkpt><trkpt lat="45.93201208658857" lon="11.910820995190917"><ele>268.0</ele><time>2026-04-11T10:46:46.999Z</time></trkpt><trkpt lat="45.93216367709142" lon="11.91081608260241"><ele>268.0</ele><time>2026-04-11T10:46:47.999Z</time></trkpt><trkpt lat="45.93232418208786" lon="11.910797149000533"><ele>268.0</ele><time>2026-04-11T10:46:48.999Z</time></trkpt><trkpt lat="45.93247347777548" lon="11.910802926355995"><ele>268.0</ele><time>2026-04-11T10:46:49.999Z</time></trkpt><trkpt lat="45.93263364968937" lon="11.9108076663342"><ele>267.3333333333333</ele><time>2026-04-11T10:46:50.999Z</time></trkpt><trkpt lat="45.932795964901146" lon="11.910856975691873"><ele>266.6666666666667</ele><time>2026-04-11T10:46:51.999Z</time></trkpt><trkpt lat="45.93294369108442" lon="11.91091442202656"><ele>266.0</ele><time>2026-04-11T10:46:52.999Z</time></trkpt><trkpt lat="45.9331309326549" lon="11.911012524023002"><ele>274.6666666666667</ele><time>2026-04-11T10:46:53.999Z</time></trkpt><trkpt lat="45.933303061916014" lon="11.911103832525527"><ele>283.3333333333333</ele><time>2026-04-11T10:46:54.999Z</time></trkpt><trkpt lat="45.93350547925304" lon="11.911142438530621"><ele>292.0</ele><time>2026-04-11T10:46:55.999Z</time></trkpt><trkpt lat="45.93370345481811" lon="11.911115173189286"><ele>295.0</ele><time>2026-04-11T10:46:56.999Z</time></trkpt><trkpt lat="45.933875800838955" lon="11.911044326982518"><ele>298.0</ele><time>2026-04-11T10:46:57.999Z</time></trkpt><trkpt lat="45.9340548404879" lon="11.91099105045138"><ele>301.0</ele><time>2026-04-11T10:46:58.999Z</time></trkpt><trkpt lat="45.934224345977" lon="11.910939946196716"><ele>295.66666666666663</ele><time>2026-04-11T10:46:59.999Z</time></trkpt><trkpt lat="45.93441035868082" lon="11.91087822218692"><ele>290.3333333333333</ele><time>2026-04-11T10:47:00.998Z</time></trkpt><trkpt lat="45.93455854817263" lon="11.910805691442901"><ele>285.0</ele><time>2026-04-11T10:47:01.998Z</time></trkpt><trkpt lat="45.934758387083185" lon="11.910724374255798"><ele>285.0</ele><time>2026-04-11T10:47:02.998Z</time></trkpt><trkpt lat="45.93494999921084" lon="11.910683611155664"><ele>285.0</ele><time>2026-04-11T10:47:04Z</time></trkpt><trkpt lat="45.93513185423957" lon="11.910600115202858"><ele>285.0</ele><time>2026-04-11T10:47:05Z</time></trkpt><trkpt lat="45.93528097955674" lon="11.9105579221283"><ele>291.0</ele><time>2026-04-11T10:47:06Z</time></trkpt><trkpt lat="45.9354402538102" lon="11.910469320450156"><ele>297.0</ele><time>2026-04-11T10:47:07Z</time></trkpt><trkpt lat="45.93561474718225" lon="11.91039690477239"><ele>303.0</ele><time>2026-04-11T10:47:08Z</time></trkpt><trkpt lat="45.93577041731294" lon="11.9103209921576"><ele>306.0</ele><time>2026-04-11T10:47:09Z</time></trkpt><trkpt lat="45.93593680527279" lon="11.910259452848813"><ele>309.0</ele><time>2026-04-11T10:47:10Z</time></trkpt><trkpt lat="45.936073029913665" lon="11.910134497161911"><ele>312.0</ele><time>2026-04-11T10:47:11Z</time></trkpt><trkpt lat="45.93617578452561" lon="11.909963745924953"><ele>312.0</ele><time>2026-04-11T10:47:12Z</time></trkpt><trkpt lat="45.936267317319746" lon="11.909801859459623"><ele>312.0</ele><time>2026-04-11T10:47:13Z</time></trkpt><trkpt lat="45.93636735499669" lon="11.909618031651252"><ele>312.0</ele><time>2026-04-11T10:47:14Z</time></trkpt><trkpt lat="45.936418899697976" lon="11.909365798070604"><ele>305.0</ele><time>2026-04-11T10:47:15Z</time></trkpt><trkpt lat="45.93646584641829" lon="11.909126727238366"><ele>298.0</ele><time>2026-04-11T10:47:16Z</time></trkpt><trkpt lat="45.93651727077841" lon="11.908885027491669"><ele>291.0</ele><time>2026-04-11T10:47:17Z</time></trkpt><trkpt lat="45.936556311491614" lon="11.90865618163167"><ele>291.0</ele><time>2026-04-11T10:47:18Z</time></trkpt><trkpt lat="45.93659273144993" lon="11.908430065666183"><ele>291.0</ele><time>2026-04-11T10:47:19Z</time></trkpt><trkpt lat="45.93662700946161" lon="11.908218614859374"><ele>291.0</ele><time>2026-04-11T10:47:20Z</time></trkpt><trkpt lat="45.936665035323664" lon="11.90800281791877"><ele>289.0</ele><time>2026-04-11T10:47:21Z</time></trkpt><trkpt lat="45.9367124818858" lon="11.907823933036472"><ele>287.0</ele><time>2026-04-11T10:47:22Z</time></trkpt><trkpt lat="45.936777789464614" lon="11.907654970597155"><ele>285.0</ele><time>2026-04-11T10:47:23Z</time></trkpt><trkpt lat="45.93684286853751" lon="11.907489305910124"><ele>283.0</ele><time>2026-04-11T10:47:24Z</time></trkpt><trkpt lat="45.93692055021564" lon="11.907335107713347"><ele>289.0</ele><time>2026-04-11T10:47:25Z</time></trkpt><trkpt lat="45.936989249895404" lon="11.907176747103598"><ele>295.0</ele><time>2026-04-11T10:47:26Z</time></trkpt><trkpt lat="45.93703887344802" lon="11.907001172109526"><ele>301.0</ele><time>2026-04-11T10:47:27Z</time></trkpt><trkpt lat="45.937030949206545" lon="11.9068058617934"><ele>307.0</ele><time>2026-04-11T10:47:28Z</time></trkpt><trkpt lat="45.93700794103183" lon="11.906597019679058"><ele>307.0</ele><time>2026-04-11T10:47:29Z</time></trkpt><trkpt lat="45.936984536395364" lon="11.906410012191976"><ele>307.0</ele><time>2026-04-11T10:47:30Z</time></trkpt><trkpt lat="45.93695452403562" lon="11.906198417974215"><ele>307.0</ele><time>2026-04-11T10:47:31Z</time></trkpt><trkpt lat="45.93698032818664" lon="11.905980285280839"><ele>307.0</ele><time>2026-04-11T10:47:32Z</time></trkpt><trkpt lat="45.93701089043598" lon="11.905764531261788"><ele>306.66666666666663</ele><time>2026-04-11T10:47:33Z</time></trkpt><trkpt lat="45.93705246725294" lon="11.905535066310101"><ele>306.3333333333333</ele><time>2026-04-11T10:47:34Z</time></trkpt><trkpt lat="45.93709407826497" lon="11.905295535421686"><ele>306.0</ele><time>2026-04-11T10:47:35Z</time></trkpt><trkpt lat="45.937137115868914" lon="11.905065959146036"><ele>306.6666666666667</ele><time>2026-04-11T10:47:36Z</time></trkpt><trkpt lat="45.93718223609028" lon="11.90483147748343"><ele>307.33333333333337</ele><time>2026-04-11T10:47:37Z</time></trkpt><trkpt lat="45.937221373254125" lon="11.904586182693812"><ele>308.0</ele><time>2026-04-11T10:47:38Z</time></trkpt><trkpt lat="45.937232320541895" lon="11.90432588776048"><ele>307.6666666666667</ele><time>2026-04-11T10:47:39Z</time></trkpt><trkpt lat="45.937227453004525" lon="11.904100493701343"><ele>307.3333333333333</ele><time>2026-04-11T10:47:40Z</time></trkpt><trkpt lat="45.937223043434386" lon="11.903857557909847"><ele>307.0</ele><time>2026-04-11T10:47:41Z</time></trkpt><trkpt lat="45.93723643541892" lon="11.903553494361795"><ele>305.66666666666663</ele><time>2026-04-11T10:47:42Z</time></trkpt><trkpt lat="45.93725466332598" lon="11.903285194685798"><ele>304.3333333333333</ele><time>2026-04-11T10:47:43Z</time></trkpt><trkpt lat="45.937271541032814" lon="11.902986800011291"><ele>303.0</ele><time>2026-04-11T10:47:44Z</time></trkpt><trkpt lat="45.93728305214209" lon="11.902705269023775"><ele>304.3333333333333</ele><time>2026-04-11T10:47:45Z</time></trkpt><trkpt lat="45.93727733781796" lon="11.902443627857433"><ele>305.66666666666663</ele><time>2026-04-11T10:47:46Z</time></trkpt><trkpt lat="45.937257852674854" lon="11.902185210775292"><ele>307.0</ele><time>2026-04-11T10:47:47Z</time></trkpt><trkpt lat="45.93724002636947" lon="11.90193419878647"><ele>308.66666666666663</ele><time>2026-04-11T10:47:48Z</time></trkpt><trkpt lat="45.93722141708494" lon="11.901667791250365"><ele>310.3333333333333</ele><time>2026-04-11T10:47:49Z</time></trkpt><trkpt lat="45.937207063662896" lon="11.90143793142516"><ele>312.0</ele><time>2026-04-11T10:47:50Z</time></trkpt><trkpt lat="45.93715620031624" lon="11.90123717801325"><ele>312.0</ele><time>2026-04-11T10:47:51Z</time></trkpt><trkpt lat="45.937117590445766" lon="11.90101073094383"><ele>312.0</ele><time>2026-04-11T10:47:52Z</time></trkpt><trkpt lat="45.93705386156237" lon="11.900803955528515"><ele>312.0</ele><time>2026-04-11T10:47:53Z</time></trkpt><trkpt lat="45.93696345274518" lon="11.900602186982349"><ele>313.0</ele><time>2026-04-11T10:47:54Z</time></trkpt><trkpt lat="45.936883983114534" lon="11.900429567895841"><ele>314.0</ele><time>2026-04-11T10:47:54.999Z</time></trkpt><trkpt lat="45.93681210047578" lon="11.90028160352467"><ele>315.0</ele><time>2026-04-11T10:47:55.999Z</time></trkpt><trkpt lat="45.93676488160491" lon="11.900127100283198"><ele>316.0</ele><time>2026-04-11T10:47:56.999Z</time></trkpt><trkpt lat="45.936717590920715" lon="11.899981434500338"><ele>316.0</ele><time>2026-04-11T10:47:57.999Z</time></trkpt><trkpt lat="45.93670014623167" lon="11.899830297220298"><ele>316.0</ele><time>2026-04-11T10:47:58.999Z</time></trkpt><trkpt lat="45.93671203930557" lon="11.899700368607407"><ele>316.0</ele><time>2026-04-11T10:47:59.999Z</time></trkpt><trkpt lat="45.93674687882844" lon="11.899566653987767"><ele>316.0</ele><time>2026-04-11T10:48:00.999Z</time></trkpt><trkpt lat="45.93681035345311" lon="11.899430683984216"><ele>316.0</ele><time>2026-04-11T10:48:01.999Z</time></trkpt><trkpt lat="45.93689544082512" lon="11.899266894227605"><ele>313.0</ele><time>2026-04-11T10:48:02.999Z</time></trkpt><trkpt lat="45.93698180290107" lon="11.899090339399642"><ele>310.0</ele><time>2026-04-11T10:48:03.999Z</time></trkpt><trkpt lat="45.93706898099801" lon="11.89891344536372"><ele>307.0</ele><time>2026-04-11T10:48:04.999Z</time></trkpt><trkpt lat="45.93715795345267" lon="11.898733593567712"><ele>307.0</ele><time>2026-04-11T10:48:05.999Z</time></trkpt><trkpt lat="45.93725765594833" lon="11.898560992066246"><ele>307.0</ele><time>2026-04-11T10:48:06.999Z</time></trkpt><trkpt lat="45.937371365711435" lon="11.898406533373164"><ele>307.0</ele><time>2026-04-11T10:48:07.999Z</time></trkpt><trkpt lat="45.93752180036992" lon="11.898240935554686"><ele>315.3333333333333</ele><time>2026-04-11T10:48:08.999Z</time></trkpt><trkpt lat="45.93768400855718" lon="11.89809427663069"><ele>323.6666666666667</ele><time>2026-04-11T10:48:09.999Z</time></trkpt><trkpt lat="45.937815330661984" lon="11.897945153667294"><ele>332.0</ele><time>2026-04-11T10:48:10.999Z</time></trkpt><trkpt lat="45.937944450173525" lon="11.897738423572715"><ele>327.33333333333337</ele><time>2026-04-11T10:48:11.999Z</time></trkpt><trkpt lat="45.93808454651694" lon="11.897523324558819"><ele>322.6666666666667</ele><time>2026-04-11T10:48:12.999Z</time></trkpt><trkpt lat="45.93822186258383" lon="11.897319934918931"><ele>318.0</ele><time>2026-04-11T10:48:13.999Z</time></trkpt><trkpt lat="45.938346082035885" lon="11.897136359392006"><ele>322.0</ele><time>2026-04-11T10:48:14.999Z</time></trkpt><trkpt lat="45.93847698137504" lon="11.896943372479114"><ele>326.0</ele><time>2026-04-11T10:48:15.999Z</time></trkpt><trkpt lat="45.938600876592744" lon="11.896762442745814"><ele>330.0</ele><time>2026-04-11T10:48:16.999Z</time></trkpt><trkpt lat="45.93872638447466" lon="11.896554784913697"><ele>330.0</ele><time>2026-04-11T10:48:17.999Z</time></trkpt><trkpt lat="45.9388280467575" lon="11.896372387717859"><ele>330.0</ele><time>2026-04-11T10:48:18.999Z</time></trkpt><trkpt lat="45.93892976691087" lon="11.896166959908546"><ele>330.0</ele><time>2026-04-11T10:48:19.999Z</time></trkpt><trkpt lat="45.93898384839571" lon="11.895907776208192"><ele>325.3333333333333</ele><time>2026-04-11T10:48:20.999Z</time></trkpt><trkpt lat="45.93906581941108" lon="11.89567992426289"><ele>320.66666666666663</ele><time>2026-04-11T10:48:21.999Z</time></trkpt><trkpt lat="45.939128932652984" lon="11.895435743711912"><ele>316.0</ele><time>2026-04-11T10:48:22.999Z</time></trkpt><trkpt lat="45.93917111798866" lon="11.895206290411998"><ele>324.3333333333333</ele><time>2026-04-11T10:48:23.999Z</time></trkpt><trkpt lat="45.93923377643847" lon="11.894962124307945"><ele>332.6666666666667</ele><time>2026-04-11T10:48:24.999Z</time></trkpt><trkpt lat="45.939260711478674" lon="11.894715516391928"><ele>341.0</ele><time>2026-04-11T10:48:25.999Z</time></trkpt><trkpt lat="45.93931041020776" lon="11.894481931437072"><ele>339.6666666666667</ele><time>2026-04-11T10:48:26.999Z</time></trkpt><trkpt lat="45.939375667507925" lon="11.894231699460489"><ele>338.3333333333333</ele><time>2026-04-11T10:48:27.999Z</time></trkpt><trkpt lat="45.93942789448461" lon="11.89401840226425"><ele>337.0</ele><time>2026-04-11T10:48:28.999Z</time></trkpt><trkpt lat="45.93948133149345" lon="11.893801364142659"><ele>337.0</ele><time>2026-04-11T10:48:29.999Z</time></trkpt><trkpt lat="45.93952494884908" lon="11.893626105384042"><ele>337.0</ele><time>2026-04-11T10:48:30.999Z</time></trkpt><trkpt lat="45.939565979694784" lon="11.89346390600281"><ele>337.0</ele><time>2026-04-11T10:48:31.999Z</time></trkpt><trkpt lat="45.93959947633127" lon="11.89332096627809"><ele>337.0</ele><time>2026-04-11T10:48:32.999Z</time></trkpt><trkpt lat="45.93962599207811" lon="11.893202582283367"><ele>337.0</ele><time>2026-04-11T10:48:33.999Z</time></trkpt><trkpt lat="45.93964033138182" lon="11.893064882409366"><ele>336.40000000000003</ele><time>2026-04-11T10:48:34.999Z</time></trkpt><trkpt lat="45.939672798268006" lon="11.89295182587839"><ele>335.8</ele><time>2026-04-11T10:48:35.999Z</time></trkpt><trkpt lat="45.93969777502683" lon="11.892820138873613"><ele>335.2</ele><time>2026-04-11T10:48:36.999Z</time></trkpt><trkpt lat="45.939726567259996" lon="11.892683912336606"><ele>334.6</ele><time>2026-04-11T10:48:37.999Z</time></trkpt><trkpt lat="45.93975918467047" lon="11.89255146416446"><ele>334.0</ele><time>2026-04-11T10:48:38.999Z</time></trkpt><trkpt lat="45.93979601562153" lon="11.892392014192435"><ele>331.75</ele><time>2026-04-11T10:48:39.999Z</time></trkpt><trkpt lat="45.93982609097836" lon="11.892224462410676"><ele>329.5</ele><time>2026-04-11T10:48:40.999Z</time></trkpt><trkpt lat="45.93984477977332" lon="11.892052266786704"><ele>327.25</ele><time>2026-04-11T10:48:41.999Z</time></trkpt><trkpt lat="45.93985936180149" lon="11.891880765065583"><ele>325.0</ele><time>2026-04-11T10:48:42.999Z</time></trkpt><trkpt lat="45.93987642827285" lon="11.891708442190382"><ele>324.25</ele><time>2026-04-11T10:48:43.999Z</time></trkpt><trkpt lat="45.93989406694634" lon="11.89152805944687"><ele>323.5</ele><time>2026-04-11T10:48:44.999Z</time></trkpt><trkpt lat="45.9399086141796" lon="11.89136149356445"><ele>322.75</ele><time>2026-04-11T10:48:45.999Z</time></trkpt><trkpt lat="45.939916912958466" lon="11.891182225358245"><ele>322.0</ele><time>2026-04-11T10:48:46.999Z</time></trkpt><trkpt lat="45.939913200592585" lon="11.891011229605969"><ele>323.20000000000005</ele><time>2026-04-11T10:48:47.999Z</time></trkpt><trkpt lat="45.939897227408444" lon="11.89085072449594"><ele>324.4</ele><time>2026-04-11T10:48:48.999Z</time></trkpt><trkpt lat="45.939878676100804" lon="11.890689509519971"><ele>325.6</ele><time>2026-04-11T10:48:49.999Z</time></trkpt><trkpt lat="45.93986296216855" lon="11.890549890116151"><ele>326.79999999999995</ele><time>2026-04-11T10:48:50.999Z</time></trkpt><trkpt lat="45.93984676448009" lon="11.89041506923626"><ele>328.0</ele><time>2026-04-11T10:48:51.999Z</time></trkpt><trkpt lat="45.93984124145896" lon="11.89029844413092"><ele>328.0</ele><time>2026-04-11T10:48:52.999Z</time></trkpt><trkpt lat="45.939831386625926" lon="11.890171289398557"><ele>328.0</ele><time>2026-04-11T10:48:53.999Z</time></trkpt><trkpt lat="45.93982065766623" lon="11.890050659501716"><ele>328.0</ele><time>2026-04-11T10:48:54.999Z</time></trkpt><trkpt lat="45.9398098302399" lon="11.889947557958108"><ele>328.0</ele><time>2026-04-11T10:48:55.999Z</time></trkpt><trkpt lat="45.93979278989175" lon="11.889856515969276"><ele>328.0</ele><time>2026-04-11T10:48:56.999Z</time></trkpt><trkpt lat="45.93977596507912" lon="11.889745070919636"><ele>328.0</ele><time>2026-04-11T10:48:57.999Z</time></trkpt><trkpt lat="45.9397589309465" lon="11.889608530257652"><ele>329.0</ele><time>2026-04-11T10:48:58.999Z</time></trkpt><trkpt lat="45.939728437445346" lon="11.889461652289"><ele>330.0</ele><time>2026-04-11T10:48:59.999Z</time></trkpt><trkpt lat="45.939693912801175" lon="11.889308572774755"><ele>331.0</ele><time>2026-04-11T10:49:00.999Z</time></trkpt><trkpt lat="45.93964889310819" lon="11.889154797836497"><ele>332.0</ele><time>2026-04-11T10:49:01.999Z</time></trkpt><trkpt lat="45.93960655223031" lon="11.88898852174614"><ele>332.40000000000003</ele><time>2026-04-11T10:49:02.999Z</time></trkpt><trkpt lat="45.939599516275344" lon="11.888824339268702"><ele>332.8</ele><time>2026-04-11T10:49:03.999Z</time></trkpt><trkpt lat="45.939580140915474" lon="11.888659398330798"><ele>333.2</ele><time>2026-04-11T10:49:04.999Z</time></trkpt><trkpt lat="45.93954844073141" lon="11.888518526236167"><ele>333.6</ele><time>2026-04-11T10:49:05.999Z</time></trkpt><trkpt lat="45.939541306805275" lon="11.888385489380864"><ele>334.0</ele><time>2026-04-11T10:49:06.999Z</time></trkpt><trkpt lat="45.93955278201156" lon="11.888261286364662"><ele>334.2</ele><time>2026-04-11T10:49:07.998Z</time></trkpt><trkpt lat="45.93961390225836" lon="11.888146654852456"><ele>334.4</ele><time>2026-04-11T10:49:08.998Z</time></trkpt><trkpt lat="45.93966969090408" lon="11.888017946583393"><ele>334.6</ele><time>2026-04-11T10:49:10Z</time></trkpt><trkpt lat="45.93972619583399" lon="11.887873712620419"><ele>334.8</ele><time>2026-04-11T10:49:11Z</time></trkpt><trkpt lat="45.939766486343174" lon="11.887728567046056"><ele>335.0</ele><time>2026-04-11T10:49:12Z</time></trkpt><trkpt lat="45.93981840364244" lon="11.887600648717756"><ele>335.0</ele><time>2026-04-11T10:49:13Z</time></trkpt><trkpt lat="45.93988792031427" lon="11.887465704852241"><ele>335.0</ele><time>2026-04-11T10:49:14Z</time></trkpt><trkpt lat="45.939984965031805" lon="11.88734794945863"><ele>335.0</ele><time>2026-04-11T10:49:15Z</time></trkpt><trkpt lat="45.94005814091734" lon="11.887257340368151"><ele>335.0</ele><time>2026-04-11T10:49:16Z</time></trkpt><trkpt lat="45.94013670612085" lon="11.887128937381783"><ele>339.2</ele><time>2026-04-11T10:49:17Z</time></trkpt><trkpt lat="45.94022594896852" lon="11.887011277461806"><ele>343.4</ele><time>2026-04-11T10:49:18Z</time></trkpt><trkpt lat="45.940289681043964" lon="11.88687561615523"><ele>347.6</ele><time>2026-04-11T10:49:19Z</time></trkpt><trkpt lat="45.940350332322424" lon="11.886776658488634"><ele>351.8</ele><time>2026-04-11T10:49:20Z</time></trkpt><trkpt lat="45.94039918411148" lon="11.886689944192332"><ele>356.0</ele><time>2026-04-11T10:49:21Z</time></trkpt><trkpt lat="45.94046013861933" lon="11.886583185147243"><ele>356.0</ele><time>2026-04-11T10:49:22Z</time></trkpt><trkpt lat="45.9404951234992" lon="11.886493134905566"><ele>356.0</ele><time>2026-04-11T10:49:23Z</time></trkpt><trkpt lat="45.940546703479185" lon="11.886373512920835"><ele>356.0</ele><time>2026-04-11T10:49:24Z</time></trkpt><trkpt lat="45.94059014889632" lon="11.886223043687222"><ele>356.0</ele><time>2026-04-11T10:49:25Z</time></trkpt><trkpt lat="45.94062097135616" lon="11.886033759115067"><ele>356.0</ele><time>2026-04-11T10:49:26Z</time></trkpt><trkpt lat="45.94064752722029" lon="11.88585207632198"><ele>356.0</ele><time>2026-04-11T10:49:27Z</time></trkpt><trkpt lat="45.940671261020476" lon="11.885644388531999"><ele>356.0</ele><time>2026-04-11T10:49:28Z</time></trkpt><trkpt lat="45.94069512696193" lon="11.885420610423678"><ele>356.0</ele><time>2026-04-11T10:49:29Z</time></trkpt><trkpt lat="45.94072408425555" lon="11.885232905476643"><ele>356.0</ele><time>2026-04-11T10:49:30Z</time></trkpt><trkpt lat="45.94078709800797" lon="11.885029750749876"><ele>356.0</ele><time>2026-04-11T10:49:31Z</time></trkpt><trkpt lat="45.940860977698996" lon="11.884825010615701"><ele>356.0</ele><time>2026-04-11T10:49:32Z</time></trkpt><trkpt lat="45.9408756277641" lon="11.884598001426403"><ele>356.0</ele><time>2026-04-11T10:49:33Z</time></trkpt><trkpt lat="45.94089050700575" lon="11.884376046790846"><ele>366.0</ele><time>2026-04-11T10:49:34Z</time></trkpt><trkpt lat="45.94092333768917" lon="11.884173482283456"><ele>376.0</ele><time>2026-04-11T10:49:35Z</time></trkpt><trkpt lat="45.940968999570224" lon="11.883983399922977"><ele>386.0</ele><time>2026-04-11T10:49:36Z</time></trkpt><trkpt lat="45.94100759590435" lon="11.883810127941409"><ele>396.0</ele><time>2026-04-11T10:49:37Z</time></trkpt><trkpt lat="45.94104509870495" lon="11.883634322097327"><ele>396.0</ele><time>2026-04-11T10:49:38Z</time></trkpt><trkpt lat="45.941082173571495" lon="11.88346858149327"><ele>396.0</ele><time>2026-04-11T10:49:39Z</time></trkpt><trkpt lat="45.94109417633838" lon="11.883287611005462"><ele>396.0</ele><time>2026-04-11T10:49:40Z</time></trkpt><trkpt lat="45.94109826806357" lon="11.883126154426272"><ele>396.0</ele><time>2026-04-11T10:49:41Z</time></trkpt><trkpt lat="45.94108606863465" lon="11.882988532858796"><ele>391.4</ele><time>2026-04-11T10:49:42Z</time></trkpt><trkpt lat="45.94109239309155" lon="11.882865057182554"><ele>386.8</ele><time>2026-04-11T10:49:43Z</time></trkpt><trkpt lat="45.94110331348619" lon="11.882678189555872"><ele>382.2</ele><time>2026-04-11T10:49:45Z</time></trkpt><trkpt lat="45.941176397600046" lon="11.882580477990489"><ele>377.59999999999997</ele><time>2026-04-11T10:49:46Z</time></trkpt><trkpt lat="45.94123053699788" lon="11.88245517584412"><ele>373.0</ele><time>2026-04-11T10:49:47Z</time></trkpt><trkpt lat="45.94131034842469" lon="11.882326066696166"><ele>371.75</ele><time>2026-04-11T10:49:48Z</time></trkpt><trkpt lat="45.94138687164302" lon="11.88219071604688"><ele>370.5</ele><time>2026-04-11T10:49:49Z</time></trkpt><trkpt lat="45.941455591071055" lon="11.882034244829915"><ele>369.25</ele><time>2026-04-11T10:49:50Z</time></trkpt><trkpt lat="45.941515249196165" lon="11.881860780744859"><ele>368.0</ele><time>2026-04-11T10:49:51Z</time></trkpt><trkpt lat="45.9415687875554" lon="11.881699955521695"><ele>368.0</ele><time>2026-04-11T10:49:52Z</time></trkpt><trkpt lat="45.94163326844996" lon="11.881560169357865"><ele>368.0</ele><time>2026-04-11T10:49:53Z</time></trkpt><trkpt lat="45.941717089057114" lon="11.881431020945916"><ele>368.0</ele><time>2026-04-11T10:49:54Z</time></trkpt><trkpt lat="45.94181457298665" lon="11.881296132246947"><ele>368.0</ele><time>2026-04-11T10:49:55Z</time></trkpt><trkpt lat="45.941914096614546" lon="11.881176239466024"><ele>371.0</ele><time>2026-04-11T10:49:56Z</time></trkpt><trkpt lat="45.942021687851586" lon="11.881073836182356"><ele>374.0</ele><time>2026-04-11T10:49:57Z</time></trkpt><trkpt lat="45.942133733244965" lon="11.88094616220331"><ele>377.0</ele><time>2026-04-11T10:49:58Z</time></trkpt><trkpt lat="45.9422593375115" lon="11.88082954690414"><ele>380.0</ele><time>2026-04-11T10:49:59Z</time></trkpt><trkpt lat="45.94237405820496" lon="11.880675074957505"><ele>380.0</ele><time>2026-04-11T10:50:00Z</time></trkpt><trkpt lat="45.94247019864579" lon="11.880527421892966"><ele>380.0</ele><time>2026-04-11T10:50:01Z</time></trkpt><trkpt lat="45.94254907295281" lon="11.880374243799395"><ele>380.0</ele><time>2026-04-11T10:50:01.999Z</time></trkpt><trkpt lat="45.942626454762504" lon="11.880223666704767"><ele>380.0</ele><time>2026-04-11T10:50:02.999Z</time></trkpt><trkpt lat="45.942718746713844" lon="11.880116939798848"><ele>386.6</ele><time>2026-04-11T10:50:03.999Z</time></trkpt><trkpt lat="45.94280043348892" lon="11.880022699236534"><ele>393.2</ele><time>2026-04-11T10:50:04.999Z</time></trkpt><trkpt lat="45.94286318893255" lon="11.87992180747915"><ele>399.79999999999995</ele><time>2026-04-11T10:50:05.999Z</time></trkpt><trkpt lat="45.942953231536265" lon="11.879837765741271"><ele>406.4</ele><time>2026-04-11T10:50:06.999Z</time></trkpt><trkpt lat="45.94303872661645" lon="11.879725282876592"><ele>413.0</ele><time>2026-04-11T10:50:07.999Z</time></trkpt><trkpt lat="45.94312216719266" lon="11.87960079349398"><ele>413.0</ele><time>2026-04-11T10:50:08.999Z</time></trkpt><trkpt lat="45.943244393272984" lon="11.879551838990178"><ele>413.0</ele><time>2026-04-11T10:50:09.999Z</time></trkpt><trkpt lat="45.94336150856755" lon="11.879472529156821"><ele>413.0</ele><time>2026-04-11T10:50:10.999Z</time></trkpt><trkpt lat="45.943477881967105" lon="11.879410613069755"><ele>413.0</ele><time>2026-04-11T10:50:11.999Z</time></trkpt><trkpt lat="45.943609285625605" lon="11.879364618500098"><ele>413.75</ele><time>2026-04-11T10:50:12.999Z</time></trkpt><trkpt lat="45.94373565141443" lon="11.879299906480009"><ele>414.5</ele><time>2026-04-11T10:50:13.999Z</time></trkpt><trkpt lat="45.943879665791144" lon="11.879222285670938"><ele>415.25</ele><time>2026-04-11T10:50:14.999Z</time></trkpt><trkpt lat="45.94403154089569" lon="11.879181767815613"><ele>416.0</ele><time>2026-04-11T10:50:15.999Z</time></trkpt><trkpt lat="45.944169115226764" lon="11.879146574076778"><ele>424.75</ele><time>2026-04-11T10:50:16.999Z</time></trkpt><trkpt lat="45.94429779901747" lon="11.879111083965594"><ele>433.5</ele><time>2026-04-11T10:50:17.999Z</time></trkpt><trkpt lat="45.94441860621802" lon="11.87905966058554"><ele>442.25</ele><time>2026-04-11T10:50:18.999Z</time></trkpt><trkpt lat="45.94453368936208" lon="11.878984238638171"><ele>451.0</ele><time>2026-04-11T10:50:19.999Z</time></trkpt><trkpt lat="45.94465078939988" lon="11.878907891435604"><ele>451.0</ele><time>2026-04-11T10:50:20.999Z</time></trkpt><trkpt lat="45.944768231921365" lon="11.878828770785297"><ele>451.0</ele><time>2026-04-11T10:50:21.999Z</time></trkpt><trkpt lat="45.94487225027218" lon="11.878760273620648"><ele>451.0</ele><time>2026-04-11T10:50:22.999Z</time></trkpt><trkpt lat="45.94495751358867" lon="11.878698313363943"><ele>451.0</ele><time>2026-04-11T10:50:23.999Z</time></trkpt><trkpt lat="45.94501745024255" lon="11.878653793364846"><ele>451.0</ele><time>2026-04-11T10:50:24.999Z</time></trkpt><trkpt lat="45.94511859429628" lon="11.878627225027465"><ele>452.8</ele><time>2026-04-11T10:50:26.999Z</time></trkpt><trkpt lat="45.945221369606564" lon="11.878500728724793"><ele>454.6</ele><time>2026-04-11T10:50:28.999Z</time></trkpt><trkpt lat="45.945272465738526" lon="11.87840211579872"><ele>456.4</ele><time>2026-04-11T10:50:29.999Z</time></trkpt><trkpt lat="45.94532511718542" lon="11.87829444824194"><ele>458.2</ele><time>2026-04-11T10:50:30.999Z</time></trkpt><trkpt lat="45.94537406595725" lon="11.878202669287276"><ele>460.0</ele><time>2026-04-11T10:50:31.999Z</time></trkpt><trkpt lat="45.945457706196" lon="11.878067098104836"><ele>460.0</ele><time>2026-04-11T10:50:33.999Z</time></trkpt><trkpt lat="45.94552728748951" lon="11.877990190544828"><ele>460.0</ele><time>2026-04-11T10:50:34.999Z</time></trkpt><trkpt lat="45.94560398542355" lon="11.877892967607021"><ele>460.0</ele><time>2026-04-11T10:50:35.999Z</time></trkpt><trkpt lat="45.94566288824971" lon="11.87776910274595"><ele>460.0</ele><time>2026-04-11T10:50:36.999Z</time></trkpt><trkpt lat="45.945719369907536" lon="11.877613644862068"><ele>460.0</ele><time>2026-04-11T10:50:37.999Z</time></trkpt><trkpt lat="45.94578692915672" lon="11.877472124220196"><ele>462.8</ele><time>2026-04-11T10:50:38.999Z</time></trkpt><trkpt lat="45.94586037553112" lon="11.87733826232979"><ele>465.6</ele><time>2026-04-11T10:50:39.999Z</time></trkpt><trkpt lat="45.94593475462929" lon="11.877208453010276"><ele>468.4</ele><time>2026-04-11T10:50:40.999Z</time></trkpt><trkpt lat="45.946001419429386" lon="11.877085670634672"><ele>471.2</ele><time>2026-04-11T10:50:41.999Z</time></trkpt><trkpt lat="45.94606291629123" lon="11.876971055246894"><ele>474.0</ele><time>2026-04-11T10:50:42.999Z</time></trkpt><trkpt lat="45.946121235655184" lon="11.876865304973562"><ele>474.0</ele><time>2026-04-11T10:50:43.999Z</time></trkpt><trkpt lat="45.94616962282624" lon="11.876777849976776"><ele>474.0</ele><time>2026-04-11T10:50:44.999Z</time></trkpt><trkpt lat="45.946200359927936" lon="11.876698144814219"><ele>474.0</ele><time>2026-04-11T10:50:45.999Z</time></trkpt><trkpt lat="45.94631648069934" lon="11.876617061093784"><ele>474.0</ele><time>2026-04-11T10:50:47.999Z</time></trkpt><trkpt lat="45.94639481488126" lon="11.876611060309155"><ele>474.0</ele><time>2026-04-11T10:50:48.999Z</time></trkpt><trkpt lat="45.946488383824864" lon="11.87666866458356"><ele>470.6</ele><time>2026-04-11T10:50:49.999Z</time></trkpt><trkpt lat="45.946600945880064" lon="11.876702786492544"><ele>467.2</ele><time>2026-04-11T10:50:50.999Z</time></trkpt><trkpt lat="45.94668179461309" lon="11.876752054959319"><ele>463.80000000000007</ele><time>2026-04-11T10:50:51.999Z</time></trkpt><trkpt lat="45.946736619126646" lon="11.876827436931425"><ele>460.40000000000003</ele><time>2026-04-11T10:50:52.999Z</time></trkpt><trkpt lat="45.946816652479264" lon="11.876887856513168"><ele>457.0</ele><time>2026-04-11T10:50:53.999Z</time></trkpt><trkpt lat="45.94691032881485" lon="11.876912951450684"><ele>461.83333333333337</ele><time>2026-04-11T10:50:54.999Z</time></trkpt><trkpt lat="45.94699459436532" lon="11.876938267495182"><ele>466.6666666666667</ele><time>2026-04-11T10:50:55.999Z</time></trkpt><trkpt lat="45.94707779406696" lon="11.876932937779106"><ele>471.5</ele><time>2026-04-11T10:50:56.999Z</time></trkpt><trkpt lat="45.94715203266446" lon="11.876872599856434"><ele>476.33333333333337</ele><time>2026-04-11T10:50:57.999Z</time></trkpt><trkpt lat="45.94718877605012" lon="11.876789936221929"><ele>481.1666666666667</ele><time>2026-04-11T10:50:58.999Z</time></trkpt><trkpt lat="45.94723746476983" lon="11.87670176564056"><ele>486.0</ele><time>2026-04-11T10:51:00.999Z</time></trkpt><trkpt lat="45.94727661900352" lon="11.876617755758225"><ele>486.0</ele><time>2026-04-11T10:51:11.999Z</time></trkpt><trkpt lat="45.94737316405492" lon="11.876508871972648"><ele>486.0</ele><time>2026-04-11T10:51:13.998Z</time></trkpt><trkpt lat="45.94748649303104" lon="11.876466272647507"><ele>486.0</ele><time>2026-04-11T10:51:16Z</time></trkpt><trkpt lat="45.947563691042866" lon="11.87647629045385"><ele>486.0</ele><time>2026-04-11T10:51:17Z</time></trkpt><trkpt lat="45.947638462328676" lon="11.876436044081943"><ele>486.0</ele><time>2026-04-11T10:51:18Z</time></trkpt><trkpt lat="45.947732725974326" lon="11.876392164949083"><ele>492.8</ele><time>2026-04-11T10:51:19Z</time></trkpt><trkpt lat="45.94782565484925" lon="11.876333976107366"><ele>499.6</ele><time>2026-04-11T10:51:20Z</time></trkpt><trkpt lat="45.94793279379099" lon="11.876299073580821"><ele>506.4</ele><time>2026-04-11T10:51:21Z</time></trkpt><trkpt lat="45.948028950626785" lon="11.876231270591692"><ele>513.2</ele><time>2026-04-11T10:51:22Z</time></trkpt><trkpt lat="45.94809217324753" lon="11.876181802032493"><ele>520.0</ele><time>2026-04-11T10:51:23Z</time></trkpt><trkpt lat="45.94817904240964" lon="11.876168718302837"><ele>520.0</ele><time>2026-04-11T10:51:26Z</time></trkpt><trkpt lat="45.94824686239708" lon="11.87615576412469"><ele>520.0</ele><time>2026-04-11T10:51:27Z</time></trkpt><trkpt lat="45.948352672765246" lon="11.876162345680555"><ele>520.0</ele><time>2026-04-11T10:51:29Z</time></trkpt><trkpt lat="45.94842877836244" lon="11.876144579468802"><ele>520.0</ele><time>2026-04-11T10:51:30Z</time></trkpt><trkpt lat="45.948511607070785" lon="11.876108842655244"><ele>520.0</ele><time>2026-04-11T10:51:31Z</time></trkpt><trkpt lat="45.94858257727568" lon="11.876037445502012"><ele>520.0</ele><time>2026-04-11T10:51:32Z</time></trkpt><trkpt lat="45.94867496502499" lon="11.875973730925544"><ele>516.6</ele><time>2026-04-11T10:51:33Z</time></trkpt><trkpt lat="45.94876668083675" lon="11.87591460103497"><ele>513.2</ele><time>2026-04-11T10:51:34Z</time></trkpt><trkpt lat="45.94885391836894" lon="11.875854690702996"><ele>509.79999999999995</ele><time>2026-04-11T10:51:35Z</time></trkpt><trkpt lat="45.94894050286534" lon="11.87579632089612"><ele>506.4</ele><time>2026-04-11T10:51:36Z</time></trkpt><trkpt lat="45.94902043613444" lon="11.875743144244367"><ele>503.0</ele><time>2026-04-11T10:51:37Z</time></trkpt><trkpt lat="45.94909779589459" lon="11.87569790542307"><ele>502.99999999999994</ele><time>2026-04-11T10:51:38Z</time></trkpt><trkpt lat="45.949172605575185" lon="11.875658360723287"><ele>503.0</ele><time>2026-04-11T10:51:39Z</time></trkpt><trkpt lat="45.949250527655465" lon="11.875629617467045"><ele>503.0</ele><time>2026-04-11T10:51:40Z</time></trkpt><trkpt lat="45.949339827128966" lon="11.875652351602772"><ele>503.0</ele><time>2026-04-11T10:51:41Z</time></trkpt><trkpt lat="45.94944172668848" lon="11.875643643686383"><ele>502.99999999999994</ele><time>2026-04-11T10:51:42Z</time></trkpt><trkpt lat="45.94951000377263" lon="11.875644509426085"><ele>503.0</ele><time>2026-04-11T10:51:43Z</time></trkpt><trkpt lat="45.94957609402366" lon="11.875629917507743"><ele>510.5</ele><time>2026-04-11T10:51:44Z</time></trkpt><trkpt lat="45.94965531112092" lon="11.875532997054789"><ele>518.0</ele><time>2026-04-11T10:51:46Z</time></trkpt><trkpt lat="45.9497672043855" lon="11.875398530990179"><ele>525.5</ele><time>2026-04-11T10:51:48Z</time></trkpt><trkpt lat="45.94982977200792" lon="11.875315279629573"><ele>533.0</ele><time>2026-04-11T10:51:49Z</time></trkpt><trkpt lat="45.94983004529087" lon="11.875114800315613"><ele>536.4</ele><time>2026-04-11T10:51:50Z</time></trkpt><trkpt lat="45.949862749763284" lon="11.87496863153895"><ele>539.8</ele><time>2026-04-11T10:51:51Z</time></trkpt><trkpt lat="45.949891200783036" lon="11.874849638101066"><ele>543.2</ele><time>2026-04-11T10:51:52Z</time></trkpt><trkpt lat="45.94991902368427" lon="11.87472689502824"><ele>546.6</ele><time>2026-04-11T10:51:53Z</time></trkpt><trkpt lat="45.94997704937919" lon="11.874609250619155"><ele>550.0</ele><time>2026-04-11T10:51:54Z</time></trkpt><trkpt lat="45.95005034695023" lon="11.874498443096266"><ele>550.0</ele><time>2026-04-11T10:51:55Z</time></trkpt><trkpt lat="45.950127975580244" lon="11.874413530524873"><ele>550.0</ele><time>2026-04-11T10:51:56Z</time></trkpt><trkpt lat="45.95020614095725" lon="11.874346817231878"><ele>550.0</ele><time>2026-04-11T10:51:57Z</time></trkpt><trkpt lat="45.950269720246006" lon="11.874264581158881"><ele>550.0</ele><time>2026-04-11T10:51:58Z</time></trkpt><trkpt lat="45.95033008393956" lon="11.874199011755033"><ele>550.0</ele><time>2026-04-11T10:51:59Z</time></trkpt><trkpt lat="45.950401581734795" lon="11.874106417809934"><ele>550.0</ele><time>2026-04-11T10:52:01Z</time></trkpt><trkpt lat="45.95043245089061" lon="11.8739871660259"><ele>551.1666666666667</ele><time>2026-04-11T10:52:03Z</time></trkpt><trkpt lat="45.95049124479811" lon="11.873940862719339"><ele>552.3333333333334</ele><time>2026-04-11T10:52:04Z</time></trkpt><trkpt lat="45.9505643958378" lon="11.873936318320267"><ele>553.5</ele><time>2026-04-11T10:52:05Z</time></trkpt><trkpt lat="45.950649648892615" lon="11.873918712918668"><ele>554.6666666666666</ele><time>2026-04-11T10:52:06Z</time></trkpt><trkpt lat="45.950741535278965" lon="11.873931702463356"><ele>555.8333333333333</ele><time>2026-04-11T10:52:07Z</time></trkpt><trkpt lat="45.95083147911437" lon="11.873964016582542"><ele>557.0</ele><time>2026-04-11T10:52:07.999Z</time></trkpt><trkpt lat="45.95092558904235" lon="11.874012559250387"><ele>557.0</ele><time>2026-04-11T10:52:08.999Z</time></trkpt><trkpt lat="45.95100120700802" lon="11.874038945161738"><ele>557.0</ele><time>2026-04-11T10:52:09.999Z</time></trkpt><trkpt lat="45.951069954499225" lon="11.874006379757777"><ele>557.0</ele><time>2026-04-11T10:52:10.999Z</time></trkpt><trkpt lat="45.951143479715675" lon="11.873952711250665"><ele>557.0</ele><time>2026-04-11T10:52:12.999Z</time></trkpt><trkpt lat="45.95121562435759" lon="11.873846151534014"><ele>557.0</ele><time>2026-04-11T10:52:15.999Z</time></trkpt><trkpt lat="45.951290344672316" lon="11.873792968894538"><ele>557.0</ele><time>2026-04-11T10:52:17.999Z</time></trkpt><trkpt lat="45.95134602410217" lon="11.873861977041825"><ele>557.0</ele><time>2026-04-11T10:52:59.999Z</time></trkpt><trkpt lat="45.95128868958692" lon="11.873952034730555"><ele>557.0</ele><time>2026-04-11T10:54:35.999Z</time></trkpt><trkpt lat="45.951226069338354" lon="11.873990384283616"><ele>557.0</ele><time>2026-04-11T10:54:37.999Z</time></trkpt><trkpt lat="45.95113833581126" lon="11.874061063671736"><ele>557.0</ele><time>2026-04-11T10:54:40.999Z</time></trkpt><trkpt lat="45.95107082478328" lon="11.874086986054065"><ele>557.0</ele><time>2026-04-11T10:54:41.999Z</time></trkpt><trkpt lat="45.95096262279856" lon="11.874114337488798"><ele>557.0</ele><time>2026-04-11T10:54:43.999Z</time></trkpt><trkpt lat="45.950872102847164" lon="11.874078977304515"><ele>552.0</ele><time>2026-04-11T10:54:45.999Z</time></trkpt><trkpt lat="45.950777617694676" lon="11.87400712169963"><ele>547.0</ele><time>2026-04-11T10:54:47.999Z</time></trkpt><trkpt lat="45.95067868273665" lon="11.873980947428104"><ele>542.0</ele><time>2026-04-11T10:54:49.999Z</time></trkpt><trkpt lat="45.95059024393983" lon="11.87397188300513"><ele>537.0</ele><time>2026-04-11T10:54:51.999Z</time></trkpt><trkpt lat="45.9505063553064" lon="11.873996899922302"><ele>532.0</ele><time>2026-04-11T10:54:53.999Z</time></trkpt><trkpt lat="45.95044801930755" lon="11.8740363974405"><ele>527.0</ele><time>2026-04-11T10:54:55.999Z</time></trkpt><trkpt lat="45.950373455943776" lon="11.874150070792261"><ele>527.0</ele><time>2026-04-11T10:54:58.999Z</time></trkpt><trkpt lat="45.950317502030835" lon="11.874243138111648"><ele>527.0</ele><time>2026-04-11T10:55:02.999Z</time></trkpt><trkpt lat="45.95026124057943" lon="11.874320960925369"><ele>527.0</ele><time>2026-04-11T10:55:04.999Z</time></trkpt><trkpt lat="45.95017857314776" lon="11.874412240049148"><ele>527.0</ele><time>2026-04-11T10:55:06.999Z</time></trkpt><trkpt lat="45.950126446361026" lon="11.874475992239358"><ele>527.0</ele><time>2026-04-11T10:55:07.999Z</time></trkpt><trkpt lat="45.950039820351996" lon="11.874583693072227"><ele>528.2</ele><time>2026-04-11T10:55:09.999Z</time></trkpt><trkpt lat="45.94995189747697" lon="11.87469836821326"><ele>529.4000000000001</ele><time>2026-04-11T10:55:11.999Z</time></trkpt><trkpt lat="45.949897724244146" lon="11.87484687131105"><ele>530.5999999999999</ele><time>2026-04-11T10:55:13.999Z</time></trkpt><trkpt lat="45.94985507734227" lon="11.874926233889422"><ele>531.8</ele><time>2026-04-11T10:55:14.999Z</time></trkpt><trkpt lat="45.94981682072044" lon="11.875103786518862"><ele>533.0</ele><time>2026-04-11T10:55:16.999Z</time></trkpt><trkpt lat="45.949783243362475" lon="11.875209348276844"><ele>533.0</ele><time>2026-04-11T10:55:17.999Z</time></trkpt><trkpt lat="45.949740461504724" lon="11.875304107420273"><ele>533.0</ele><time>2026-04-11T10:55:18.999Z</time></trkpt><trkpt lat="45.949697652362545" lon="11.87539073830912"><ele>533.0</ele><time>2026-04-11T10:55:19.999Z</time></trkpt><trkpt lat="45.94963679546261" lon="11.875476658221745"><ele>533.0</ele><time>2026-04-11T10:55:21.999Z</time></trkpt><trkpt lat="45.94958641597934" lon="11.875561600392457"><ele>533.0</ele><time>2026-04-11T10:55:23.998Z</time></trkpt><trkpt lat="45.94949286364992" lon="11.875606640134679"><ele>533.0</ele><time>2026-04-11T10:55:25.998Z</time></trkpt><trkpt lat="45.94937466555046" lon="11.875625265703546"><ele>533.0</ele><time>2026-04-11T10:55:28Z</time></trkpt><trkpt lat="45.949313770233104" lon="11.875588556285367"><ele>533.0</ele><time>2026-04-11T10:55:29Z</time></trkpt><trkpt lat="45.94924129857206" lon="11.875609165547992"><ele>533.0</ele><time>2026-04-11T10:55:30Z</time></trkpt><trkpt lat="45.949167747410215" lon="11.875612908628522"><ele>533.0</ele><time>2026-04-11T10:55:31Z</time></trkpt><trkpt lat="45.94909385776528" lon="11.875638789160913"><ele>533.0</ele><time>2026-04-11T10:55:32Z</time></trkpt><trkpt lat="45.94901740657579" lon="11.87568764151087"><ele>533.0</ele><time>2026-04-11T10:55:33Z</time></trkpt><trkpt lat="45.948935511833156" lon="11.875739646653125"><ele>535.6666666666666</ele><time>2026-04-11T10:55:34Z</time></trkpt><trkpt lat="45.94885656525547" lon="11.875788861067864"><ele>538.3333333333333</ele><time>2026-04-11T10:55:35Z</time></trkpt><trkpt lat="45.94877093285475" lon="11.87585243846452"><ele>541.0</ele><time>2026-04-11T10:55:36Z</time></trkpt><trkpt lat="45.94869755078397" lon="11.87590459321938"><ele>543.6666666666666</ele><time>2026-04-11T10:55:37Z</time></trkpt><trkpt lat="45.94862861621738" lon="11.87595252879344"><ele>546.3333333333334</ele><time>2026-04-11T10:55:38Z</time></trkpt><trkpt lat="45.94854829600704" lon="11.875988619044621"><ele>549.0</ele><time>2026-04-11T10:55:39Z</time></trkpt><trkpt lat="45.94847890230888" lon="11.876045961227526"><ele>549.0</ele><time>2026-04-11T10:55:40Z</time></trkpt><trkpt lat="45.94840725216931" lon="11.876100246091589"><ele>549.0</ele><time>2026-04-11T10:55:41Z</time></trkpt><trkpt lat="45.948335358354306" lon="11.876127842017391"><ele>549.0</ele><time>2026-04-11T10:55:42Z</time></trkpt><trkpt lat="45.948256635262936" lon="11.876141882659509"><ele>549.0</ele><time>2026-04-11T10:55:43Z</time></trkpt><trkpt lat="45.94817538011921" lon="11.876133456576216"><ele>549.0</ele><time>2026-04-11T10:55:44Z</time></trkpt><trkpt lat="45.94810379404159" lon="11.876132146173095"><ele>549.0</ele><time>2026-04-11T10:55:45Z</time></trkpt><trkpt lat="45.94803983173029" lon="11.876145044687545"><ele>544.1666666666666</ele><time>2026-04-11T10:55:46Z</time></trkpt><trkpt lat="45.94797169360287" lon="11.876198812061652"><ele>539.3333333333334</ele><time>2026-04-11T10:55:47Z</time></trkpt><trkpt lat="45.94788580725392" lon="11.87622922293946"><ele>534.5</ele><time>2026-04-11T10:55:48Z</time></trkpt><trkpt lat="45.94780301991441" lon="11.876279823363552"><ele>529.6666666666667</ele><time>2026-04-11T10:55:49Z</time></trkpt><trkpt lat="45.947714771569764" lon="11.87633494994991"><ele>524.8333333333334</ele><time>2026-04-11T10:55:50Z</time></trkpt><trkpt lat="45.94762878439893" lon="11.876379639599323"><ele>520.0</ele><time>2026-04-11T10:55:51Z</time></trkpt><trkpt lat="45.94754471931875" lon="11.876413692645903"><ele>514.3333333333334</ele><time>2026-04-11T10:55:52Z</time></trkpt><trkpt lat="45.947475448409044" lon="11.876428537006698"><ele>508.6666666666667</ele><time>2026-04-11T10:55:53Z</time></trkpt><trkpt lat="45.94740987767073" lon="11.876424927161581"><ele>503.0</ele><time>2026-04-11T10:55:54Z</time></trkpt><trkpt lat="45.94731014975353" lon="11.876435528928399"><ele>497.33333333333337</ele><time>2026-04-11T10:55:56Z</time></trkpt><trkpt lat="45.94727425541377" lon="11.876509944630033"><ele>491.6666666666667</ele><time>2026-04-11T10:55:57Z</time></trkpt><trkpt lat="45.94720482657703" lon="11.876644314709052"><ele>486.0</ele><time>2026-04-11T10:55:59Z</time></trkpt><trkpt lat="45.94714797224071" lon="11.876705118881311"><ele>486.0</ele><time>2026-04-11T10:56:00Z</time></trkpt><trkpt lat="45.94707422551301" lon="11.876825653220312"><ele>486.0</ele><time>2026-04-11T10:56:02Z</time></trkpt><trkpt lat="45.94697329556648" lon="11.876892016444323"><ele>486.0</ele><time>2026-04-11T10:56:04Z</time></trkpt><trkpt lat="45.94689338576145" lon="11.876877422693964"><ele>486.0</ele><time>2026-04-11T10:56:05Z</time></trkpt><trkpt lat="45.94682741632922" lon="11.876845813477146"><ele>486.0</ele><time>2026-04-11T10:56:06Z</time></trkpt><trkpt lat="45.946770630936044" lon="11.876792008633357"><ele>486.0</ele><time>2026-04-11T10:56:07Z</time></trkpt><trkpt lat="45.94671931456781" lon="11.876739076538097"><ele>480.20000000000005</ele><time>2026-04-11T10:56:08Z</time></trkpt><trkpt lat="45.946656912416266" lon="11.87669857292556"><ele>474.40000000000003</ele><time>2026-04-11T10:56:09Z</time></trkpt><trkpt lat="45.94653440735087" lon="11.876643934858995"><ele>468.6</ele><time>2026-04-11T10:56:11Z</time></trkpt><trkpt lat="45.946416385394805" lon="11.87659985693041"><ele>462.8</ele><time>2026-04-11T10:56:13Z</time></trkpt><trkpt lat="45.94635185487693" lon="11.876588128539215"><ele>457.0</ele><time>2026-04-11T10:56:14Z</time></trkpt><trkpt lat="45.946285862792166" lon="11.876592945121725"><ele>457.00000000000006</ele><time>2026-04-11T10:56:15Z</time></trkpt><trkpt lat="45.946213948596245" lon="11.876616417312968"><ele>457.0</ele><time>2026-04-11T10:56:16Z</time></trkpt><trkpt lat="45.94615809534352" lon="11.876676732933415"><ele>457.0</ele><time>2026-04-11T10:56:17Z</time></trkpt><trkpt lat="45.94610828164688" lon="11.876765791623226"><ele>457.0</ele><time>2026-04-11T10:56:18Z</time></trkpt><trkpt lat="45.94606183378038" lon="11.876866868478508"><ele>457.00000000000006</ele><time>2026-04-11T10:56:18.999Z</time></trkpt><trkpt lat="45.94602299293793" lon="11.87697428260719"><ele>457.0</ele><time>2026-04-11T10:56:19.999Z</time></trkpt><trkpt lat="45.94597112151892" lon="11.87706403082066"><ele>457.6</ele><time>2026-04-11T10:56:20.999Z</time></trkpt><trkpt lat="45.94591962745012" lon="11.87717291545862"><ele>458.20000000000005</ele><time>2026-04-11T10:56:21.999Z</time></trkpt><trkpt lat="45.94585532086713" lon="11.877276176072696"><ele>458.8</ele><time>2026-04-11T10:56:22.999Z</time></trkpt><trkpt lat="45.94578730125314" lon="11.877388170086512"><ele>459.4</ele><time>2026-04-11T10:56:23.999Z</time></trkpt><trkpt lat="45.945724412753485" lon="11.877513998350857"><ele>460.0</ele><time>2026-04-11T10:56:24.999Z</time></trkpt><trkpt lat="45.94566553053415" lon="11.877648213067587"><ele>460.00000000000006</ele><time>2026-04-11T10:56:25.999Z</time></trkpt><trkpt lat="45.94560309422853" lon="11.877784557306445"><ele>460.0</ele><time>2026-04-11T10:56:26.999Z</time></trkpt><trkpt lat="45.94555369364773" lon="11.877893574374557"><ele>460.0</ele><time>2026-04-11T10:56:27.999Z</time></trkpt><trkpt lat="45.945494604733454" lon="11.87797343934655"><ele>460.0</ele><time>2026-04-11T10:56:28.999Z</time></trkpt><trkpt lat="45.94543915218773" lon="11.878036963828043"><ele>460.00000000000006</ele><time>2026-04-11T10:56:29.999Z</time></trkpt><trkpt lat="45.94538449676227" lon="11.878100562563171"><ele>460.0</ele><time>2026-04-11T10:56:30.999Z</time></trkpt><trkpt lat="45.94532021752973" lon="11.878180059161293"><ele>460.0</ele><time>2026-04-11T10:56:31.999Z</time></trkpt><trkpt lat="45.94527438833924" lon="11.878265162721775"><ele>460.0</ele><time>2026-04-11T10:56:32.999Z</time></trkpt><trkpt lat="45.94520452321189" lon="11.878423208448183"><ele>460.0</ele><time>2026-04-11T10:56:34.999Z</time></trkpt><trkpt lat="45.94515848676941" lon="11.878513830635406"><ele>460.0</ele><time>2026-04-11T10:56:35.999Z</time></trkpt><trkpt lat="45.94510085152899" lon="11.878590982362349"><ele>460.0</ele><time>2026-04-11T10:56:36.999Z</time></trkpt><trkpt lat="45.94499434094885" lon="11.878629520528095"><ele>458.50000000000006</ele><time>2026-04-11T10:56:38.999Z</time></trkpt><trkpt lat="45.944902064820525" lon="11.878672762828804"><ele>457.0</ele><time>2026-04-11T10:56:40.999Z</time></trkpt><trkpt lat="45.94480910752012" lon="11.878744741744072"><ele>455.5</ele><time>2026-04-11T10:56:42.999Z</time></trkpt><trkpt lat="45.94475209209692" lon="11.878783887348037"><ele>454.0</ele><time>2026-04-11T10:56:43.999Z</time></trkpt><trkpt lat="45.944690868827365" lon="11.878812804819928"><ele>452.50000000000006</ele><time>2026-04-11T10:56:44.999Z</time></trkpt><trkpt lat="45.94461177245764" lon="11.878863868427002"><ele>451.0</ele><time>2026-04-11T10:56:45.999Z</time></trkpt><trkpt lat="45.94453764141099" lon="11.878900523031087"><ele>451.00000000000006</ele><time>2026-04-11T10:56:46.999Z</time></trkpt><trkpt lat="45.94445325249484" lon="11.878947755832312"><ele>451.0</ele><time>2026-04-11T10:56:47.999Z</time></trkpt><trkpt lat="45.94437511604871" lon="11.878999363001805"><ele>451.0</ele><time>2026-04-11T10:56:48.999Z</time></trkpt><trkpt lat="45.94428752599388" lon="11.879031533020559"><ele>451.0</ele><time>2026-04-11T10:56:49.999Z</time></trkpt><trkpt lat="45.944207110075034" lon="11.879076323663707"><ele>451.00000000000006</ele><time>2026-04-11T10:56:50.999Z</time></trkpt><trkpt lat="45.94411814322114" lon="11.879106539204582"><ele>451.0</ele><time>2026-04-11T10:56:51.999Z</time></trkpt><trkpt lat="45.94402883489019" lon="11.879129842317258"><ele>450.4</ele><time>2026-04-11T10:56:52.999Z</time></trkpt><trkpt lat="45.94393940000352" lon="11.87914244471432"><ele>449.8</ele><time>2026-04-11T10:56:53.999Z</time></trkpt><trkpt lat="45.943838066687796" lon="11.879166376810735"><ele>449.19999999999993</ele><time>2026-04-11T10:56:54.999Z</time></trkpt><trkpt lat="45.943752415541155" lon="11.879188865357497"><ele>448.59999999999997</ele><time>2026-04-11T10:56:55.999Z</time></trkpt><trkpt lat="45.943667976234046" lon="11.879259074817249"><ele>448.0</ele><time>2026-04-11T10:56:56.999Z</time></trkpt><trkpt lat="45.943571507313465" lon="11.879306120091437"><ele>448.0</ele><time>2026-04-11T10:56:57.999Z</time></trkpt><trkpt lat="45.94348029778826" lon="11.879336776206618"><ele>447.99999999999994</ele><time>2026-04-11T10:56:58.999Z</time></trkpt><trkpt lat="45.943394140987905" lon="11.879376155595487"><ele>447.99999999999994</ele><time>2026-04-11T10:56:59.999Z</time></trkpt><trkpt lat="45.94330623540088" lon="11.87942984332821"><ele>448.0</ele><time>2026-04-11T10:57:00.999Z</time></trkpt><trkpt lat="45.94321633482615" lon="11.879491954383079"><ele>448.0</ele><time>2026-04-11T10:57:01.999Z</time></trkpt><trkpt lat="45.94312770405038" lon="11.87955660848564"><ele>441.0</ele><time>2026-04-11T10:57:02.999Z</time></trkpt><trkpt lat="45.94303862055302" lon="11.879629548979082"><ele>433.99999999999994</ele><time>2026-04-11T10:57:03.999Z</time></trkpt><trkpt lat="45.94295216141721" lon="11.879723831382776"><ele>427.0</ele><time>2026-04-11T10:57:04.999Z</time></trkpt><trkpt lat="45.94287474536129" lon="11.879842029295867"><ele>420.0</ele><time>2026-04-11T10:57:05.999Z</time></trkpt><trkpt lat="45.94279183803921" lon="11.879941087035357"><ele>413.0</ele><time>2026-04-11T10:57:06.999Z</time></trkpt><trkpt lat="45.94271158990063" lon="11.880032450832452"><ele>419.4</ele><time>2026-04-11T10:57:07.999Z</time></trkpt><trkpt lat="45.94263922441289" lon="11.880124055586442"><ele>425.79999999999995</ele><time>2026-04-11T10:57:08.999Z</time></trkpt><trkpt lat="45.942564239984065" lon="11.880246267508683"><ele>432.2</ele><time>2026-04-11T10:57:09.999Z</time></trkpt><trkpt lat="45.9425026669876" lon="11.880364774116595"><ele>438.6</ele><time>2026-04-11T10:57:10.999Z</time></trkpt><trkpt lat="45.942460153754794" lon="11.880443401976573"><ele>445.0</ele><time>2026-04-11T10:57:11.999Z</time></trkpt><trkpt lat="45.942406429416316" lon="11.880530481733846"><ele>437.4</ele><time>2026-04-11T10:57:13.999Z</time></trkpt><trkpt lat="45.942342126424464" lon="11.880594650344772"><ele>429.8</ele><time>2026-04-11T10:57:18.999Z</time></trkpt><trkpt lat="45.94229296341844" lon="11.880678498941752"><ele>422.20000000000005</ele><time>2026-04-11T10:57:20.999Z</time></trkpt><trkpt lat="45.94222521789039" lon="11.880782351615833"><ele>414.6</ele><time>2026-04-11T10:57:22.999Z</time></trkpt><trkpt lat="45.94213434408498" lon="11.88088383820976"><ele>407.0</ele><time>2026-04-11T10:57:24.999Z</time></trkpt><trkpt lat="45.94205023973907" lon="11.880968755773901"><ele>407.00000000000006</ele><time>2026-04-11T10:57:26.999Z</time></trkpt><trkpt lat="45.941993883442" lon="11.881009651541254"><ele>407.0</ele><time>2026-04-11T10:57:28.999Z</time></trkpt><trkpt lat="45.941934147415054" lon="11.881072487283822"><ele>407.0</ele><time>2026-04-11T10:57:30.998Z</time></trkpt><trkpt lat="45.94187934107397" lon="11.881135100250136"><ele>407.0</ele><time>2026-04-11T10:57:31.998Z</time></trkpt><trkpt lat="45.94181750041768" lon="11.881204518176002"><ele>407.0</ele><time>2026-04-11T10:57:32.998Z</time></trkpt><trkpt lat="45.941767042389735" lon="11.881279686239942"><ele>407.00000000000006</ele><time>2026-04-11T10:57:34Z</time></trkpt><trkpt lat="45.94170434376915" lon="11.881366961389247"><ele>407.0</ele><time>2026-04-11T10:57:35Z</time></trkpt><trkpt lat="45.94163856582432" lon="11.881465889419424"><ele>399.20000000000005</ele><time>2026-04-11T10:57:36Z</time></trkpt><trkpt lat="45.94157421001046" lon="11.881553773761599"><ele>391.4</ele><time>2026-04-11T10:57:37Z</time></trkpt><trkpt lat="45.94151933310988" lon="11.881668608561986"><ele>383.6</ele><time>2026-04-11T10:57:38Z</time></trkpt><trkpt lat="45.941479397904686" lon="11.881799918961653"><ele>375.79999999999995</ele><time>2026-04-11T10:57:39Z</time></trkpt><trkpt lat="45.94144599347952" lon="11.8819308552032"><ele>368.0</ele><time>2026-04-11T10:57:40Z</time></trkpt><trkpt lat="45.94141049860409" lon="11.8820488343767"><ele>368.0</ele><time>2026-04-11T10:57:41Z</time></trkpt><trkpt lat="45.941368146441896" lon="11.882168279552092"><ele>368.0</ele><time>2026-04-11T10:57:42Z</time></trkpt><trkpt lat="45.94131919662064" lon="11.882282558663462"><ele>368.0</ele><time>2026-04-11T10:57:43Z</time></trkpt><trkpt lat="45.94125918996597" lon="11.8823796458426"><ele>368.0</ele><time>2026-04-11T10:57:44Z</time></trkpt><trkpt lat="45.941191098715066" lon="11.882477734077435"><ele>368.0</ele><time>2026-04-11T10:57:45Z</time></trkpt><trkpt lat="45.941134862215286" lon="11.882572308789635"><ele>369.0</ele><time>2026-04-11T10:57:46Z</time></trkpt><trkpt lat="45.941082566556965" lon="11.882671196744186"><ele>370.0</ele><time>2026-04-11T10:57:47Z</time></trkpt><trkpt lat="45.941053976364614" lon="11.882774193057301"><ele>371.0</ele><time>2026-04-11T10:57:48Z</time></trkpt><trkpt lat="45.94104606230489" lon="11.882899703759167"><ele>372.0</ele><time>2026-04-11T10:57:49Z</time></trkpt><trkpt lat="45.941062878694424" lon="11.88304982664795"><ele>373.0</ele><time>2026-04-11T10:57:50Z</time></trkpt><trkpt lat="45.94107028755656" lon="11.883204264241918"><ele>373.0</ele><time>2026-04-11T10:57:51Z</time></trkpt><trkpt lat="45.941068048845715" lon="11.8833746193044"><ele>373.0</ele><time>2026-04-11T10:57:52Z</time></trkpt><trkpt lat="45.941032908220436" lon="11.883528296235415"><ele>373.0</ele><time>2026-04-11T10:57:53Z</time></trkpt><trkpt lat="45.94101211011117" lon="11.883685229800857"><ele>373.0</ele><time>2026-04-11T10:57:54Z</time></trkpt><trkpt lat="45.94096513693294" lon="11.883825923851434"><ele>369.59999999999997</ele><time>2026-04-11T10:57:55Z</time></trkpt><trkpt lat="45.94092917845061" lon="11.88395724714681"><ele>366.2</ele><time>2026-04-11T10:57:56Z</time></trkpt><trkpt lat="45.940896120823915" lon="11.88409716102506"><ele>362.8</ele><time>2026-04-11T10:57:57Z</time></trkpt><trkpt lat="45.94086951871794" lon="11.884231922683197"><ele>359.4</ele><time>2026-04-11T10:57:58Z</time></trkpt><trkpt lat="45.94084481606475" lon="11.884385289579805"><ele>356.0</ele><time>2026-04-11T10:57:59Z</time></trkpt><trkpt lat="45.94083269510084" lon="11.88453583041576"><ele>356.0</ele><time>2026-04-11T10:58:00Z</time></trkpt><trkpt lat="45.940838696352344" lon="11.884664581037793"><ele>356.0</ele><time>2026-04-11T10:58:01Z</time></trkpt><trkpt lat="45.94082729116998" lon="11.884800323757126"><ele>356.0</ele><time>2026-04-11T10:58:02Z</time></trkpt><trkpt lat="45.940803118081035" lon="11.884912543101768"><ele>356.0</ele><time>2026-04-11T10:58:03Z</time></trkpt><trkpt lat="45.94074170927655" lon="11.885036894193659"><ele>356.0</ele><time>2026-04-11T10:58:04Z</time></trkpt><trkpt lat="45.94069141417052" lon="11.885166659250826"><ele>354.8</ele><time>2026-04-11T10:58:05Z</time></trkpt><trkpt lat="45.940664707673" lon="11.885316995638798"><ele>353.6</ele><time>2026-04-11T10:58:06Z</time></trkpt><trkpt lat="45.940638292510464" lon="11.885485461841041"><ele>352.4</ele><time>2026-04-11T10:58:07Z</time></trkpt><trkpt lat="45.940619035015025" lon="11.885627836520683"><ele>351.2</ele><time>2026-04-11T10:58:08Z</time></trkpt><trkpt lat="45.9406071471173" lon="11.885767882508125"><ele>350.0</ele><time>2026-04-11T10:58:09Z</time></trkpt><trkpt lat="45.940596745600004" lon="11.88590627587136"><ele>351.2</ele><time>2026-04-11T10:58:10Z</time></trkpt><trkpt lat="45.94058822137161" lon="11.886039379221804"><ele>352.4</ele><time>2026-04-11T10:58:11Z</time></trkpt><trkpt lat="45.94057615838157" lon="11.88616856730292"><ele>353.6</ele><time>2026-04-11T10:58:12Z</time></trkpt><trkpt lat="45.94053927951446" lon="11.886291724765256"><ele>354.8</ele><time>2026-04-11T10:58:13Z</time></trkpt><trkpt lat="45.94048866595849" lon="11.886417794951182"><ele>356.0</ele><time>2026-04-11T10:58:14Z</time></trkpt><trkpt lat="45.94042761540607" lon="11.886542201821468"><ele>355.99999999999994</ele><time>2026-04-11T10:58:15Z</time></trkpt><trkpt lat="45.9403748653551" lon="11.88663258031612"><ele>356.0</ele><time>2026-04-11T10:58:16Z</time></trkpt><trkpt lat="45.94033703983879" lon="11.886707973056895"><ele>356.0</ele><time>2026-04-11T10:58:17Z</time></trkpt><trkpt lat="45.94029250796206" lon="11.886791941220528"><ele>356.0</ele><time>2026-04-11T10:58:18Z</time></trkpt><trkpt lat="45.94025138890305" lon="11.886874440298053"><ele>356.0</ele><time>2026-04-11T10:58:19Z</time></trkpt><trkpt lat="45.94019572517907" lon="11.886952987720058"><ele>355.99999999999994</ele><time>2026-04-11T10:58:20Z</time></trkpt><trkpt lat="45.94015304517532" lon="11.887033211084844"><ele>356.0</ele><time>2026-04-11T10:58:21Z</time></trkpt><trkpt lat="45.94010343932397" lon="11.887118236808968"><ele>351.8</ele><time>2026-04-11T10:58:22Z</time></trkpt><trkpt lat="45.94003815803457" lon="11.887217275243012"><ele>347.6</ele><time>2026-04-11T10:58:23Z</time></trkpt><trkpt lat="45.939965780492585" lon="11.887297122968329"><ele>343.4</ele><time>2026-04-11T10:58:23.999Z</time></trkpt><trkpt lat="45.939892742765046" lon="11.887399923605713"><ele>339.2</ele><time>2026-04-11T10:58:24.999Z</time></trkpt><trkpt lat="45.93983074013972" lon="11.887499892721452"><ele>335.0</ele><time>2026-04-11T10:58:25.999Z</time></trkpt><trkpt lat="45.93978318993334" lon="11.887605880788067"><ele>335.0</ele><time>2026-04-11T10:58:26.999Z</time></trkpt><trkpt lat="45.939732121264896" lon="11.887713986622982"><ele>335.0</ele><time>2026-04-11T10:58:27.999Z</time></trkpt><trkpt lat="45.93969269656593" lon="11.887809563805924"><ele>335.0</ele><time>2026-04-11T10:58:28.999Z</time></trkpt><trkpt lat="45.93966173222346" lon="11.887898141116564"><ele>335.0</ele><time>2026-04-11T10:58:29.999Z</time></trkpt><trkpt lat="45.93960224415544" lon="11.888058619580685"><ele>335.0</ele><time>2026-04-11T10:58:31.999Z</time></trkpt><trkpt lat="45.939562763083224" lon="11.88814807602641"><ele>335.0</ele><time>2026-04-11T10:58:32.999Z</time></trkpt><trkpt lat="45.93953304339774" lon="11.888238390768189"><ele>335.0</ele><time>2026-04-11T10:58:33.999Z</time></trkpt><trkpt lat="45.93950654441281" lon="11.888349145475951"><ele>335.0</ele><time>2026-04-11T10:58:34.999Z</time></trkpt><trkpt lat="45.939504551540686" lon="11.888485997197884"><ele>335.0</ele><time>2026-04-11T10:58:35.999Z</time></trkpt><trkpt lat="45.93951651051444" lon="11.888620487631453"><ele>335.0</ele><time>2026-04-11T10:58:36.999Z</time></trkpt><trkpt lat="45.9395477675999" lon="11.88877326156382"><ele>335.0</ele><time>2026-04-11T10:58:37.999Z</time></trkpt><trkpt lat="45.93956605063664" lon="11.8889232635056"><ele>334.75</ele><time>2026-04-11T10:58:38.999Z</time></trkpt><trkpt lat="45.93958838883617" lon="11.889082742783181"><ele>334.5</ele><time>2026-04-11T10:58:39.999Z</time></trkpt><trkpt lat="45.9396253896585" lon="11.88925827551664"><ele>334.25</ele><time>2026-04-11T10:58:40.999Z</time></trkpt><trkpt lat="45.9396748534335" lon="11.889420819247709"><ele>334.0</ele><time>2026-04-11T10:58:41.999Z</time></trkpt><trkpt lat="45.939719771212545" lon="11.889610704915764"><ele>333.5</ele><time>2026-04-11T10:58:42.999Z</time></trkpt><trkpt lat="45.93976044888402" lon="11.889760366871338"><ele>333.0</ele><time>2026-04-11T10:58:43.999Z</time></trkpt><trkpt lat="45.939784352991694" lon="11.889958070392947"><ele>332.5</ele><time>2026-04-11T10:58:44.999Z</time></trkpt><trkpt lat="45.93980352860581" lon="11.890101290937118"><ele>332.0</ele><time>2026-04-11T10:58:45.999Z</time></trkpt><trkpt lat="45.939819255316905" lon="11.890269092605946"><ele>331.20000000000005</ele><time>2026-04-11T10:58:46.999Z</time></trkpt><trkpt lat="45.93983761060447" lon="11.890444890178317"><ele>330.4</ele><time>2026-04-11T10:58:47.999Z</time></trkpt><trkpt lat="45.93985265672275" lon="11.890628211972025"><ele>329.6</ele><time>2026-04-11T10:58:48.999Z</time></trkpt><trkpt lat="45.93986591353981" lon="11.89078974062282"><ele>328.79999999999995</ele><time>2026-04-11T10:58:49.999Z</time></trkpt><trkpt lat="45.9398773582564" lon="11.89090893193731"><ele>328.0</ele><time>2026-04-11T10:58:50.999Z</time></trkpt><trkpt lat="45.93988670094753" lon="11.8910282322365"><ele>327.4</ele><time>2026-04-11T10:58:51.999Z</time></trkpt><trkpt lat="45.93989313792473" lon="11.891127584706293"><ele>326.79999999999995</ele><time>2026-04-11T10:58:52.999Z</time></trkpt><trkpt lat="45.93988486270322" lon="11.891304425144009"><ele>326.2</ele><time>2026-04-11T10:58:54.999Z</time></trkpt><trkpt lat="45.93987110272414" lon="11.891432873902078"><ele>325.6</ele><time>2026-04-11T10:58:55.999Z</time></trkpt><trkpt lat="45.93986900276284" lon="11.891585006934362"><ele>325.0</ele><time>2026-04-11T10:58:56.999Z</time></trkpt><trkpt lat="45.939849870993925" lon="11.891759725988301"><ele>325.0</ele><time>2026-04-11T10:58:57.999Z</time></trkpt><trkpt lat="45.93982461412606" lon="11.89198759932722"><ele>325.0</ele><time>2026-04-11T10:58:58.999Z</time></trkpt><trkpt lat="45.93979644283168" lon="11.89225997491705"><ele>325.0</ele><time>2026-04-11T10:58:59.999Z</time></trkpt><trkpt lat="45.93973650153489" lon="11.89255844441367"><ele>328.0</ele><time>2026-04-11T10:59:00.999Z</time></trkpt><trkpt lat="45.939673103747545" lon="11.892826982079319"><ele>331.0</ele><time>2026-04-11T10:59:01.999Z</time></trkpt><trkpt lat="45.939610373347286" lon="11.893144267980574"><ele>334.0</ele><time>2026-04-11T10:59:02.999Z</time></trkpt><trkpt lat="45.93952581169795" lon="11.893492652966618"><ele>335.5</ele><time>2026-04-11T10:59:03.999Z</time></trkpt><trkpt lat="45.939442648857145" lon="11.89382801407394"><ele>337.0</ele><time>2026-04-11T10:59:04.999Z</time></trkpt><trkpt lat="45.93936455526095" lon="11.894119137801729"><ele>338.3333333333333</ele><time>2026-04-11T10:59:05.999Z</time></trkpt><trkpt lat="45.93929454586068" lon="11.894381613698297"><ele>339.6666666666667</ele><time>2026-04-11T10:59:06.999Z</time></trkpt><trkpt lat="45.93923384468547" lon="11.894641741839534"><ele>341.0</ele><time>2026-04-11T10:59:07.999Z</time></trkpt><trkpt lat="45.93919200427787" lon="11.894905244091767"><ele>332.6666666666667</ele><time>2026-04-11T10:59:08.999Z</time></trkpt><trkpt lat="45.93917110919188" lon="11.895172967619846"><ele>324.3333333333333</ele><time>2026-04-11T10:59:09.999Z</time></trkpt><trkpt lat="45.93915097924506" lon="11.895438842438692"><ele>316.0</ele><time>2026-04-11T10:59:10.999Z</time></trkpt><trkpt lat="45.93910324732568" lon="11.895684336936872"><ele>316.0</ele><time>2026-04-11T10:59:11.999Z</time></trkpt><trkpt lat="45.939009290422526" lon="11.895899761926211"><ele>316.0</ele><time>2026-04-11T10:59:12.999Z</time></trkpt><trkpt lat="45.93891101471353" lon="11.896124197167381"><ele>316.0</ele><time>2026-04-11T10:59:13.999Z</time></trkpt><trkpt lat="45.93880013417756" lon="11.896346793348318"><ele>320.66666666666663</ele><time>2026-04-11T10:59:14.999Z</time></trkpt><trkpt lat="45.93868704069954" lon="11.896579356047857"><ele>325.3333333333333</ele><time>2026-04-11T10:59:15.999Z</time></trkpt><trkpt lat="45.93854481351712" lon="11.896788244210038"><ele>330.0</ele><time>2026-04-11T10:59:16.999Z</time></trkpt><trkpt lat="45.93842107293586" lon="11.896984681546032"><ele>326.0</ele><time>2026-04-11T10:59:17.999Z</time></trkpt><trkpt lat="45.93828585546875" lon="11.897168131952244"><ele>322.0</ele><time>2026-04-11T10:59:18.999Z</time></trkpt><trkpt lat="45.938152511126624" lon="11.897358976682217"><ele>318.0</ele><time>2026-04-11T10:59:19.999Z</time></trkpt><trkpt lat="45.93802118531577" lon="11.897553841621733"><ele>322.6666666666667</ele><time>2026-04-11T10:59:20.999Z</time></trkpt><trkpt lat="45.93789413112912" lon="11.897750165129557"><ele>327.33333333333337</ele><time>2026-04-11T10:59:21.999Z</time></trkpt><trkpt lat="45.93776214488681" lon="11.897945024010127"><ele>332.0</ele><time>2026-04-11T10:59:22.999Z</time></trkpt><trkpt lat="45.937617712115646" lon="11.898098516236189"><ele>323.6666666666667</ele><time>2026-04-11T10:59:23.999Z</time></trkpt><trkpt lat="45.93747041472841" lon="11.898240662188886"><ele>315.3333333333333</ele><time>2026-04-11T10:59:24.999Z</time></trkpt><trkpt lat="45.93733636957634" lon="11.898383615473096"><ele>307.0</ele><time>2026-04-11T10:59:25.999Z</time></trkpt><trkpt lat="45.937214395586594" lon="11.898540518110861"><ele>307.0</ele><time>2026-04-11T10:59:26.999Z</time></trkpt><trkpt lat="45.93711346322852" lon="11.898712256672784"><ele>307.0</ele><time>2026-04-11T10:59:27.999Z</time></trkpt><trkpt lat="45.93703183183992" lon="11.898888539260495"><ele>307.0</ele><time>2026-04-11T10:59:28.999Z</time></trkpt><trkpt lat="45.936952167676395" lon="11.899055809141428"><ele>307.0</ele><time>2026-04-11T10:59:29.999Z</time></trkpt><trkpt lat="45.93687297586585" lon="11.899212752645084"><ele>309.25</ele><time>2026-04-11T10:59:30.999Z</time></trkpt><trkpt lat="45.93679747739467" lon="11.899359585197791"><ele>311.5</ele><time>2026-04-11T10:59:31.999Z</time></trkpt><trkpt lat="45.936730380168434" lon="11.899490467405851"><ele>313.75</ele><time>2026-04-11T10:59:32.999Z</time></trkpt><trkpt lat="45.93667610244756" lon="11.899618021277195"><ele>316.0</ele><time>2026-04-11T10:59:33.999Z</time></trkpt><trkpt lat="45.93664423834519" lon="11.899762747624672"><ele>316.0</ele><time>2026-04-11T10:59:34.998Z</time></trkpt><trkpt lat="45.93665648962244" lon="11.89994227380326"><ele>316.0</ele><time>2026-04-11T10:59:35.998Z</time></trkpt><trkpt lat="45.93670939807466" lon="11.900097986341917"><ele>316.0</ele><time>2026-04-11T10:59:36.998Z</time></trkpt><trkpt lat="45.9367824637126" lon="11.900262635960988"><ele>316.0</ele><time>2026-04-11T10:59:37.998Z</time></trkpt><trkpt lat="45.93687739355223" lon="11.900471578266524"><ele>316.0</ele><time>2026-04-11T10:59:38.998Z</time></trkpt><trkpt lat="45.936972351369086" lon="11.900665652470718"><ele>316.0</ele><time>2026-04-11T10:59:40Z</time></trkpt><trkpt lat="45.93705071337422" lon="11.900876326533151"><ele>316.0</ele><time>2026-04-11T10:59:41Z</time></trkpt><trkpt lat="45.937130634357516" lon="11.901099342863088"><ele>314.66666666666663</ele><time>2026-04-11T10:59:42Z</time></trkpt><trkpt lat="45.937164762880315" lon="11.901333996923276"><ele>313.3333333333333</ele><time>2026-04-11T10:59:43Z</time></trkpt><trkpt lat="45.93718186407348" lon="11.901580456906219"><ele>312.0</ele><time>2026-04-11T10:59:44Z</time></trkpt><trkpt lat="45.93721715334299" lon="11.901853269205517"><ele>310.3333333333333</ele><time>2026-04-11T10:59:45Z</time></trkpt><trkpt lat="45.937222571437744" lon="11.902152749291522"><ele>308.66666666666663</ele><time>2026-04-11T10:59:46Z</time></trkpt><trkpt lat="45.93724121739045" lon="11.902434641738152"><ele>307.0</ele><time>2026-04-11T10:59:47Z</time></trkpt><trkpt lat="45.93725729589051" lon="11.902707443186674"><ele>307.0</ele><time>2026-04-11T10:59:48Z</time></trkpt><trkpt lat="45.93723772342142" lon="11.902996576528864"><ele>307.0</ele><time>2026-04-11T10:59:49Z</time></trkpt><trkpt lat="45.937221589299114" lon="11.903279801891784"><ele>307.0</ele><time>2026-04-11T10:59:50Z</time></trkpt><trkpt lat="45.93720281079984" lon="11.903557874590028"><ele>307.0</ele><time>2026-04-11T10:59:51Z</time></trkpt><trkpt lat="45.93720337439979" lon="11.903833434442873"><ele>307.0</ele><time>2026-04-11T10:59:52Z</time></trkpt><trkpt lat="45.93719738326984" lon="11.904105053280322"><ele>307.0</ele><time>2026-04-11T10:59:53Z</time></trkpt><trkpt lat="45.9372017327309" lon="11.90437473988546"><ele>307.3333333333333</ele><time>2026-04-11T10:59:54Z</time></trkpt><trkpt lat="45.93719368179186" lon="11.904647454368149"><ele>307.6666666666667</ele><time>2026-04-11T10:59:55Z</time></trkpt><trkpt lat="45.93713525305736" lon="11.904902373463875"><ele>308.0</ele><time>2026-04-11T10:59:56Z</time></trkpt><trkpt lat="45.93708283284976" lon="11.905165194334293"><ele>307.33333333333337</ele><time>2026-04-11T10:59:57Z</time></trkpt><trkpt lat="45.93703968608283" lon="11.905412760604424"><ele>306.6666666666667</ele><time>2026-04-11T10:59:58Z</time></trkpt><trkpt lat="45.93699924949255" lon="11.905637940862345"><ele>306.0</ele><time>2026-04-11T10:59:59Z</time></trkpt><trkpt lat="45.93696333739468" lon="11.905844935513537"><ele>306.25</ele><time>2026-04-11T11:00:00Z</time></trkpt><trkpt lat="45.93695619873778" lon="11.906024712843363"><ele>306.5</ele><time>2026-04-11T11:00:01Z</time></trkpt><trkpt lat="45.936945728696045" lon="11.906176671370154"><ele>306.75</ele><time>2026-04-11T11:00:02Z</time></trkpt><trkpt lat="45.936933249409904" lon="11.906294606052668"><ele>307.0</ele><time>2026-04-11T11:00:03Z</time></trkpt><trkpt lat="45.93680756002456" lon="11.90638144613365"><ele>307.0</ele><time>2026-04-11T11:00:05Z</time></trkpt><trkpt lat="45.93671987556265" lon="11.906463460814848"><ele>307.0</ele><time>2026-04-11T11:00:06Z</time></trkpt><trkpt lat="45.93666688719419" lon="11.906588598383461"><ele>307.0</ele><time>2026-04-11T11:00:07Z</time></trkpt><trkpt lat="45.936640190314364" lon="11.906744186669481"><ele>307.0</ele><time>2026-04-11T11:00:08Z</time></trkpt><trkpt lat="45.936604383115544" lon="11.906905792042654"><ele>307.0</ele><time>2026-04-11T11:00:09Z</time></trkpt><trkpt lat="45.936549727063365" lon="11.907092205140287"><ele>301.0</ele><time>2026-04-11T11:00:10Z</time></trkpt><trkpt lat="45.93647232310606" lon="11.907265756150068"><ele>295.0</ele><time>2026-04-11T11:00:11Z</time></trkpt><trkpt lat="45.93638748178056" lon="11.907448466918785"><ele>289.0</ele><time>2026-04-11T11:00:12Z</time></trkpt><trkpt lat="45.9363315475204" lon="11.907630029352397"><ele>283.0</ele><time>2026-04-11T11:00:13Z</time></trkpt><trkpt lat="45.93625698428474" lon="11.907797904452282"><ele>283.0</ele><time>2026-04-11T11:00:14Z</time></trkpt><trkpt lat="45.936218401734116" lon="11.90796745397837"><ele>283.0</ele><time>2026-04-11T11:00:15Z</time></trkpt><trkpt lat="45.936179373371964" lon="11.908117044643744"><ele>283.0</ele><time>2026-04-11T11:00:16Z</time></trkpt><trkpt lat="45.93615365672451" lon="11.908239568554036"><ele>283.0</ele><time>2026-04-11T11:00:17Z</time></trkpt><trkpt lat="45.9361030844632" lon="11.90835157577054"><ele>283.0</ele><time>2026-04-11T11:00:18Z</time></trkpt><trkpt lat="45.93605581415428" lon="11.908461447282114"><ele>283.8</ele><time>2026-04-11T11:00:19Z</time></trkpt><trkpt lat="45.935999221686394" lon="11.908581614200921"><ele>284.6</ele><time>2026-04-11T11:00:20Z</time></trkpt><trkpt lat="45.935947656330676" lon="11.908650725894411"><ele>285.4</ele><time>2026-04-11T11:00:21Z</time></trkpt><trkpt lat="45.93592336622396" lon="11.908739809587482"><ele>286.2</ele><time>2026-04-11T11:00:22Z</time></trkpt><trkpt lat="45.9358577243963" lon="11.90889263558914"><ele>287.0</ele><time>2026-04-11T11:00:24Z</time></trkpt><trkpt lat="45.9357941642102" lon="11.909050522949558"><ele>287.0</ele><time>2026-04-11T11:00:25Z</time></trkpt><trkpt lat="45.93575348722956" lon="11.909237287790429"><ele>287.0</ele><time>2026-04-11T11:00:26Z</time></trkpt><trkpt lat="45.93570578203505" lon="11.909407446788132"><ele>287.0</ele><time>2026-04-11T11:00:27Z</time></trkpt><trkpt lat="45.935667968199226" lon="11.909516065672808"><ele>287.0</ele><time>2026-04-11T11:00:28Z</time></trkpt><trkpt lat="45.935615927618855" lon="11.909625650621317"><ele>287.0</ele><time>2026-04-11T11:00:29Z</time></trkpt><trkpt lat="45.93556344886639" lon="11.909687133203652"><ele>285.0</ele><time>2026-04-11T11:00:30Z</time></trkpt><trkpt lat="45.935469579755825" lon="11.909789983282874"><ele>283.0</ele><time>2026-04-11T11:00:31.999Z</time></trkpt><trkpt lat="45.935368553548614" lon="11.909740270675826"><ele>281.0</ele><time>2026-04-11T11:00:32.999Z</time></trkpt><trkpt lat="45.93529027067386" lon="11.909727358401657"><ele>279.0</ele><time>2026-04-11T11:00:33.999Z</time></trkpt><trkpt lat="45.93518207384928" lon="11.909716777636147"><ele>277.0</ele><time>2026-04-11T11:00:34.999Z</time></trkpt><trkpt lat="45.93507580012739" lon="11.909684937403242"><ele>279.0</ele><time>2026-04-11T11:00:35.999Z</time></trkpt><trkpt lat="45.93492470740792" lon="11.909704839469597"><ele>281.0</ele><time>2026-04-11T11:00:36.999Z</time></trkpt><trkpt lat="45.934780538344455" lon="11.909711804161903"><ele>283.0</ele><time>2026-04-11T11:00:37.999Z</time></trkpt><trkpt lat="45.93465477740792" lon="11.909726241349311"><ele>285.0</ele><time>2026-04-11T11:00:38.999Z</time></trkpt><trkpt lat="45.934539564407274" lon="11.90976100257273"><ele>285.0</ele><time>2026-04-11T11:00:39.999Z</time></trkpt><trkpt lat="45.9344299560945" lon="11.909804982139644"><ele>285.0</ele><time>2026-04-11T11:00:40.999Z</time></trkpt><trkpt lat="45.93434908034498" lon="11.909872457032556"><ele>285.0</ele><time>2026-04-11T11:00:41.999Z</time></trkpt><trkpt lat="45.93425793984083" lon="11.909927042524032"><ele>285.0</ele><time>2026-04-11T11:00:42.999Z</time></trkpt><trkpt lat="45.934194233093905" lon="11.909988736206914"><ele>285.0</ele><time>2026-04-11T11:00:43.999Z</time></trkpt><trkpt lat="45.934083783034936" lon="11.910041069390097"><ele>285.0</ele><time>2026-04-11T11:00:45.999Z</time></trkpt><trkpt lat="45.934002353518366" lon="11.909988106547877"><ele>285.0</ele><time>2026-04-11T11:00:46.999Z</time></trkpt><trkpt lat="45.933912562385125" lon="11.909939075848383"><ele>285.0</ele><time>2026-04-11T11:00:47.999Z</time></trkpt><trkpt lat="45.93381203420238" lon="11.909895908027275"><ele>285.0</ele><time>2026-04-11T11:00:48.999Z</time></trkpt><trkpt lat="45.93366763677549" lon="11.909808687969473"><ele>285.0</ele><time>2026-04-11T11:00:49.999Z</time></trkpt><trkpt lat="45.93351457014544" lon="11.90977694722168"><ele>283.5</ele><time>2026-04-11T11:00:50.999Z</time></trkpt><trkpt lat="45.93337339583445" lon="11.909756530216747"><ele>282.0</ele><time>2026-04-11T11:00:51.999Z</time></trkpt><trkpt lat="45.93324786859272" lon="11.909721901096173"><ele>280.5</ele><time>2026-04-11T11:00:52.999Z</time></trkpt><trkpt lat="45.93312773386323" lon="11.909665473321072"><ele>279.0</ele><time>2026-04-11T11:00:53.999Z</time></trkpt><trkpt lat="45.93299626453552" lon="11.909605925037608"><ele>279.0</ele><time>2026-04-11T11:00:54.999Z</time></trkpt><trkpt lat="45.93286184263838" lon="11.909560266940524"><ele>279.0</ele><time>2026-04-11T11:00:55.999Z</time></trkpt><trkpt lat="45.93269783180924" lon="11.909523289355969"><ele>279.0</ele><time>2026-04-11T11:00:56.999Z</time></trkpt><trkpt lat="45.93253572509704" lon="11.909445725268732"><ele>276.75</ele><time>2026-04-11T11:00:57.999Z</time></trkpt><trkpt lat="45.932387843110675" lon="11.909447457149748"><ele>274.5</ele><time>2026-04-11T11:00:58.999Z</time></trkpt><trkpt lat="45.932252016417884" lon="11.909458107149785"><ele>272.25</ele><time>2026-04-11T11:00:59.999Z</time></trkpt><trkpt lat="45.93213116129436" lon="11.909408490870696"><ele>270.0</ele><time>2026-04-11T11:01:00.999Z</time></trkpt><trkpt lat="45.932029658467606" lon="11.909363324936216"><ele>270.0</ele><time>2026-04-11T11:01:01.999Z</time></trkpt><trkpt lat="45.93193619816435" lon="11.909305425211297"><ele>270.0</ele><time>2026-04-11T11:01:02.999Z</time></trkpt><trkpt lat="45.931816521834826" lon="11.909259025817683"><ele>270.0</ele><time>2026-04-11T11:01:03.999Z</time></trkpt><trkpt lat="45.93167028740236" lon="11.909275451280873"><ele>270.0</ele><time>2026-04-11T11:01:04.999Z</time></trkpt><trkpt lat="45.93150722527203" lon="11.909317071048052"><ele>267.5</ele><time>2026-04-11T11:01:05.999Z</time></trkpt><trkpt lat="45.931373341708586" lon="11.909318415015044"><ele>265.0</ele><time>2026-04-11T11:01:06.999Z</time></trkpt><trkpt lat="45.93122313862873" lon="11.90931518536136"><ele>262.5</ele><time>2026-04-11T11:01:07.999Z</time></trkpt><trkpt lat="45.93108517412622" lon="11.909307086578403"><ele>260.0</ele><time>2026-04-11T11:01:08.999Z</time></trkpt><trkpt lat="45.930945770829226" lon="11.909282093010297"><ele>260.25</ele><time>2026-04-11T11:01:09.999Z</time></trkpt><trkpt lat="45.93080687853193" lon="11.909247240097494"><ele>260.5</ele><time>2026-04-11T11:01:10.999Z</time></trkpt><trkpt lat="45.930666054212985" lon="11.909204689421072"><ele>260.75</ele><time>2026-04-11T11:01:11.999Z</time></trkpt><trkpt lat="45.93052896268954" lon="11.90918289251156"><ele>261.0</ele><time>2026-04-11T11:01:12.999Z</time></trkpt><trkpt lat="45.93040097118066" lon="11.909203000168292"><ele>261.0</ele><time>2026-04-11T11:01:13.999Z</time></trkpt><trkpt lat="45.93030787507437" lon="11.909213524392506"><ele>261.0</ele><time>2026-04-11T11:01:14.999Z</time></trkpt><trkpt lat="45.930255505954605" lon="11.909275811656332"><ele>261.0</ele><time>2026-04-11T11:02:27Z</time></trkpt><trkpt lat="45.93018747369616" lon="11.909269559855597"><ele>261.0</ele><time>2026-04-11T11:02:39.999Z</time></trkpt><trkpt lat="45.930123361938634" lon="11.909270242849331"><ele>261.0</ele><time>2026-04-11T11:02:41.999Z</time></trkpt><trkpt lat="45.92999308338612" lon="11.909290005711824"><ele>261.0</ele><time>2026-04-11T11:02:43.999Z</time></trkpt><trkpt lat="45.92992904065595" lon="11.909328326444978"><ele>260.8</ele><time>2026-04-11T11:02:44.999Z</time></trkpt><trkpt lat="45.92984845114456" lon="11.90934357965702"><ele>260.6</ele><time>2026-04-11T11:02:45.999Z</time></trkpt><trkpt lat="45.92974018168142" lon="11.909376642397097"><ele>260.4</ele><time>2026-04-11T11:02:46.999Z</time></trkpt><trkpt lat="45.929649474473834" lon="11.909405805443798"><ele>260.2</ele><time>2026-04-11T11:02:47.999Z</time></trkpt><trkpt lat="45.92953130553145" lon="11.909470477136303"><ele>260.0</ele><time>2026-04-11T11:02:48.999Z</time></trkpt><trkpt lat="45.92942925542336" lon="11.909521183585483"><ele>260.0</ele><time>2026-04-11T11:02:49.999Z</time></trkpt><trkpt lat="45.92933582394809" lon="11.909588486472005"><ele>260.0</ele><time>2026-04-11T11:02:50.999Z</time></trkpt><trkpt lat="45.929241846866184" lon="11.909615735782715"><ele>260.0</ele><time>2026-04-11T11:02:51.999Z</time></trkpt><trkpt lat="45.9291628277812" lon="11.909665208783084"><ele>260.0</ele><time>2026-04-11T11:02:52.999Z</time></trkpt><trkpt lat="45.92909738626313" lon="11.909711119693805"><ele>260.0</ele><time>2026-04-11T11:02:53.999Z</time></trkpt><trkpt lat="45.92904314180289" lon="11.90976277544052"><ele>260.0</ele><time>2026-04-11T11:02:54.999Z</time></trkpt><trkpt lat="45.92897749644206" lon="11.90978521663568"><ele>259.4</ele><time>2026-04-11T11:02:55.999Z</time></trkpt><trkpt lat="45.928881921376416" lon="11.909866357379501"><ele>258.8</ele><time>2026-04-11T11:02:56.999Z</time></trkpt><trkpt lat="45.9288285976855" lon="11.910007749157474"><ele>258.2</ele><time>2026-04-11T11:02:57.999Z</time></trkpt><trkpt lat="45.928765321931635" lon="11.91012741375682"><ele>257.6</ele><time>2026-04-11T11:02:58.999Z</time></trkpt><trkpt lat="45.928717315926974" lon="11.910192852533976"><ele>257.0</ele><time>2026-04-11T11:02:59.999Z</time></trkpt><trkpt lat="45.92859286787719" lon="11.910408147271907"><ele>257.0</ele><time>2026-04-11T11:03:01.999Z</time></trkpt><trkpt lat="45.928556677559534" lon="11.910577201705838"><ele>257.0</ele><time>2026-04-11T11:03:02.999Z</time></trkpt><trkpt lat="45.92855098616211" lon="11.91076431252855"><ele>257.0</ele><time>2026-04-11T11:03:03.999Z</time></trkpt><trkpt lat="45.92848444904811" lon="11.910917590790733"><ele>257.0</ele><time>2026-04-11T11:03:04.999Z</time></trkpt><trkpt lat="45.92845235469084" lon="11.911024575500075"><ele>256.4</ele><time>2026-04-11T11:03:05.999Z</time></trkpt><trkpt lat="45.928459855473854" lon="11.911132446817165"><ele>255.79999999999998</ele><time>2026-04-11T11:03:06.999Z</time></trkpt><trkpt lat="45.92848397713567" lon="11.911303895765323"><ele>255.2</ele><time>2026-04-11T11:03:07.999Z</time></trkpt><trkpt lat="45.92849865640385" lon="11.91147969204344"><ele>254.6</ele><time>2026-04-11T11:03:10.999Z</time></trkpt><trkpt lat="45.92849698245269" lon="11.911583559095018"><ele>254.0</ele><time>2026-04-11T11:03:11.999Z</time></trkpt><trkpt lat="45.92851154411135" lon="11.911736173612237"><ele>254.0</ele><time>2026-04-11T11:03:12.999Z</time></trkpt><trkpt lat="45.92844948537723" lon="11.91189603821904"><ele>254.0</ele><time>2026-04-11T11:03:13.999Z</time></trkpt><trkpt lat="45.928295911226705" lon="11.911916618869542"><ele>254.0</ele><time>2026-04-11T11:03:14.999Z</time></trkpt><trkpt lat="45.92821034454041" lon="11.91192348236748"><ele>254.0</ele><time>2026-04-11T11:03:15.999Z</time></trkpt><trkpt lat="45.92809060078987" lon="11.911924164705006"><ele>253.75</ele><time>2026-04-11T11:03:16.999Z</time></trkpt><trkpt lat="45.92797831889955" lon="11.911930136772643"><ele>253.5</ele><time>2026-04-11T11:03:17.999Z</time></trkpt><trkpt lat="45.92785261187384" lon="11.911939433075467"><ele>253.25</ele><time>2026-04-11T11:03:18.999Z</time></trkpt><trkpt lat="45.92772666512136" lon="11.91191908074485"><ele>253.0</ele><time>2026-04-11T11:03:19.999Z</time></trkpt><trkpt lat="45.92760920686075" lon="11.91188919963926"><ele>254.4</ele><time>2026-04-11T11:03:20.999Z</time></trkpt><trkpt lat="45.92750862577711" lon="11.911919818258415"><ele>255.8</ele><time>2026-04-11T11:03:21.999Z</time></trkpt><trkpt lat="45.92741266979064" lon="11.911966429352066"><ele>257.2</ele><time>2026-04-11T11:03:22.999Z</time></trkpt><trkpt lat="45.92730329108631" lon="11.912031180096973"><ele>258.6</ele><time>2026-04-11T11:03:23.999Z</time></trkpt><trkpt lat="45.927195504556416" lon="11.912116620307678"><ele>260.0</ele><time>2026-04-11T11:03:24.999Z</time></trkpt><trkpt lat="45.92708090003804" lon="11.912199908549653"><ele>260.0</ele><time>2026-04-11T11:03:25.999Z</time></trkpt><trkpt lat="45.92698785292116" lon="11.912336002973982"><ele>260.0</ele><time>2026-04-11T11:03:26.999Z</time></trkpt><trkpt lat="45.92688667291052" lon="11.912443977948614"><ele>260.0</ele><time>2026-04-11T11:03:27.999Z</time></trkpt><trkpt lat="45.926772783072856" lon="11.912553725486418"><ele>260.0</ele><time>2026-04-11T11:03:28.999Z</time></trkpt><trkpt lat="45.92667597518614" lon="11.912695328594875"><ele>260.0</ele><time>2026-04-11T11:03:29.999Z</time></trkpt><trkpt lat="45.92658908413562" lon="11.912816019147575"><ele>260.0</ele><time>2026-04-11T11:03:30.999Z</time></trkpt><trkpt lat="45.926497373659636" lon="11.91294212988084"><ele>260.0</ele><time>2026-04-11T11:03:31.999Z</time></trkpt><trkpt lat="45.92640277189179" lon="11.913068870505192"><ele>260.0</ele><time>2026-04-11T11:03:32.999Z</time></trkpt><trkpt lat="45.926307088497616" lon="11.913195788811098"><ele>260.0</ele><time>2026-04-11T11:03:33.999Z</time></trkpt><trkpt lat="45.92621620488893" lon="11.913308198314363"><ele>260.0</ele><time>2026-04-11T11:03:34.999Z</time></trkpt><trkpt lat="45.92610832650173" lon="11.91336476949643"><ele>260.0</ele><time>2026-04-11T11:03:35.999Z</time></trkpt><trkpt lat="45.92599374264251" lon="11.913298949134527"><ele>260.0</ele><time>2026-04-11T11:03:36.999Z</time></trkpt><trkpt lat="45.925875500985335" lon="11.913266735408131"><ele>258.8</ele><time>2026-04-11T11:03:37.999Z</time></trkpt><trkpt lat="45.92579241100482" lon="11.913252158635453"><ele>257.6</ele><time>2026-04-11T11:03:38.999Z</time></trkpt><trkpt lat="45.925704677896775" lon="11.913281178570426"><ele>256.4</ele><time>2026-04-11T11:03:39.999Z</time></trkpt><trkpt lat="45.92562296586674" lon="11.913328755598071"><ele>255.2</ele><time>2026-04-11T11:03:40.999Z</time></trkpt><trkpt lat="45.92554670903711" lon="11.913419561133038"><ele>254.0</ele><time>2026-04-11T11:03:41.999Z</time></trkpt><trkpt lat="45.92550062087255" lon="11.913561781201851"><ele>254.0</ele><time>2026-04-11T11:03:42.999Z</time></trkpt><trkpt lat="45.92544469008626" lon="11.91370085934619"><ele>254.0</ele><time>2026-04-11T11:03:43.999Z</time></trkpt><trkpt lat="45.92537622993249" lon="11.91383717712737"><ele>254.0</ele><time>2026-04-11T11:03:44.999Z</time></trkpt><trkpt lat="45.92528068109567" lon="11.91397477426481"><ele>254.0</ele><time>2026-04-11T11:03:45.999Z</time></trkpt><trkpt lat="45.92518614449058" lon="11.914133570921143"><ele>255.5</ele><time>2026-04-11T11:03:46.999Z</time></trkpt><trkpt lat="45.925112830305466" lon="11.914293967279711"><ele>257.0</ele><time>2026-04-11T11:03:47.998Z</time></trkpt><trkpt lat="45.92505922584424" lon="11.91446059187823"><ele>258.5</ele><time>2026-04-11T11:03:48.998Z</time></trkpt><trkpt lat="45.9250025165522" lon="11.914603806909033"><ele>260.0</ele><time>2026-04-11T11:03:49.998Z</time></trkpt><trkpt lat="45.92493628005565" lon="11.91470684939196"><ele>260.0</ele><time>2026-04-11T11:03:50.998Z</time></trkpt><trkpt lat="45.92487225506135" lon="11.91478580827855"><ele>260.0</ele><time>2026-04-11T11:03:52Z</time></trkpt><trkpt lat="45.92481207770492" lon="11.914896904360148"><ele>260.0</ele><time>2026-04-11T11:03:53Z</time></trkpt><trkpt lat="45.9247455941393" lon="11.914990610251435"><ele>260.0</ele><time>2026-04-11T11:03:54Z</time></trkpt><trkpt lat="45.92467386498772" lon="11.915069710428424"><ele>260.0</ele><time>2026-04-11T11:03:55Z</time></trkpt><trkpt lat="45.924585522455395" lon="11.915125206529405"><ele>258.25</ele><time>2026-04-11T11:03:56Z</time></trkpt><trkpt lat="45.92445187658699" lon="11.915191102820398"><ele>256.5</ele><time>2026-04-11T11:03:57Z</time></trkpt><trkpt lat="45.9243425406832" lon="11.915238515523315"><ele>254.75</ele><time>2026-04-11T11:03:58Z</time></trkpt><trkpt lat="45.9241916249836" lon="11.91529455123829"><ele>253.0</ele><time>2026-04-11T11:03:59Z</time></trkpt><trkpt lat="45.92406592299723" lon="11.915374254074083"><ele>253.0</ele><time>2026-04-11T11:04:00Z</time></trkpt><trkpt lat="45.92393577142373" lon="11.915463757730718"><ele>253.0</ele><time>2026-04-11T11:04:01Z</time></trkpt><trkpt lat="45.9238006682797" lon="11.915526182715164"><ele>253.0</ele><time>2026-04-11T11:04:02Z</time></trkpt><trkpt lat="45.92369532338352" lon="11.915681839322712"><ele>253.0</ele><time>2026-04-11T11:04:03Z</time></trkpt><trkpt lat="45.923595948248575" lon="11.915815475103923"><ele>253.0</ele><time>2026-04-11T11:04:04Z</time></trkpt><trkpt lat="45.923471058418585" lon="11.915897258975399"><ele>253.0</ele><time>2026-04-11T11:04:05Z</time></trkpt><trkpt lat="45.923354688766736" lon="11.915974881592891"><ele>253.0</ele><time>2026-04-11T11:04:06Z</time></trkpt><trkpt lat="45.92323616296319" lon="11.916066341432872"><ele>253.0</ele><time>2026-04-11T11:04:07Z</time></trkpt><trkpt lat="45.92311757315658" lon="11.916139222181402"><ele>253.25</ele><time>2026-04-11T11:04:08Z</time></trkpt><trkpt lat="45.923000603835156" lon="11.916241842597861"><ele>253.5</ele><time>2026-04-11T11:04:09Z</time></trkpt><trkpt lat="45.9228951573369" lon="11.916343490282841"><ele>253.75</ele><time>2026-04-11T11:04:10Z</time></trkpt><trkpt lat="45.92279606024317" lon="11.91643646923119"><ele>254.0</ele><time>2026-04-11T11:04:11Z</time></trkpt><trkpt lat="45.92269835547266" lon="11.916527479169394"><ele>254.0</ele><time>2026-04-11T11:04:12Z</time></trkpt><trkpt lat="45.92263561996738" lon="11.916556887086236"><ele>253.99999999999997</ele><time>2026-04-11T11:04:13Z</time></trkpt><trkpt lat="45.922563624059975" lon="11.91655011693252"><ele>253.99999999999997</ele><time>2026-04-11T11:04:14Z</time></trkpt><trkpt lat="45.92245839158673" lon="11.916548452318544"><ele>254.0</ele><time>2026-04-11T11:04:15Z</time></trkpt><trkpt lat="45.92234431317023" lon="11.916610482256575"><ele>254.0</ele><time>2026-04-11T11:04:16Z</time></trkpt><trkpt lat="45.92226466625295" lon="11.916808458987905"><ele>251.25</ele><time>2026-04-11T11:04:17Z</time></trkpt><trkpt lat="45.92216549505527" lon="11.916943017248544"><ele>248.5</ele><time>2026-04-11T11:04:18Z</time></trkpt><trkpt lat="45.92205329426409" lon="11.917035423584453"><ele>245.75</ele><time>2026-04-11T11:04:19Z</time></trkpt><trkpt lat="45.921949012555466" lon="11.917174872161583"><ele>243.0</ele><time>2026-04-11T11:04:20Z</time></trkpt><trkpt lat="45.92184360152917" lon="11.91730101962367"><ele>245.5</ele><time>2026-04-11T11:04:21Z</time></trkpt><trkpt lat="45.92172955750315" lon="11.917409510030037"><ele>248.0</ele><time>2026-04-11T11:04:22Z</time></trkpt><trkpt lat="45.92161945418546" lon="11.917523658358812"><ele>250.5</ele><time>2026-04-11T11:04:23Z</time></trkpt><trkpt lat="45.921517888558554" lon="11.917653392032182"><ele>253.0</ele><time>2026-04-11T11:04:24Z</time></trkpt><trkpt lat="45.92140631043727" lon="11.917765240825515"><ele>253.0</ele><time>2026-04-11T11:04:25Z</time></trkpt><trkpt lat="45.92128705245276" lon="11.917865686735645"><ele>253.0</ele><time>2026-04-11T11:04:26Z</time></trkpt><trkpt lat="45.92115220842384" lon="11.91791795739977"><ele>253.0</ele><time>2026-04-11T11:04:27Z</time></trkpt><trkpt lat="45.92102228571282" lon="11.918016011130423"><ele>253.0</ele><time>2026-04-11T11:04:28Z</time></trkpt><trkpt lat="45.920888095187244" lon="11.91808703121913"><ele>257.75</ele><time>2026-04-11T11:04:29Z</time></trkpt><trkpt lat="45.92076420042769" lon="11.91813424588291"><ele>262.5</ele><time>2026-04-11T11:04:30Z</time></trkpt><trkpt lat="45.92065368484113" lon="11.918180693778293"><ele>267.25</ele><time>2026-04-11T11:04:31Z</time></trkpt><trkpt lat="45.920540603890444" lon="11.918185182619471"><ele>272.0</ele><time>2026-04-11T11:04:32Z</time></trkpt><trkpt lat="45.92041419160216" lon="11.918169967947685"><ele>272.0</ele><time>2026-04-11T11:04:33Z</time></trkpt><trkpt lat="45.92027700659096" lon="11.918162805694388"><ele>272.0</ele><time>2026-04-11T11:04:34Z</time></trkpt><trkpt lat="45.92015932560745" lon="11.918164965071577"><ele>272.0</ele><time>2026-04-11T11:04:35Z</time></trkpt><trkpt lat="45.92005218891977" lon="11.918169794750508"><ele>272.0</ele><time>2026-04-11T11:04:36Z</time></trkpt><trkpt lat="45.91996100657342" lon="11.918231236347555"><ele>271.1666666666667</ele><time>2026-04-11T11:04:37Z</time></trkpt><trkpt lat="45.9198781031558" lon="11.91832000782587"><ele>270.33333333333337</ele><time>2026-04-11T11:04:37.999Z</time></trkpt><trkpt lat="45.91981259171311" lon="11.918418885261012"><ele>269.5</ele><time>2026-04-11T11:04:38.999Z</time></trkpt><trkpt lat="45.91974396066695" lon="11.918472988766124"><ele>268.6666666666667</ele><time>2026-04-11T11:04:39.999Z</time></trkpt><trkpt lat="45.91967488753667" lon="11.918415725092995"><ele>267.8333333333333</ele><time>2026-04-11T11:04:40.999Z</time></trkpt><trkpt lat="45.91960943009265" lon="11.918383148492284"><ele>267.0</ele><time>2026-04-11T11:04:41.999Z</time></trkpt><trkpt lat="45.919528372866125" lon="11.918274724440721"><ele>271.5</ele><time>2026-04-11T11:04:42.999Z</time></trkpt><trkpt lat="45.91943684592313" lon="11.918148352570126"><ele>276.0</ele><time>2026-04-11T11:04:43.999Z</time></trkpt><trkpt lat="45.91938673925155" lon="11.917981227168008"><ele>280.5</ele><time>2026-04-11T11:04:44.999Z</time></trkpt><trkpt lat="45.919326184376644" lon="11.917809162811952"><ele>285.0</ele><time>2026-04-11T11:04:45.999Z</time></trkpt><trkpt lat="45.91925302164427" lon="11.91765522401308"><ele>286.0</ele><time>2026-04-11T11:04:46.999Z</time></trkpt><trkpt lat="45.91915969371004" lon="11.917510108351676"><ele>287.0</ele><time>2026-04-11T11:04:47.999Z</time></trkpt><trkpt lat="45.919048035742584" lon="11.917454383495532"><ele>288.0</ele><time>2026-04-11T11:04:48.999Z</time></trkpt><trkpt lat="45.91893268367744" lon="11.917382343773605"><ele>289.0</ele><time>2026-04-11T11:04:49.999Z</time></trkpt><trkpt lat="45.918838035463615" lon="11.917285838765954"><ele>289.0</ele><time>2026-04-11T11:04:50.999Z</time></trkpt><trkpt lat="45.91876025763215" lon="11.917152681241387"><ele>289.0</ele><time>2026-04-11T11:04:51.999Z</time></trkpt><trkpt lat="45.91868373330657" lon="11.917020231529609"><ele>289.0</ele><time>2026-04-11T11:04:52.999Z</time></trkpt><trkpt lat="45.91861802954227" lon="11.916919189093095"><ele>289.0</ele><time>2026-04-11T11:04:53.999Z</time></trkpt><trkpt lat="45.91853884084883" lon="11.916848224900262"><ele>289.0</ele><time>2026-04-11T11:04:54.999Z</time></trkpt><trkpt lat="45.91843487874639" lon="11.916828920775544"><ele>286.75</ele><time>2026-04-11T11:04:55.999Z</time></trkpt><trkpt lat="45.9183175426446" lon="11.916864479797374"><ele>284.5</ele><time>2026-04-11T11:04:56.999Z</time></trkpt><trkpt lat="45.91821359567014" lon="11.916964893630778"><ele>282.25</ele><time>2026-04-11T11:04:57.999Z</time></trkpt><trkpt lat="45.91812785078683" lon="11.917104349192524"><ele>280.0</ele><time>2026-04-11T11:04:58.999Z</time></trkpt><trkpt lat="45.918011366767246" lon="11.91720929321195"><ele>280.0</ele><time>2026-04-11T11:04:59.999Z</time></trkpt><trkpt lat="45.91790531295847" lon="11.917317894686725"><ele>280.0</ele><time>2026-04-11T11:05:00.999Z</time></trkpt><trkpt lat="45.917788374895885" lon="11.91743739950855"><ele>280.0</ele><time>2026-04-11T11:05:01.999Z</time></trkpt><trkpt lat="45.91768093233624" lon="11.91754228720185"><ele>280.0</ele><time>2026-04-11T11:05:02.999Z</time></trkpt><trkpt lat="45.91758116975074" lon="11.917641702997498"><ele>278.8</ele><time>2026-04-11T11:05:03.999Z</time></trkpt><trkpt lat="45.91751096871742" lon="11.917758374792715"><ele>277.6</ele><time>2026-04-11T11:05:04.999Z</time></trkpt><trkpt lat="45.91744188040229" lon="11.917873992036762"><ele>276.4</ele><time>2026-04-11T11:05:05.999Z</time></trkpt><trkpt lat="45.91740753606911" lon="11.917989713726154"><ele>275.2</ele><time>2026-04-11T11:05:06.999Z</time></trkpt><trkpt lat="45.91737902370662" lon="11.918101602558306"><ele>274.0</ele><time>2026-04-11T11:05:08.999Z</time></trkpt><trkpt lat="45.917325218452" lon="11.918192392544336"><ele>274.0</ele><time>2026-04-11T11:05:10.999Z</time></trkpt><trkpt lat="45.917305809236595" lon="11.91827933917845"><ele>274.0</ele><time>2026-04-11T11:05:11.999Z</time></trkpt><trkpt lat="45.91718152254147" lon="11.918269540074188"><ele>274.0</ele><time>2026-04-11T11:05:12.999Z</time></trkpt><trkpt lat="45.91712016884849" lon="11.918355925840702"><ele>274.0</ele><time>2026-04-11T11:05:13.999Z</time></trkpt><trkpt lat="45.91704362120424" lon="11.918477159846189"><ele>274.0</ele><time>2026-04-11T11:05:14.999Z</time></trkpt><trkpt lat="45.91697520596655" lon="11.918586604220316"><ele>273.59999999999997</ele><time>2026-04-11T11:05:15.999Z</time></trkpt><trkpt lat="45.91690101329122" lon="11.918705108419731"><ele>273.2</ele><time>2026-04-11T11:05:16.999Z</time></trkpt><trkpt lat="45.916831742897244" lon="11.918840219722426"><ele>272.79999999999995</ele><time>2026-04-11T11:05:17.999Z</time></trkpt><trkpt lat="45.916757707269454" lon="11.918955694405094"><ele>272.4</ele><time>2026-04-11T11:05:18.999Z</time></trkpt><trkpt lat="45.9166950855915" lon="11.919054687265373"><ele>272.0</ele><time>2026-04-11T11:05:19.999Z</time></trkpt><trkpt lat="45.9166338354194" lon="11.919147851560963"><ele>271.8</ele><time>2026-04-11T11:05:20.999Z</time></trkpt><trkpt lat="45.91657192665579" lon="11.919239285617834"><ele>271.6</ele><time>2026-04-11T11:05:21.999Z</time></trkpt><trkpt lat="45.91649785718678" lon="11.91934799781497"><ele>271.40000000000003</ele><time>2026-04-11T11:05:22.999Z</time></trkpt><trkpt lat="45.91642434164317" lon="11.91946059424792"><ele>271.2</ele><time>2026-04-11T11:05:23.999Z</time></trkpt><trkpt lat="45.91634171483552" lon="11.919562675504434"><ele>271.0</ele><time>2026-04-11T11:05:24.999Z</time></trkpt><trkpt lat="45.91626835157255" lon="11.91969953688464"><ele>271.0</ele><time>2026-04-11T11:05:25.999Z</time></trkpt><trkpt lat="45.91619475363411" lon="11.91980238777499"><ele>271.0</ele><time>2026-04-11T11:05:26.999Z</time></trkpt><trkpt lat="45.91612225325654" lon="11.919899761572047"><ele>271.0</ele><time>2026-04-11T11:05:27.999Z</time></trkpt><trkpt lat="45.91606559023075" lon="11.920005540436376"><ele>271.0</ele><time>2026-04-11T11:05:28.999Z</time></trkpt><trkpt lat="45.91599739692858" lon="11.920083773033035"><ele>271.0</ele><time>2026-04-11T11:05:29.999Z</time></trkpt><trkpt lat="45.915933428062196" lon="11.920177454452471"><ele>270.6</ele><time>2026-04-11T11:05:30.999Z</time></trkpt><trkpt lat="45.91587060907757" lon="11.920294390197776"><ele>270.20000000000005</ele><time>2026-04-11T11:05:32.999Z</time></trkpt><trkpt lat="45.91576789765189" lon="11.920152849975755"><ele>269.79999999999995</ele><time>2026-04-11T11:05:35.999Z</time></trkpt><trkpt lat="45.91572447972343" lon="11.92005368342896"><ele>269.4</ele><time>2026-04-11T11:05:36.999Z</time></trkpt><trkpt lat="45.915675176513226" lon="11.919954411474814"><ele>269.0</ele><time>2026-04-11T11:05:37.999Z</time></trkpt><trkpt lat="45.9156064860237" lon="11.919854000837729"><ele>269.0</ele><time>2026-04-11T11:05:38.999Z</time></trkpt><trkpt lat="45.91553508387937" lon="11.919740081581407"><ele>269.0</ele><time>2026-04-11T11:05:39.999Z</time></trkpt><trkpt lat="45.91546383252326" lon="11.91961605184372"><ele>269.0</ele><time>2026-04-11T11:05:40.999Z</time></trkpt><trkpt lat="45.9153967906756" lon="11.919503116276244"><ele>269.0</ele><time>2026-04-11T11:05:41.999Z</time></trkpt><trkpt lat="45.915343942091354" lon="11.919377627995564"><ele>269.0</ele><time>2026-04-11T11:05:42.999Z</time></trkpt><trkpt lat="45.91529321274016" lon="11.91925658202578"><ele>269.59999999999997</ele><time>2026-04-11T11:05:43.999Z</time></trkpt><trkpt lat="45.91525643252828" lon="11.919143040137241"><ele>270.2</ele><time>2026-04-11T11:05:44.999Z</time></trkpt><trkpt lat="45.91523415788852" lon="11.919019286424227"><ele>270.79999999999995</ele><time>2026-04-11T11:05:45.999Z</time></trkpt><trkpt lat="45.91525676607899" lon="11.9188787370319"><ele>271.4</ele><time>2026-04-11T11:05:46.999Z</time></trkpt><trkpt lat="45.91528114659264" lon="11.918721577487643"><ele>272.0</ele><time>2026-04-11T11:05:47.999Z</time></trkpt><trkpt lat="45.9153023500138" lon="11.91854918197739"><ele>272.0</ele><time>2026-04-11T11:05:48.999Z</time></trkpt><trkpt lat="45.91532513827991" lon="11.918366422980544"><ele>272.0</ele><time>2026-04-11T11:05:49.999Z</time></trkpt><trkpt lat="45.915342572755534" lon="11.91817036306672"><ele>272.0</ele><time>2026-04-11T11:05:50.999Z</time></trkpt><trkpt lat="45.915373730164816" lon="11.917971362162733"><ele>272.0</ele><time>2026-04-11T11:05:51.998Z</time></trkpt><trkpt lat="45.91540902773626" lon="11.917771061768024"><ele>270.6666666666667</ele><time>2026-04-11T11:05:52.998Z</time></trkpt><trkpt lat="45.915428161282584" lon="11.917555023227411"><ele>269.3333333333333</ele><time>2026-04-11T11:05:53.998Z</time></trkpt><trkpt lat="45.915486524779034" lon="11.917349161885271"><ele>268.0</ele><time>2026-04-11T11:05:54.998Z</time></trkpt><trkpt lat="45.915534899858784" lon="11.917131174794255"><ele>268.0</ele><time>2026-04-11T11:05:55.998Z</time></trkpt><trkpt lat="45.91558460778833" lon="11.916934837551663"><ele>268.0</ele><time>2026-04-11T11:05:56.998Z</time></trkpt><trkpt lat="45.91564161003336" lon="11.916743410661688"><ele>268.0</ele><time>2026-04-11T11:05:58Z</time></trkpt><trkpt lat="45.91569588016033" lon="11.916568701197923"><ele>268.0</ele><time>2026-04-11T11:05:59Z</time></trkpt><trkpt lat="45.915736022287604" lon="11.916392880698169"><ele>267.2</ele><time>2026-04-11T11:06:00Z</time></trkpt><trkpt lat="45.915793758234635" lon="11.916225601646113"><ele>266.4</ele><time>2026-04-11T11:06:01Z</time></trkpt><trkpt lat="45.91585320569936" lon="11.91609231675248"><ele>265.59999999999997</ele><time>2026-04-11T11:06:02Z</time></trkpt><trkpt lat="45.915891425674594" lon="11.915957997981826"><ele>264.8</ele><time>2026-04-11T11:06:03Z</time></trkpt><trkpt lat="45.91592382730634" lon="11.915822244014327"><ele>264.0</ele><time>2026-04-11T11:06:04Z</time></trkpt><trkpt lat="45.91593490975358" lon="11.915689847601339"><ele>261.25</ele><time>2026-04-11T11:06:05Z</time></trkpt><trkpt lat="45.915874332777484" lon="11.915553745410273"><ele>258.5</ele><time>2026-04-11T11:06:06Z</time></trkpt><trkpt lat="45.91577900578769" lon="11.915458712493635"><ele>255.75</ele><time>2026-04-11T11:06:07Z</time></trkpt><trkpt lat="45.91568455920752" lon="11.91534838489533"><ele>253.0</ele><time>2026-04-11T11:06:08Z</time></trkpt><trkpt lat="45.915586847516515" lon="11.915212972507245"><ele>253.0</ele><time>2026-04-11T11:06:09Z</time></trkpt><trkpt lat="45.9154912694083" lon="11.915074779683922"><ele>253.0</ele><time>2026-04-11T11:06:10Z</time></trkpt><trkpt lat="45.915403481664" lon="11.914941301874874"><ele>253.0</ele><time>2026-04-11T11:06:11Z</time></trkpt><trkpt lat="45.91532780751812" lon="11.91482876696036"><ele>253.0</ele><time>2026-04-11T11:06:12Z</time></trkpt><trkpt lat="45.91524659855639" lon="11.914704467962462"><ele>253.25</ele><time>2026-04-11T11:06:13Z</time></trkpt><trkpt lat="45.91515582467499" lon="11.914596180825868"><ele>253.5</ele><time>2026-04-11T11:06:14Z</time></trkpt><trkpt lat="45.91506634051295" lon="11.91453126256304"><ele>253.75</ele><time>2026-04-11T11:06:15Z</time></trkpt><trkpt lat="45.91495749157787" lon="11.914523730889398"><ele>254.0</ele><time>2026-04-11T11:06:16Z</time></trkpt><trkpt lat="45.91483635181226" lon="11.914595953389053"><ele>254.0</ele><time>2026-04-11T11:06:17Z</time></trkpt><trkpt lat="45.91474637922601" lon="11.914721997860608"><ele>254.0</ele><time>2026-04-11T11:06:18Z</time></trkpt><trkpt lat="45.91465580917949" lon="11.914844900824756"><ele>254.0</ele><time>2026-04-11T11:06:19Z</time></trkpt><trkpt lat="45.914561000293816" lon="11.91497554398997"><ele>254.0</ele><time>2026-04-11T11:06:20Z</time></trkpt><trkpt lat="45.91448215777569" lon="11.915086410586406"><ele>255.0</ele><time>2026-04-11T11:06:21Z</time></trkpt><trkpt lat="45.914392811263305" lon="11.915201561330258"><ele>256.0</ele><time>2026-04-11T11:06:22Z</time></trkpt><trkpt lat="45.91433978095514" lon="11.915268199156031"><ele>257.0</ele><time>2026-04-11T11:06:23Z</time></trkpt><trkpt lat="45.91422833073196" lon="11.915436913385854"><ele>258.0</ele><time>2026-04-11T11:06:24Z</time></trkpt><trkpt lat="45.91402390383431" lon="11.915716129125116"><ele>254.33333333333331</ele><time>2026-04-11T11:06:25Z</time></trkpt><trkpt lat="45.91390583088088" lon="11.915935357411817"><ele>250.66666666666666</ele><time>2026-04-11T11:06:26Z</time></trkpt><trkpt lat="45.91379461867308" lon="11.916168452919196"><ele>247.0</ele><time>2026-04-11T11:06:27Z</time></trkpt><trkpt lat="45.913692371274216" lon="11.91637271213792"><ele>247.0</ele><time>2026-04-11T11:06:28Z</time></trkpt><trkpt lat="45.91360504768394" lon="11.916553346153487"><ele>247.0</ele><time>2026-04-11T11:06:29Z</time></trkpt><trkpt lat="45.913511311502454" lon="11.916701425637857"><ele>247.0</ele><time>2026-04-11T11:06:30Z</time></trkpt><trkpt lat="45.91340115607991" lon="11.916818099309298"><ele>247.0</ele><time>2026-04-11T11:06:31Z</time></trkpt><trkpt lat="45.91327476841826" lon="11.91693710789722"><ele>250.0</ele><time>2026-04-11T11:06:32Z</time></trkpt><trkpt lat="45.91315854919538" lon="11.917051470265829"><ele>253.0</ele><time>2026-04-11T11:06:33Z</time></trkpt><trkpt lat="45.91305071543347" lon="11.917177122050704"><ele>256.0</ele><time>2026-04-11T11:06:34Z</time></trkpt><trkpt lat="45.91292073319975" lon="11.917268877591225"><ele>259.0</ele><time>2026-04-11T11:06:35Z</time></trkpt><trkpt lat="45.91278302356405" lon="11.917344673602894"><ele>259.0</ele><time>2026-04-11T11:06:36Z</time></trkpt><trkpt lat="45.91262631706166" lon="11.917404927862938"><ele>259.0</ele><time>2026-04-11T11:06:37Z</time></trkpt><trkpt lat="45.912461884844795" lon="11.91742881382965"><ele>259.0</ele><time>2026-04-11T11:06:38Z</time></trkpt><trkpt lat="45.91228429764847" lon="11.917413649195055"><ele>260.0</ele><time>2026-04-11T11:06:39Z</time></trkpt><trkpt lat="45.91210544656395" lon="11.917388698631699"><ele>261.0</ele><time>2026-04-11T11:06:40Z</time></trkpt><trkpt lat="45.911915848787075" lon="11.917357822916216"><ele>262.0</ele><time>2026-04-11T11:06:41Z</time></trkpt><trkpt lat="45.9117277235404" lon="11.917349864784327"><ele>262.0</ele><time>2026-04-11T11:06:42Z</time></trkpt><trkpt lat="45.91157076419719" lon="11.917340036277643"><ele>262.0</ele><time>2026-04-11T11:06:43Z</time></trkpt><trkpt lat="45.91144960062758" lon="11.917336509667352"><ele>262.0</ele><time>2026-04-11T11:06:44Z</time></trkpt><trkpt lat="45.91134371501618" lon="11.917330063074507"><ele>262.0</ele><time>2026-04-11T11:06:45Z</time></trkpt><trkpt lat="45.911249107779" lon="11.917322218924342"><ele>262.0</ele><time>2026-04-11T11:06:46Z</time></trkpt><trkpt lat="45.91117186463432" lon="11.917299705582478"><ele>262.0</ele><time>2026-04-11T11:06:47Z</time></trkpt><trkpt lat="45.91108746433464" lon="11.917175475205045"><ele>262.0</ele><time>2026-04-11T11:06:48.999Z</time></trkpt><trkpt lat="45.91117023681549" lon="11.91701613439628"><ele>262.0</ele><time>2026-04-11T11:06:50.999Z</time></trkpt><trkpt lat="45.91122634224618" lon="11.916914335829848"><ele>262.0</ele><time>2026-04-11T11:06:51.999Z</time></trkpt><trkpt lat="45.91128173162839" lon="11.916827920193787"><ele>262.0</ele><time>2026-04-11T11:06:52.999Z</time></trkpt><trkpt lat="45.91132854691716" lon="11.916740879252233"><ele>262.0</ele><time>2026-04-11T11:06:53.999Z</time></trkpt><trkpt lat="45.91130145299859" lon="11.91656684303617"><ele>262.0</ele><time>2026-04-11T11:06:54.999Z</time></trkpt><trkpt lat="45.91134099774835" lon="11.916418211835277"><ele>262.0</ele><time>2026-04-11T11:06:55.999Z</time></trkpt><trkpt lat="45.91140890606812" lon="11.91626091994649"><ele>262.0</ele><time>2026-04-11T11:06:56.999Z</time></trkpt><trkpt lat="45.911452609701755" lon="11.916083197387971"><ele>262.5</ele><time>2026-04-11T11:06:57.999Z</time></trkpt><trkpt lat="45.91147284573487" lon="11.91587920162174"><ele>263.0</ele><time>2026-04-11T11:06:58.999Z</time></trkpt><trkpt lat="45.91148865840032" lon="11.915700833770126"><ele>263.5</ele><time>2026-04-11T11:06:59.999Z</time></trkpt><trkpt lat="45.911505678515994" lon="11.915528455336986"><ele>264.0</ele><time>2026-04-11T11:07:00.999Z</time></trkpt><trkpt lat="45.91150589582391" lon="11.915389780122645"><ele>264.0</ele><time>2026-04-11T11:07:01.999Z</time></trkpt><trkpt lat="45.91148691691354" lon="11.915269945879079"><ele>264.0</ele><time>2026-04-11T11:07:02.999Z</time></trkpt><trkpt lat="45.911468550009666" lon="11.915178139131035"><ele>264.0</ele><time>2026-04-11T11:07:03.999Z</time></trkpt><trkpt lat="45.91144295097845" lon="11.91509070305903"><ele>264.0</ele><time>2026-04-11T11:07:04.999Z</time></trkpt><trkpt lat="45.9113957020129" lon="11.914995516495337"><ele>264.0</ele><time>2026-04-11T11:07:05.999Z</time></trkpt><trkpt lat="45.91133835699618" lon="11.914878548923737"><ele>264.0</ele><time>2026-04-11T11:07:06.999Z</time></trkpt><trkpt lat="45.91125308794165" lon="11.914760092594497"><ele>263.0</ele><time>2026-04-11T11:07:07.999Z</time></trkpt><trkpt lat="45.911122994551015" lon="11.914660975524095"><ele>262.0</ele><time>2026-04-11T11:07:08.999Z</time></trkpt><trkpt lat="45.910970864050825" lon="11.914545929879695"><ele>261.0</ele><time>2026-04-11T11:07:09.999Z</time></trkpt><trkpt lat="45.910808080613535" lon="11.914465797668843"><ele>260.0</ele><time>2026-04-11T11:07:10.999Z</time></trkpt><trkpt lat="45.910665031845696" lon="11.914437796589807"><ele>259.0</ele><time>2026-04-11T11:07:11.999Z</time></trkpt><trkpt lat="45.91052205365448" lon="11.91444236581692"><ele>258.0</ele><time>2026-04-11T11:07:12.999Z</time></trkpt><trkpt lat="45.91037938867253" lon="11.914441522476595"><ele>257.0</ele><time>2026-04-11T11:07:13.999Z</time></trkpt><trkpt lat="45.910242401810926" lon="11.914451584185555"><ele>257.0</ele><time>2026-04-11T11:07:14.999Z</time></trkpt><trkpt lat="45.91010368190305" lon="11.914450570931528"><ele>257.0</ele><time>2026-04-11T11:07:15.999Z</time></trkpt><trkpt lat="45.90997982051346" lon="11.914440584967764"><ele>257.0</ele><time>2026-04-11T11:07:16.999Z</time></trkpt><trkpt lat="45.909851723814256" lon="11.914436233472607"><ele>257.0</ele><time>2026-04-11T11:07:17.999Z</time></trkpt><trkpt lat="45.909699889856775" lon="11.914383860743357"><ele>259.0</ele><time>2026-04-11T11:07:18.999Z</time></trkpt><trkpt lat="45.909578760438556" lon="11.91433979232849"><ele>261.0</ele><time>2026-04-11T11:07:19.999Z</time></trkpt><trkpt lat="45.909462185359075" lon="11.914287433192596"><ele>263.0</ele><time>2026-04-11T11:07:20.999Z</time></trkpt><trkpt lat="45.909367501275405" lon="11.914228934035926"><ele>265.0</ele><time>2026-04-11T11:07:21.999Z</time></trkpt><trkpt lat="45.90926987113807" lon="11.914173701052281"><ele>266.4</ele><time>2026-04-11T11:07:22.999Z</time></trkpt><trkpt lat="45.90917276794448" lon="11.914116406861996"><ele>267.8</ele><time>2026-04-11T11:07:23.999Z</time></trkpt><trkpt lat="45.90908958696578" lon="11.914041826824489"><ele>269.2</ele><time>2026-04-11T11:07:24.999Z</time></trkpt><trkpt lat="45.909051301350395" lon="11.913942306334343"><ele>270.6</ele><time>2026-04-11T11:07:25.999Z</time></trkpt><trkpt lat="45.90904429317706" lon="11.913817088778544"><ele>272.0</ele><time>2026-04-11T11:07:26.999Z</time></trkpt><trkpt lat="45.909010510851715" lon="11.913659768880468"><ele>272.0</ele><time>2026-04-11T11:07:27.999Z</time></trkpt><trkpt lat="45.90896225539154" lon="11.913510582121777"><ele>272.0</ele><time>2026-04-11T11:07:28.999Z</time></trkpt><trkpt lat="45.90893201482294" lon="11.913361256271765"><ele>272.0</ele><time>2026-04-11T11:07:29.999Z</time></trkpt><trkpt lat="45.90891618052429" lon="11.913204730259016"><ele>272.0</ele><time>2026-04-11T11:07:30.999Z</time></trkpt><trkpt lat="45.908884800913555" lon="11.913049418155126"><ele>272.0</ele><time>2026-04-11T11:07:31.999Z</time></trkpt><trkpt lat="45.90883279838144" lon="11.912894333594553"><ele>272.75</ele><time>2026-04-11T11:07:32.999Z</time></trkpt><trkpt lat="45.90879999980623" lon="11.912721530105452"><ele>273.5</ele><time>2026-04-11T11:07:33.999Z</time></trkpt><trkpt lat="45.90876716803625" lon="11.912545004985196"><ele>274.25</ele><time>2026-04-11T11:07:34.999Z</time></trkpt><trkpt lat="45.90872741268999" lon="11.91237238746857"><ele>275.0</ele><time>2026-04-11T11:07:35.999Z</time></trkpt><trkpt lat="45.90873293734634" lon="11.91217049546582"><ele>275.4</ele><time>2026-04-11T11:07:36.999Z</time></trkpt><trkpt lat="45.90868652837837" lon="11.911999582336064"><ele>275.8</ele><time>2026-04-11T11:07:37.999Z</time></trkpt><trkpt lat="45.90867475545941" lon="11.911838348513593"><ele>276.2</ele><time>2026-04-11T11:07:38.999Z</time></trkpt><trkpt lat="45.908648450658504" lon="11.91169212243405"><ele>276.6</ele><time>2026-04-11T11:07:39.999Z</time></trkpt><trkpt lat="45.90861674800585" lon="11.911554328718442"><ele>277.0</ele><time>2026-04-11T11:07:40.999Z</time></trkpt><trkpt lat="45.90859807899123" lon="11.911433441882526"><ele>277.6</ele><time>2026-04-11T11:07:41.999Z</time></trkpt><trkpt lat="45.90857326092505" lon="11.911303158595887"><ele>278.2</ele><time>2026-04-11T11:07:42.999Z</time></trkpt><trkpt lat="45.90854345040095" lon="11.911175511794802"><ele>278.8</ele><time>2026-04-11T11:07:43.999Z</time></trkpt><trkpt lat="45.90850692411808" lon="11.911027037001913"><ele>279.4</ele><time>2026-04-11T11:07:44.999Z</time></trkpt><trkpt lat="45.90847064219219" lon="11.91086895985368"><ele>280.0</ele><time>2026-04-11T11:07:45.999Z</time></trkpt><trkpt lat="45.908428176823634" lon="11.910695707292229"><ele>282.25</ele><time>2026-04-11T11:07:46.999Z</time></trkpt><trkpt lat="45.90838095858472" lon="11.910519096814308"><ele>284.5</ele><time>2026-04-11T11:07:47.999Z</time></trkpt><trkpt lat="45.90833449498819" lon="11.910340058359509"><ele>286.75</ele><time>2026-04-11T11:07:48.999Z</time></trkpt><trkpt lat="45.908290271823965" lon="11.910167940814112"><ele>289.0</ele><time>2026-04-11T11:07:49.999Z</time></trkpt><trkpt lat="45.908248327994954" lon="11.910002137370405"><ele>289.59999999999997</ele><time>2026-04-11T11:07:50.999Z</time></trkpt><trkpt lat="45.908207755739994" lon="11.90983728943643"><ele>290.2</ele><time>2026-04-11T11:07:51.999Z</time></trkpt><trkpt lat="45.90817107148281" lon="11.909676459285842"><ele>290.79999999999995</ele><time>2026-04-11T11:07:52.999Z</time></trkpt><trkpt lat="45.90813627924121" lon="11.909539302218988"><ele>291.4</ele><time>2026-04-11T11:07:53.999Z</time></trkpt><trkpt lat="45.90810334534612" lon="11.909413962694407"><ele>292.0</ele><time>2026-04-11T11:07:54.999Z</time></trkpt><trkpt lat="45.90808388377014" lon="11.90931067340697"><ele>292.8</ele><time>2026-04-11T11:07:55.999Z</time></trkpt><trkpt lat="45.90805966951543" lon="11.90921420090168"><ele>293.6</ele><time>2026-04-11T11:07:56.999Z</time></trkpt><trkpt lat="45.90805272452783" lon="11.909077035316301"><ele>294.40000000000003</ele><time>2026-04-11T11:07:58.999Z</time></trkpt><trkpt lat="45.9081697584676" lon="11.909018395091149"><ele>295.2</ele><time>2026-04-11T11:07:59.999Z</time></trkpt><trkpt lat="45.908248521963706" lon="11.908988780021454"><ele>296.0</ele><time>2026-04-11T11:08:00.999Z</time></trkpt><trkpt lat="45.908340833696535" lon="11.908966551754956"><ele>295.0</ele><time>2026-04-11T11:08:01.998Z</time></trkpt><trkpt lat="45.90844171781466" lon="11.908907396933458"><ele>294.0</ele><time>2026-04-11T11:08:02.998Z</time></trkpt><trkpt lat="45.90854158994857" lon="11.908867196103127"><ele>293.0</ele><time>2026-04-11T11:08:04Z</time></trkpt><trkpt lat="45.90864003273386" lon="11.90883614373505"><ele>292.0</ele><time>2026-04-11T11:08:05Z</time></trkpt><trkpt lat="45.9087201570151" lon="11.908793131037733"><ele>291.0</ele><time>2026-04-11T11:08:06Z</time></trkpt><trkpt lat="45.908811552888096" lon="11.9087459093507"><ele>291.0</ele><time>2026-04-11T11:08:07Z</time></trkpt><trkpt lat="45.90889165724132" lon="11.908705394189054"><ele>291.0</ele><time>2026-04-11T11:08:08Z</time></trkpt><trkpt lat="45.90897295983523" lon="11.90867076631037"><ele>291.0</ele><time>2026-04-11T11:08:09Z</time></trkpt><trkpt lat="45.909047644447355" lon="11.908633718570906"><ele>291.0</ele><time>2026-04-11T11:08:10Z</time></trkpt><trkpt lat="45.909108053503424" lon="11.908592152498098"><ele>291.0</ele><time>2026-04-11T11:08:11Z</time></trkpt><trkpt lat="45.909107750093334" lon="11.908356744975663"><ele>291.5</ele><time>2026-04-11T11:08:13Z</time></trkpt><trkpt lat="45.909075001867244" lon="11.9082534339807"><ele>292.0</ele><time>2026-04-11T11:08:14Z</time></trkpt><trkpt lat="45.909067334216104" lon="11.90815790961592"><ele>292.5</ele><time>2026-04-11T11:08:15Z</time></trkpt><trkpt lat="45.909043884649094" lon="11.908049636549238"><ele>293.0</ele><time>2026-04-11T11:08:17Z</time></trkpt><trkpt lat="45.90899922092005" lon="11.907929567273557"><ele>293.5</ele><time>2026-04-11T11:09:08.999Z</time></trkpt><trkpt lat="45.90910215750355" lon="11.907905603927183"><ele>294.0</ele><time>2026-04-11T11:09:11.999Z</time></trkpt><trkpt lat="45.90918244040894" lon="11.90785643194791"><ele>292.2</ele><time>2026-04-11T11:09:13.999Z</time></trkpt><trkpt lat="45.90927206098752" lon="11.907797137550217"><ele>290.4</ele><time>2026-04-11T11:09:17.999Z</time></trkpt><trkpt lat="45.909408728220164" lon="11.907756462989479"><ele>288.6</ele><time>2026-04-11T11:09:20.999Z</time></trkpt><trkpt lat="45.909478196092216" lon="11.907717628432092"><ele>286.8</ele><time>2026-04-11T11:09:22.999Z</time></trkpt><trkpt lat="45.90944537184829" lon="11.907637215999728"><ele>285.0</ele><time>2026-04-11T11:09:25.999Z</time></trkpt><trkpt lat="45.90942240521263" lon="11.907538478562019"><ele>285.0</ele><time>2026-04-11T11:15:11.999Z</time></trkpt><trkpt lat="45.90934771954735" lon="11.907495693873749"><ele>285.0</ele><time>2026-04-11T11:15:14.999Z</time></trkpt><trkpt lat="45.90928492352447" lon="11.907459720327104"><ele>285.0</ele><time>2026-04-11T11:15:19.999Z</time></trkpt><trkpt lat="45.909225099917926" lon="11.90742544956915"><ele>285.0</ele><time>2026-04-11T11:15:31.999Z</time></trkpt><trkpt lat="45.909326514613525" lon="11.907470395503884"><ele>285.0</ele><time>2026-04-11T11:16:13.999Z</time></trkpt><trkpt lat="45.909396415255195" lon="11.907477798068008"><ele>285.0</ele><time>2026-04-11T11:16:15.999Z</time></trkpt><trkpt lat="45.90944361488084" lon="11.907846961493313"><ele>285.0</ele><time>2026-04-11T11:16:59.998Z</time></trkpt><trkpt lat="45.90954420212906" lon="11.907758449641918"><ele>285.0</ele><time>2026-04-11T11:17:02.998Z</time></trkpt><trkpt lat="45.909489150692785" lon="11.907662146856168"><ele>285.0</ele><time>2026-04-11T11:17:03.998Z</time></trkpt><trkpt lat="45.90954636181037" lon="11.907603844683264"><ele>285.0</ele><time>2026-04-11T11:17:06Z</time></trkpt><trkpt lat="45.9095013362662" lon="11.907507613456291"><ele>285.0</ele><time>2026-04-11T11:18:50.999Z</time></trkpt><trkpt lat="45.90945878091115" lon="11.907576841896203"><ele>285.0</ele><time>2026-04-11T11:18:59.999Z</time></trkpt><trkpt lat="45.90943049821585" lon="11.907701826520958"><ele>285.0</ele><time>2026-04-11T11:19:02.999Z</time></trkpt></trkseg></trk></gpx>